<?xml version="1.0" encoding="UTF-8" standalone="no" ?>
<gpx xmlns="http://www.topografix.com/GPX/1/1" xmlns:xsi="http://www.w3.org/2001/XMLSchema-instance" xsi:schemaLocation="http://www.topografix.com/GPX/1/1 http://www.topografix.com/GPX/1/1/gpx.xsd" version="1.1" creator="VisuGPX - https://www.visugpx.com">
  <metadata>
    <name>Tour des Aiguilles de l Argentiere (Belledonne)</name>
    <desc><![CDATA[Départ depuis [b]Fond de France[/b]. L'Aller par [b]La Combe Madame[/b], passer [b]la Marmottane[/b] et prendre la direction du [b]Col de la Croix[/b] (2529m). Descendre ensuite la [b]Combe de la Croix[/b] jusqu'au carrefour bien indiqué "[b]Lac de la Combe[/b]". Remonter en direction du Lac,. Du Lac, direction plein Ouest à altitude constante (2300-2400) jusqu'au pied de la [b]Brèche du Pin[/b].
Passé la Brèche, on rejoint la Montée qui mène au [b]Col de la Combe Madame[/b] (qq kairns). Vers 2450, obliquer plein Ouest pour rejoindre le Lac non nommé sous le [b]Col de l'Amiante[/b] (qq kairns). Du lac, rejoindre le [b]col de l'Amiante[/b] (2809m). Du col, Retour par le l[b]ac Blanc[/b] puis le sentier [b]Fond de France/Les 7 Laux[/b]. 
[color=red][b]Beaucoup de "hors sentier" et "casse pattes" entre le Lac de la Combe et le "Lac Blanc": R3[/b][/color]
.
photos là: [url]https://goo.gl/photos/hUSX91aXLn7oM2rp9[/url]]]></desc>
  </metadata>
  <wpt lat="45.25793" lon="6.13909">
    <ele>2531.498291</ele>
    <name><![CDATA[001]]></name>
    <desc><![CDATA[03-SEP-11]]></desc>
    <cmt><![CDATA[03-SEP-11]]></cmt>
  </wpt>
  <wpt lat="45.23626" lon="6.15747">
    <ele>2110.924561</ele>
    <name><![CDATA[002]]></name>
    <desc><![CDATA[03-SEP-11]]></desc>
    <cmt><![CDATA[03-SEP-11]]></cmt>
  </wpt>
  <wpt lat="45.23884" lon="6.10786">
    <ele>2810.038086</ele>
    <name><![CDATA[003]]></name>
    <desc><![CDATA[03-SEP-11]]></desc>
    <cmt><![CDATA[03-SEP-11]]></cmt>
  </wpt>
  <trk>
    <name><![CDATA[1]]></name>
    <trkseg>
      <trkpt lat="45.28289" lon="6.07446">
        <ele>1060.952148</ele>
        <time>2011-09-03T04:26:40Z</time>
      </trkpt>
      <trkpt lat="45.28285" lon="6.0743">
        <ele>1060.471436</ele>
        <time>2011-09-03T04:26:50Z</time>
      </trkpt>
      <trkpt lat="45.28277" lon="6.07421">
        <ele>1058.548828</ele>
        <time>2011-09-03T04:26:57Z</time>
      </trkpt>
      <trkpt lat="45.28226" lon="6.07412">
        <ele>1081.620361</ele>
        <time>2011-09-03T04:27:33Z</time>
      </trkpt>
      <trkpt lat="45.28215" lon="6.07418">
        <ele>1090.75293</ele>
        <time>2011-09-03T04:27:40Z</time>
      </trkpt>
      <trkpt lat="45.28179" lon="6.07535">
        <ele>1070.56543</ele>
        <time>2011-09-03T04:28:43Z</time>
      </trkpt>
      <trkpt lat="45.28108" lon="6.07724">
        <ele>1084.023926</ele>
        <time>2011-09-03T04:30:29Z</time>
      </trkpt>
      <trkpt lat="45.28069" lon="6.07794">
        <ele>1091.233643</ele>
        <time>2011-09-03T04:31:15Z</time>
      </trkpt>
      <trkpt lat="45.27985" lon="6.07839">
        <ele>1131.608887</ele>
        <time>2011-09-03T04:32:26Z</time>
      </trkpt>
      <trkpt lat="45.2796" lon="6.07873">
        <ele>1130.647705</ele>
        <time>2011-09-03T04:32:50Z</time>
      </trkpt>
      <trkpt lat="45.2794" lon="6.07887">
        <ele>1137.857666</ele>
        <time>2011-09-03T04:33:12Z</time>
      </trkpt>
      <trkpt lat="45.27936" lon="6.07895">
        <ele>1140.260986</ele>
        <time>2011-09-03T04:33:18Z</time>
      </trkpt>
      <trkpt lat="45.27937" lon="6.07907">
        <ele>1144.106201</ele>
        <time>2011-09-03T04:33:32Z</time>
      </trkpt>
      <trkpt lat="45.27921" lon="6.07929">
        <ele>1135.935059</ele>
        <time>2011-09-03T04:33:52Z</time>
      </trkpt>
      <trkpt lat="45.27892" lon="6.07958">
        <ele>1121.515137</ele>
        <time>2011-09-03T04:34:30Z</time>
      </trkpt>
      <trkpt lat="45.27851" lon="6.07969">
        <ele>1145.067383</ele>
        <time>2011-09-03T04:35:13Z</time>
      </trkpt>
      <trkpt lat="45.27825" lon="6.0797">
        <ele>1151.316162</ele>
        <time>2011-09-03T04:35:36Z</time>
      </trkpt>
      <trkpt lat="45.27821" lon="6.07964">
        <ele>1156.603271</ele>
        <time>2011-09-03T04:35:41Z</time>
      </trkpt>
      <trkpt lat="45.27804" lon="6.07958">
        <ele>1161.409912</ele>
        <time>2011-09-03T04:35:54Z</time>
      </trkpt>
      <trkpt lat="45.27786" lon="6.07945">
        <ele>1155.161377</ele>
        <time>2011-09-03T04:36:12Z</time>
      </trkpt>
      <trkpt lat="45.2777" lon="6.07946">
        <ele>1157.083984</ele>
        <time>2011-09-03T04:36:26Z</time>
      </trkpt>
      <trkpt lat="45.27768" lon="6.07952">
        <ele>1159.006592</ele>
        <time>2011-09-03T04:36:46Z</time>
      </trkpt>
      <trkpt lat="45.2772" lon="6.07955">
        <ele>1159.006592</ele>
        <time>2011-09-03T04:37:20Z</time>
      </trkpt>
      <trkpt lat="45.27691" lon="6.07941">
        <ele>1156.122559</ele>
        <time>2011-09-03T04:37:47Z</time>
      </trkpt>
      <trkpt lat="45.27665" lon="6.0795">
        <ele>1155.64209</ele>
        <time>2011-09-03T04:38:11Z</time>
      </trkpt>
      <trkpt lat="45.2766" lon="6.07958">
        <ele>1157.564697</ele>
        <time>2011-09-03T04:38:20Z</time>
      </trkpt>
      <trkpt lat="45.27648" lon="6.07959">
        <ele>1151.316162</ele>
        <time>2011-09-03T04:38:31Z</time>
      </trkpt>
      <trkpt lat="45.27631" lon="6.07972">
        <ele>1151.316162</ele>
        <time>2011-09-03T04:38:49Z</time>
      </trkpt>
      <trkpt lat="45.27617" lon="6.08004">
        <ele>1150.835449</ele>
        <time>2011-09-03T04:39:11Z</time>
      </trkpt>
      <trkpt lat="45.27604" lon="6.08009">
        <ele>1148.432129</ele>
        <time>2011-09-03T04:39:24Z</time>
      </trkpt>
      <trkpt lat="45.27595" lon="6.08018">
        <ele>1149.874268</ele>
        <time>2011-09-03T04:39:37Z</time>
      </trkpt>
      <trkpt lat="45.276" lon="6.08034">
        <ele>1145.548096</ele>
        <time>2011-09-03T04:39:52Z</time>
      </trkpt>
      <trkpt lat="45.27596" lon="6.0804">
        <ele>1142.183594</ele>
        <time>2011-09-03T04:39:59Z</time>
      </trkpt>
      <trkpt lat="45.27597" lon="6.08051">
        <ele>1141.222168</ele>
        <time>2011-09-03T04:40:11Z</time>
      </trkpt>
      <trkpt lat="45.27587" lon="6.08074">
        <ele>1146.509521</ele>
        <time>2011-09-03T04:40:35Z</time>
      </trkpt>
      <trkpt lat="45.27592" lon="6.0808">
        <ele>1146.509521</ele>
        <time>2011-09-03T04:40:42Z</time>
      </trkpt>
      <trkpt lat="45.27595" lon="6.08115">
        <ele>1146.98999</ele>
        <time>2011-09-03T04:41:25Z</time>
      </trkpt>
      <trkpt lat="45.276" lon="6.08125">
        <ele>1147.470703</ele>
        <time>2011-09-03T04:41:41Z</time>
      </trkpt>
      <trkpt lat="45.27592" lon="6.08131">
        <ele>1145.548096</ele>
        <time>2011-09-03T04:41:51Z</time>
      </trkpt>
      <trkpt lat="45.2759" lon="6.08139">
        <ele>1144.106201</ele>
        <time>2011-09-03T04:41:56Z</time>
      </trkpt>
      <trkpt lat="45.27594" lon="6.08155">
        <ele>1140.741455</ele>
        <time>2011-09-03T04:42:14Z</time>
      </trkpt>
      <trkpt lat="45.27589" lon="6.08154">
        <ele>1139.299561</ele>
        <time>2011-09-03T04:42:19Z</time>
      </trkpt>
      <trkpt lat="45.27573" lon="6.08177">
        <ele>1136.89624</ele>
        <time>2011-09-03T04:42:43Z</time>
      </trkpt>
      <trkpt lat="45.27567" lon="6.08215">
        <ele>1133.051025</ele>
        <time>2011-09-03T04:43:15Z</time>
      </trkpt>
      <trkpt lat="45.27557" lon="6.0825">
        <ele>1132.089844</ele>
        <time>2011-09-03T04:43:39Z</time>
      </trkpt>
      <trkpt lat="45.27548" lon="6.08255">
        <ele>1131.608887</ele>
        <time>2011-09-03T04:43:47Z</time>
      </trkpt>
      <trkpt lat="45.27539" lon="6.08272">
        <ele>1131.128418</ele>
        <time>2011-09-03T04:44:02Z</time>
      </trkpt>
      <trkpt lat="45.27514" lon="6.08288">
        <ele>1130.647705</ele>
        <time>2011-09-03T04:44:23Z</time>
      </trkpt>
      <trkpt lat="45.27513" lon="6.08293">
        <ele>1129.205566</ele>
        <time>2011-09-03T04:44:29Z</time>
      </trkpt>
      <trkpt lat="45.27507" lon="6.08291">
        <ele>1129.205566</ele>
        <time>2011-09-03T04:44:39Z</time>
      </trkpt>
      <trkpt lat="45.27487" lon="6.08308">
        <ele>1131.128418</ele>
        <time>2011-09-03T04:45:00Z</time>
      </trkpt>
      <trkpt lat="45.27482" lon="6.08308">
        <ele>1133.531738</ele>
        <time>2011-09-03T04:45:05Z</time>
      </trkpt>
      <trkpt lat="45.27465" lon="6.08335">
        <ele>1143.625488</ele>
        <time>2011-09-03T04:45:32Z</time>
      </trkpt>
      <trkpt lat="45.2745" lon="6.0834">
        <ele>1145.548096</ele>
        <time>2011-09-03T04:45:44Z</time>
      </trkpt>
      <trkpt lat="45.27438" lon="6.08377">
        <ele>1155.161377</ele>
        <time>2011-09-03T04:46:30Z</time>
      </trkpt>
      <trkpt lat="45.27422" lon="6.08396">
        <ele>1171.984375</ele>
        <time>2011-09-03T04:46:55Z</time>
      </trkpt>
      <trkpt lat="45.27417" lon="6.08396">
        <ele>1175.82959</ele>
        <time>2011-09-03T04:47:00Z</time>
      </trkpt>
      <trkpt lat="45.27399" lon="6.08421">
        <ele>1199.862793</ele>
        <time>2011-09-03T04:47:29Z</time>
      </trkpt>
      <trkpt lat="45.27398" lon="6.08436">
        <ele>1222.934326</ele>
        <time>2011-09-03T04:47:48Z</time>
      </trkpt>
      <trkpt lat="45.27382" lon="6.08461">
        <ele>1235.912109</ele>
        <time>2011-09-03T04:48:19Z</time>
      </trkpt>
      <trkpt lat="45.27386" lon="6.08466">
        <ele>1236.873291</ele>
        <time>2011-09-03T04:48:26Z</time>
      </trkpt>
      <trkpt lat="45.27392" lon="6.08457">
        <ele>1224.856934</ele>
        <time>2011-09-03T04:48:32Z</time>
      </trkpt>
      <trkpt lat="45.27393" lon="6.08461">
        <ele>1227.260254</ele>
        <time>2011-09-03T04:48:36Z</time>
      </trkpt>
      <trkpt lat="45.27385" lon="6.08471">
        <ele>1231.105713</ele>
        <time>2011-09-03T04:48:48Z</time>
      </trkpt>
      <trkpt lat="45.27378" lon="6.08473">
        <ele>1227.740723</ele>
        <time>2011-09-03T04:48:57Z</time>
      </trkpt>
      <trkpt lat="45.27369" lon="6.08495">
        <ele>1221.492188</ele>
        <time>2011-09-03T04:49:23Z</time>
      </trkpt>
      <trkpt lat="45.2736" lon="6.08505">
        <ele>1227.740723</ele>
        <time>2011-09-03T04:49:41Z</time>
      </trkpt>
      <trkpt lat="45.27359" lon="6.08514">
        <ele>1228.702393</ele>
        <time>2011-09-03T04:49:48Z</time>
      </trkpt>
      <trkpt lat="45.27371" lon="6.08505">
        <ele>1231.105713</ele>
        <time>2011-09-03T04:50:02Z</time>
      </trkpt>
      <trkpt lat="45.27383" lon="6.08506">
        <ele>1232.066895</ele>
        <time>2011-09-03T04:50:11Z</time>
      </trkpt>
      <trkpt lat="45.27372" lon="6.08531">
        <ele>1251.293213</ele>
        <time>2011-09-03T04:50:38Z</time>
      </trkpt>
      <trkpt lat="45.27358" lon="6.08537">
        <ele>1263.309814</ele>
        <time>2011-09-03T04:50:50Z</time>
      </trkpt>
      <trkpt lat="45.27344" lon="6.08556">
        <ele>1282.05542</ele>
        <time>2011-09-03T04:51:03Z</time>
      </trkpt>
      <trkpt lat="45.27347" lon="6.08603">
        <ele>1307.530273</ele>
        <time>2011-09-03T04:51:29Z</time>
      </trkpt>
      <trkpt lat="45.27342" lon="6.08593">
        <ele>1320.027344</ele>
        <time>2011-09-03T04:51:45Z</time>
      </trkpt>
      <trkpt lat="45.27351" lon="6.08578">
        <ele>1321.469238</ele>
        <time>2011-09-03T04:52:00Z</time>
      </trkpt>
      <trkpt lat="45.2737" lon="6.08577">
        <ele>1342.618652</ele>
        <time>2011-09-03T04:52:22Z</time>
      </trkpt>
      <trkpt lat="45.27373" lon="6.08583">
        <ele>1344.541016</ele>
        <time>2011-09-03T04:52:28Z</time>
      </trkpt>
      <trkpt lat="45.27376" lon="6.08667">
        <ele>1362.325439</ele>
        <time>2011-09-03T04:53:52Z</time>
      </trkpt>
      <trkpt lat="45.27361" lon="6.08701">
        <ele>1367.13208</ele>
        <time>2011-09-03T04:54:18Z</time>
      </trkpt>
      <trkpt lat="45.27355" lon="6.08707">
        <ele>1357.03833</ele>
        <time>2011-09-03T04:54:25Z</time>
      </trkpt>
      <trkpt lat="45.27343" lon="6.08739">
        <ele>1353.192871</ele>
        <time>2011-09-03T04:54:45Z</time>
      </trkpt>
      <trkpt lat="45.27326" lon="6.08759">
        <ele>1362.325439</ele>
        <time>2011-09-03T04:55:02Z</time>
      </trkpt>
      <trkpt lat="45.27321" lon="6.08776">
        <ele>1360.402832</ele>
        <time>2011-09-03T04:55:11Z</time>
      </trkpt>
      <trkpt lat="45.27316" lon="6.08815">
        <ele>1364.248047</ele>
        <time>2011-09-03T04:55:34Z</time>
      </trkpt>
      <trkpt lat="45.27302" lon="6.08839">
        <ele>1353.673584</ele>
        <time>2011-09-03T04:55:49Z</time>
      </trkpt>
      <trkpt lat="45.2729" lon="6.0888">
        <ele>1356.076904</ele>
        <time>2011-09-03T04:56:21Z</time>
      </trkpt>
      <trkpt lat="45.27274" lon="6.08891">
        <ele>1372.419434</ele>
        <time>2011-09-03T04:56:39Z</time>
      </trkpt>
      <trkpt lat="45.27262" lon="6.08929">
        <ele>1352.231445</ele>
        <time>2011-09-03T04:57:00Z</time>
      </trkpt>
      <trkpt lat="45.27256" lon="6.08936">
        <ele>1350.789551</ele>
        <time>2011-09-03T04:57:04Z</time>
      </trkpt>
      <trkpt lat="45.27246" lon="6.08968">
        <ele>1352.712158</ele>
        <time>2011-09-03T04:57:26Z</time>
      </trkpt>
      <trkpt lat="45.2724" lon="6.08998">
        <ele>1359.922119</ele>
        <time>2011-09-03T04:57:45Z</time>
      </trkpt>
      <trkpt lat="45.27245" lon="6.0901">
        <ele>1361.364258</ele>
        <time>2011-09-03T04:57:58Z</time>
      </trkpt>
      <trkpt lat="45.27236" lon="6.09042">
        <ele>1370.977295</ele>
        <time>2011-09-03T04:58:37Z</time>
      </trkpt>
      <trkpt lat="45.27235" lon="6.09037">
        <ele>1394.529541</ele>
        <time>2011-09-03T04:58:54Z</time>
      </trkpt>
      <trkpt lat="45.27236" lon="6.09045">
        <ele>1394.529541</ele>
        <time>2011-09-03T04:58:58Z</time>
      </trkpt>
      <trkpt lat="45.27231" lon="6.09062">
        <ele>1371.457764</ele>
        <time>2011-09-03T04:59:10Z</time>
      </trkpt>
      <trkpt lat="45.27231" lon="6.09074">
        <ele>1368.093262</ele>
        <time>2011-09-03T04:59:20Z</time>
      </trkpt>
      <trkpt lat="45.2722" lon="6.09118">
        <ele>1383.474365</ele>
        <time>2011-09-03T04:59:49Z</time>
      </trkpt>
      <trkpt lat="45.27223" lon="6.09126">
        <ele>1382.993652</ele>
        <time>2011-09-03T04:59:54Z</time>
      </trkpt>
      <trkpt lat="45.27222" lon="6.09141">
        <ele>1383.955078</ele>
        <time>2011-09-03T05:00:05Z</time>
      </trkpt>
      <trkpt lat="45.27211" lon="6.09177">
        <ele>1398.374756</ele>
        <time>2011-09-03T05:00:36Z</time>
      </trkpt>
      <trkpt lat="45.27214" lon="6.09205">
        <ele>1400.297607</ele>
        <time>2011-09-03T05:00:58Z</time>
      </trkpt>
      <trkpt lat="45.2721" lon="6.09228">
        <ele>1409.430176</ele>
        <time>2011-09-03T05:01:15Z</time>
      </trkpt>
      <trkpt lat="45.27196" lon="6.0927">
        <ele>1406.546143</ele>
        <time>2011-09-03T05:01:54Z</time>
      </trkpt>
      <trkpt lat="45.27196" lon="6.09316">
        <ele>1402.700684</ele>
        <time>2011-09-03T05:02:30Z</time>
      </trkpt>
      <trkpt lat="45.27192" lon="6.09324">
        <ele>1408.46875</ele>
        <time>2011-09-03T05:02:37Z</time>
      </trkpt>
      <trkpt lat="45.27183" lon="6.09406">
        <ele>1414.236572</ele>
        <time>2011-09-03T05:03:30Z</time>
      </trkpt>
      <trkpt lat="45.27168" lon="6.09428">
        <ele>1435.385498</ele>
        <time>2011-09-03T05:03:55Z</time>
      </trkpt>
      <trkpt lat="45.27167" lon="6.09454">
        <ele>1429.136963</ele>
        <time>2011-09-03T05:04:11Z</time>
      </trkpt>
      <trkpt lat="45.27158" lon="6.09493">
        <ele>1425.772461</ele>
        <time>2011-09-03T05:04:41Z</time>
      </trkpt>
      <trkpt lat="45.2714" lon="6.09526">
        <ele>1431.059814</ele>
        <time>2011-09-03T05:05:13Z</time>
      </trkpt>
      <trkpt lat="45.27137" lon="6.09544">
        <ele>1435.866211</ele>
        <time>2011-09-03T05:05:30Z</time>
      </trkpt>
      <trkpt lat="45.27117" lon="6.09567">
        <ele>1444.518066</ele>
        <time>2011-09-03T05:06:02Z</time>
      </trkpt>
      <trkpt lat="45.27106" lon="6.09569">
        <ele>1446.440918</ele>
        <time>2011-09-03T05:06:14Z</time>
      </trkpt>
      <trkpt lat="45.27078" lon="6.09614">
        <ele>1449.324707</ele>
        <time>2011-09-03T05:06:58Z</time>
      </trkpt>
      <trkpt lat="45.27065" lon="6.09618">
        <ele>1448.363281</ele>
        <time>2011-09-03T05:07:09Z</time>
      </trkpt>
      <trkpt lat="45.27057" lon="6.09628">
        <ele>1448.843994</ele>
        <time>2011-09-03T05:07:18Z</time>
      </trkpt>
      <trkpt lat="45.27048" lon="6.09629">
        <ele>1449.324707</ele>
        <time>2011-09-03T05:07:23Z</time>
      </trkpt>
      <trkpt lat="45.27044" lon="6.09636">
        <ele>1456.053955</ele>
        <time>2011-09-03T05:07:29Z</time>
      </trkpt>
      <trkpt lat="45.27041" lon="6.09654">
        <ele>1459.418701</ele>
        <time>2011-09-03T05:07:41Z</time>
      </trkpt>
      <trkpt lat="45.2703" lon="6.09658">
        <ele>1457.976807</ele>
        <time>2011-09-03T05:07:51Z</time>
      </trkpt>
      <trkpt lat="45.2703" lon="6.09677">
        <ele>1456.053955</ele>
        <time>2011-09-03T05:08:03Z</time>
      </trkpt>
      <trkpt lat="45.27023" lon="6.09681">
        <ele>1455.092773</ele>
        <time>2011-09-03T05:08:25Z</time>
      </trkpt>
      <trkpt lat="45.27008" lon="6.0972">
        <ele>1461.341309</ele>
        <time>2011-09-03T05:08:53Z</time>
      </trkpt>
      <trkpt lat="45.27006" lon="6.09737">
        <ele>1460.379883</ele>
        <time>2011-09-03T05:09:04Z</time>
      </trkpt>
      <trkpt lat="45.26985" lon="6.09763">
        <ele>1472.877197</ele>
        <time>2011-09-03T05:09:20Z</time>
      </trkpt>
      <trkpt lat="45.26975" lon="6.09796">
        <ele>1474.799805</ele>
        <time>2011-09-03T05:09:35Z</time>
      </trkpt>
      <trkpt lat="45.2696" lon="6.09817">
        <ele>1469.031982</ele>
        <time>2011-09-03T05:09:55Z</time>
      </trkpt>
      <trkpt lat="45.26958" lon="6.09832">
        <ele>1469.993164</ele>
        <time>2011-09-03T05:10:06Z</time>
      </trkpt>
      <trkpt lat="45.26948" lon="6.09847">
        <ele>1479.125488</ele>
        <time>2011-09-03T05:10:21Z</time>
      </trkpt>
      <trkpt lat="45.26945" lon="6.09872">
        <ele>1472.396484</ele>
        <time>2011-09-03T05:10:43Z</time>
      </trkpt>
      <trkpt lat="45.26932" lon="6.0989">
        <ele>1470.95459</ele>
        <time>2011-09-03T05:10:56Z</time>
      </trkpt>
      <trkpt lat="45.2692" lon="6.09923">
        <ele>1476.241699</ele>
        <time>2011-09-03T05:11:22Z</time>
      </trkpt>
      <trkpt lat="45.26893" lon="6.0994">
        <ele>1489.700195</ele>
        <time>2011-09-03T05:11:44Z</time>
      </trkpt>
      <trkpt lat="45.26888" lon="6.0995">
        <ele>1487.777588</ele>
        <time>2011-09-03T05:11:52Z</time>
      </trkpt>
      <trkpt lat="45.26865" lon="6.09976">
        <ele>1481.04834</ele>
        <time>2011-09-03T05:12:20Z</time>
      </trkpt>
      <trkpt lat="45.26823" lon="6.10037">
        <ele>1490.661377</ele>
        <time>2011-09-03T05:13:10Z</time>
      </trkpt>
      <trkpt lat="45.26818" lon="6.1006">
        <ele>1491.14209</ele>
        <time>2011-09-03T05:13:29Z</time>
      </trkpt>
      <trkpt lat="45.26806" lon="6.10079">
        <ele>1491.622803</ele>
        <time>2011-09-03T05:13:47Z</time>
      </trkpt>
      <trkpt lat="45.26788" lon="6.10089">
        <ele>1494.506592</ele>
        <time>2011-09-03T05:14:04Z</time>
      </trkpt>
      <trkpt lat="45.26768" lon="6.1014">
        <ele>1505.562012</ele>
        <time>2011-09-03T05:14:50Z</time>
      </trkpt>
      <trkpt lat="45.26768" lon="6.1016">
        <ele>1510.368408</ele>
        <time>2011-09-03T05:15:06Z</time>
      </trkpt>
      <trkpt lat="45.26772" lon="6.10166">
        <ele>1513.73291</ele>
        <time>2011-09-03T05:15:12Z</time>
      </trkpt>
      <trkpt lat="45.2677" lon="6.10173">
        <ele>1514.694336</ele>
        <time>2011-09-03T05:15:18Z</time>
      </trkpt>
      <trkpt lat="45.26774" lon="6.10187">
        <ele>1516.617188</ele>
        <time>2011-09-03T05:15:32Z</time>
      </trkpt>
      <trkpt lat="45.26774" lon="6.1021">
        <ele>1520.462402</ele>
        <time>2011-09-03T05:15:55Z</time>
      </trkpt>
      <trkpt lat="45.26777" lon="6.10212">
        <ele>1520.943115</ele>
        <time>2011-09-03T05:16:00Z</time>
      </trkpt>
      <trkpt lat="45.26754" lon="6.10258">
        <ele>1536.324219</ele>
        <time>2011-09-03T05:16:46Z</time>
      </trkpt>
      <trkpt lat="45.26777" lon="6.10256">
        <ele>1536.804688</ele>
        <time>2011-09-03T05:17:11Z</time>
      </trkpt>
      <trkpt lat="45.26796" lon="6.10269">
        <ele>1540.169434</ele>
        <time>2011-09-03T05:17:33Z</time>
      </trkpt>
      <trkpt lat="45.26791" lon="6.10281">
        <ele>1543.053223</ele>
        <time>2011-09-03T05:17:45Z</time>
      </trkpt>
      <trkpt lat="45.2677" lon="6.1029">
        <ele>1551.224609</ele>
        <time>2011-09-03T05:18:06Z</time>
      </trkpt>
      <trkpt lat="45.26765" lon="6.10306">
        <ele>1554.108643</ele>
        <time>2011-09-03T05:18:18Z</time>
      </trkpt>
      <trkpt lat="45.2675" lon="6.10332">
        <ele>1555.550537</ele>
        <time>2011-09-03T05:18:37Z</time>
      </trkpt>
      <trkpt lat="45.2675" lon="6.10341">
        <ele>1552.666504</ele>
        <time>2011-09-03T05:18:42Z</time>
      </trkpt>
      <trkpt lat="45.26745" lon="6.10358">
        <ele>1554.589111</ele>
        <time>2011-09-03T05:18:54Z</time>
      </trkpt>
      <trkpt lat="45.26753" lon="6.10357">
        <ele>1559.395752</ele>
        <time>2011-09-03T05:19:05Z</time>
      </trkpt>
      <trkpt lat="45.26744" lon="6.1038">
        <ele>1561.799072</ele>
        <time>2011-09-03T05:19:23Z</time>
      </trkpt>
      <trkpt lat="45.26737" lon="6.10429">
        <ele>1569.009033</ele>
        <time>2011-09-03T05:20:08Z</time>
      </trkpt>
      <trkpt lat="45.26753" lon="6.10418">
        <ele>1573.334961</ele>
        <time>2011-09-03T05:20:26Z</time>
      </trkpt>
      <trkpt lat="45.26757" lon="6.10424">
        <ele>1573.81543</ele>
        <time>2011-09-03T05:20:32Z</time>
      </trkpt>
      <trkpt lat="45.26744" lon="6.10456">
        <ele>1576.699463</ele>
        <time>2011-09-03T05:21:00Z</time>
      </trkpt>
      <trkpt lat="45.2674" lon="6.10486">
        <ele>1583.428711</ele>
        <time>2011-09-03T05:21:20Z</time>
      </trkpt>
      <trkpt lat="45.26727" lon="6.10506">
        <ele>1586.312744</ele>
        <time>2011-09-03T05:21:42Z</time>
      </trkpt>
      <trkpt lat="45.26716" lon="6.10542">
        <ele>1589.677246</ele>
        <time>2011-09-03T05:22:08Z</time>
      </trkpt>
      <trkpt lat="45.26706" lon="6.1056">
        <ele>1592.561279</ele>
        <time>2011-09-03T05:22:25Z</time>
      </trkpt>
      <trkpt lat="45.26687" lon="6.10575">
        <ele>1604.097168</ele>
        <time>2011-09-03T05:22:48Z</time>
      </trkpt>
      <trkpt lat="45.26679" lon="6.10606">
        <ele>1607.942383</ele>
        <time>2011-09-03T05:23:13Z</time>
      </trkpt>
      <trkpt lat="45.26681" lon="6.10623">
        <ele>1609.384277</ele>
        <time>2011-09-03T05:23:28Z</time>
      </trkpt>
      <trkpt lat="45.26688" lon="6.10619">
        <ele>1616.113525</ele>
        <time>2011-09-03T05:23:39Z</time>
      </trkpt>
      <trkpt lat="45.26697" lon="6.10625">
        <ele>1615.152344</ele>
        <time>2011-09-03T05:23:49Z</time>
      </trkpt>
      <trkpt lat="45.26694" lon="6.10642">
        <ele>1617.55542</ele>
        <time>2011-09-03T05:24:02Z</time>
      </trkpt>
      <trkpt lat="45.26698" lon="6.1066">
        <ele>1621.400635</ele>
        <time>2011-09-03T05:24:17Z</time>
      </trkpt>
      <trkpt lat="45.26694" lon="6.10669">
        <ele>1622.842773</ele>
        <time>2011-09-03T05:24:27Z</time>
      </trkpt>
      <trkpt lat="45.26701" lon="6.10672">
        <ele>1621.400635</ele>
        <time>2011-09-03T05:24:34Z</time>
      </trkpt>
      <trkpt lat="45.26708" lon="6.10693">
        <ele>1623.803955</ele>
        <time>2011-09-03T05:24:57Z</time>
      </trkpt>
      <trkpt lat="45.26698" lon="6.10699">
        <ele>1628.130127</ele>
        <time>2011-09-03T05:25:08Z</time>
      </trkpt>
      <trkpt lat="45.26694" lon="6.1071">
        <ele>1627.168701</ele>
        <time>2011-09-03T05:25:17Z</time>
      </trkpt>
      <trkpt lat="45.26686" lon="6.10717">
        <ele>1630.052734</ele>
        <time>2011-09-03T05:25:27Z</time>
      </trkpt>
      <trkpt lat="45.26682" lon="6.10728">
        <ele>1628.61084</ele>
        <time>2011-09-03T05:25:37Z</time>
      </trkpt>
      <trkpt lat="45.26668" lon="6.10735">
        <ele>1632.456055</ele>
        <time>2011-09-03T05:25:51Z</time>
      </trkpt>
      <trkpt lat="45.26642" lon="6.10786">
        <ele>1644.472412</ele>
        <time>2011-09-03T05:26:48Z</time>
      </trkpt>
      <trkpt lat="45.26645" lon="6.10787">
        <ele>1649.759766</ele>
        <time>2011-09-03T05:27:31Z</time>
      </trkpt>
      <trkpt lat="45.26638" lon="6.10804">
        <ele>1648.317627</ele>
        <time>2011-09-03T05:28:42Z</time>
      </trkpt>
      <trkpt lat="45.26627" lon="6.1081">
        <ele>1650.240479</ele>
        <time>2011-09-03T05:28:55Z</time>
      </trkpt>
      <trkpt lat="45.26615" lon="6.1083">
        <ele>1656.008057</ele>
        <time>2011-09-03T05:29:18Z</time>
      </trkpt>
      <trkpt lat="45.26617" lon="6.10831">
        <ele>1657.450195</ele>
        <time>2011-09-03T05:29:23Z</time>
      </trkpt>
      <trkpt lat="45.26607" lon="6.1087">
        <ele>1665.621582</ele>
        <time>2011-09-03T05:30:05Z</time>
      </trkpt>
      <trkpt lat="45.26622" lon="6.10863">
        <ele>1669.466797</ele>
        <time>2011-09-03T05:30:25Z</time>
      </trkpt>
      <trkpt lat="45.26622" lon="6.10867">
        <ele>1669.947266</ele>
        <time>2011-09-03T05:30:29Z</time>
      </trkpt>
      <trkpt lat="45.26629" lon="6.1087">
        <ele>1672.831299</ele>
        <time>2011-09-03T05:30:40Z</time>
      </trkpt>
      <trkpt lat="45.26623" lon="6.10893">
        <ele>1679.560547</ele>
        <time>2011-09-03T05:31:03Z</time>
      </trkpt>
      <trkpt lat="45.26626" lon="6.10899">
        <ele>1681.002686</ele>
        <time>2011-09-03T05:31:12Z</time>
      </trkpt>
      <trkpt lat="45.26624" lon="6.1091">
        <ele>1682.925049</ele>
        <time>2011-09-03T05:31:25Z</time>
      </trkpt>
      <trkpt lat="45.26626" lon="6.10915">
        <ele>1684.8479</ele>
        <time>2011-09-03T05:31:31Z</time>
      </trkpt>
      <trkpt lat="45.26644" lon="6.10914">
        <ele>1691.096191</ele>
        <time>2011-09-03T05:31:55Z</time>
      </trkpt>
      <trkpt lat="45.26638" lon="6.10939">
        <ele>1693.980469</ele>
        <time>2011-09-03T05:32:19Z</time>
      </trkpt>
      <trkpt lat="45.26653" lon="6.10948">
        <ele>1698.786865</ele>
        <time>2011-09-03T05:32:42Z</time>
      </trkpt>
      <trkpt lat="45.26644" lon="6.1097">
        <ele>1702.151367</ele>
        <time>2011-09-03T05:33:02Z</time>
      </trkpt>
      <trkpt lat="45.26635" lon="6.1098">
        <ele>1703.593506</ele>
        <time>2011-09-03T05:33:14Z</time>
      </trkpt>
      <trkpt lat="45.26649" lon="6.10986">
        <ele>1706.958008</ele>
        <time>2011-09-03T05:33:28Z</time>
      </trkpt>
      <trkpt lat="45.26659" lon="6.10984">
        <ele>1709.361572</ele>
        <time>2011-09-03T05:33:39Z</time>
      </trkpt>
      <trkpt lat="45.2665" lon="6.11001">
        <ele>1713.206787</ele>
        <time>2011-09-03T05:33:56Z</time>
      </trkpt>
      <trkpt lat="45.26641" lon="6.11009">
        <ele>1716.090576</ele>
        <time>2011-09-03T05:34:09Z</time>
      </trkpt>
      <trkpt lat="45.26651" lon="6.11011">
        <ele>1718.493896</ele>
        <time>2011-09-03T05:34:20Z</time>
      </trkpt>
      <trkpt lat="45.26662" lon="6.11006">
        <ele>1719.455322</ele>
        <time>2011-09-03T05:34:31Z</time>
      </trkpt>
      <trkpt lat="45.26647" lon="6.11032">
        <ele>1722.819824</ele>
        <time>2011-09-03T05:34:57Z</time>
      </trkpt>
      <trkpt lat="45.26636" lon="6.11036">
        <ele>1726.665283</ele>
        <time>2011-09-03T05:35:09Z</time>
      </trkpt>
      <trkpt lat="45.26594" lon="6.11122">
        <ele>1740.123779</ele>
        <time>2011-09-03T05:36:32Z</time>
      </trkpt>
      <trkpt lat="45.26578" lon="6.11132">
        <ele>1743.968994</ele>
        <time>2011-09-03T05:36:50Z</time>
      </trkpt>
      <trkpt lat="45.26568" lon="6.11148">
        <ele>1745.410889</ele>
        <time>2011-09-03T05:37:07Z</time>
      </trkpt>
      <trkpt lat="45.26561" lon="6.11154">
        <ele>1747.333496</ele>
        <time>2011-09-03T05:37:16Z</time>
      </trkpt>
      <trkpt lat="45.26554" lon="6.11168">
        <ele>1751.659424</ele>
        <time>2011-09-03T05:37:35Z</time>
      </trkpt>
      <trkpt lat="45.2654" lon="6.11181">
        <ele>1754.543213</ele>
        <time>2011-09-03T05:37:55Z</time>
      </trkpt>
      <trkpt lat="45.26516" lon="6.11241">
        <ele>1760.311279</ele>
        <time>2011-09-03T05:38:48Z</time>
      </trkpt>
      <trkpt lat="45.26507" lon="6.11273">
        <ele>1765.598633</ele>
        <time>2011-09-03T05:39:13Z</time>
      </trkpt>
      <trkpt lat="45.26482" lon="6.11304">
        <ele>1773.769775</ele>
        <time>2011-09-03T05:39:53Z</time>
      </trkpt>
      <trkpt lat="45.26476" lon="6.11305">
        <ele>1774.250488</ele>
        <time>2011-09-03T05:40:03Z</time>
      </trkpt>
      <trkpt lat="45.26486" lon="6.11317">
        <ele>1781.940918</ele>
        <time>2011-09-03T05:40:48Z</time>
      </trkpt>
      <trkpt lat="45.26488" lon="6.11338">
        <ele>1786.747314</ele>
        <time>2011-09-03T05:41:26Z</time>
      </trkpt>
      <trkpt lat="45.26477" lon="6.11359">
        <ele>1782.9021</ele>
        <time>2011-09-03T05:41:42Z</time>
      </trkpt>
      <trkpt lat="45.26481" lon="6.11361">
        <ele>1783.382812</ele>
        <time>2011-09-03T05:41:56Z</time>
      </trkpt>
      <trkpt lat="45.26483" lon="6.11376">
        <ele>1785.786133</ele>
        <time>2011-09-03T05:42:09Z</time>
      </trkpt>
      <trkpt lat="45.2648" lon="6.11387">
        <ele>1789.150879</ele>
        <time>2011-09-03T05:42:20Z</time>
      </trkpt>
      <trkpt lat="45.26467" lon="6.11393">
        <ele>1795.399414</ele>
        <time>2011-09-03T05:42:42Z</time>
      </trkpt>
      <trkpt lat="45.26459" lon="6.11409">
        <ele>1792.515625</ele>
        <time>2011-09-03T05:42:53Z</time>
      </trkpt>
      <trkpt lat="45.2646" lon="6.11432">
        <ele>1792.034912</ele>
        <time>2011-09-03T05:43:05Z</time>
      </trkpt>
      <trkpt lat="45.26405" lon="6.11493">
        <ele>1791.073486</ele>
        <time>2011-09-03T05:44:00Z</time>
      </trkpt>
      <trkpt lat="45.26401" lon="6.11505">
        <ele>1790.592773</ele>
        <time>2011-09-03T05:44:07Z</time>
      </trkpt>
      <trkpt lat="45.26396" lon="6.11509">
        <ele>1790.592773</ele>
        <time>2011-09-03T05:44:14Z</time>
      </trkpt>
      <trkpt lat="45.26394" lon="6.11518">
        <ele>1793.476807</ele>
        <time>2011-09-03T05:44:21Z</time>
      </trkpt>
      <trkpt lat="45.26389" lon="6.11527">
        <ele>1795.399414</ele>
        <time>2011-09-03T05:44:29Z</time>
      </trkpt>
      <trkpt lat="45.26377" lon="6.11532">
        <ele>1792.515625</ele>
        <time>2011-09-03T05:44:37Z</time>
      </trkpt>
      <trkpt lat="45.26377" lon="6.11537">
        <ele>1793.95752</ele>
        <time>2011-09-03T05:44:41Z</time>
      </trkpt>
      <trkpt lat="45.26352" lon="6.11562">
        <ele>1792.034912</ele>
        <time>2011-09-03T05:45:04Z</time>
      </trkpt>
      <trkpt lat="45.26347" lon="6.11575">
        <ele>1792.515625</ele>
        <time>2011-09-03T05:45:23Z</time>
      </trkpt>
      <trkpt lat="45.26349" lon="6.11583">
        <ele>1796.841309</ele>
        <time>2011-09-03T05:45:28Z</time>
      </trkpt>
      <trkpt lat="45.26334" lon="6.11624">
        <ele>1807.416016</ele>
        <time>2011-09-03T05:46:02Z</time>
      </trkpt>
      <trkpt lat="45.26323" lon="6.11644">
        <ele>1811.741943</ele>
        <time>2011-09-03T05:46:24Z</time>
      </trkpt>
      <trkpt lat="45.26321" lon="6.11659">
        <ele>1813.664307</ele>
        <time>2011-09-03T05:46:39Z</time>
      </trkpt>
      <trkpt lat="45.26296" lon="6.11694">
        <ele>1820.393799</ele>
        <time>2011-09-03T05:47:20Z</time>
      </trkpt>
      <trkpt lat="45.2629" lon="6.11712">
        <ele>1821.835693</ele>
        <time>2011-09-03T05:47:34Z</time>
      </trkpt>
      <trkpt lat="45.26289" lon="6.11732">
        <ele>1827.123047</ele>
        <time>2011-09-03T05:47:53Z</time>
      </trkpt>
      <trkpt lat="45.26284" lon="6.11749">
        <ele>1832.410156</ele>
        <time>2011-09-03T05:48:14Z</time>
      </trkpt>
      <trkpt lat="45.2629" lon="6.11762">
        <ele>1835.774658</ele>
        <time>2011-09-03T05:48:32Z</time>
      </trkpt>
      <trkpt lat="45.2629" lon="6.11779">
        <ele>1839.139404</ele>
        <time>2011-09-03T05:48:46Z</time>
      </trkpt>
      <trkpt lat="45.26283" lon="6.11795">
        <ele>1841.542725</ele>
        <time>2011-09-03T05:49:01Z</time>
      </trkpt>
      <trkpt lat="45.26272" lon="6.11798">
        <ele>1843.946045</ele>
        <time>2011-09-03T05:49:12Z</time>
      </trkpt>
      <trkpt lat="45.26263" lon="6.11834">
        <ele>1853.078613</ele>
        <time>2011-09-03T05:49:51Z</time>
      </trkpt>
      <trkpt lat="45.26244" lon="6.11853">
        <ele>1854.520508</ele>
        <time>2011-09-03T05:50:18Z</time>
      </trkpt>
      <trkpt lat="45.26247" lon="6.11852">
        <ele>1862.69165</ele>
        <time>2011-09-03T05:50:38Z</time>
      </trkpt>
      <trkpt lat="45.26224" lon="6.11894">
        <ele>1863.652832</ele>
        <time>2011-09-03T05:51:16Z</time>
      </trkpt>
      <trkpt lat="45.26216" lon="6.11903">
        <ele>1865.575684</ele>
        <time>2011-09-03T05:51:27Z</time>
      </trkpt>
      <trkpt lat="45.2621" lon="6.11927">
        <ele>1869.901611</ele>
        <time>2011-09-03T05:51:48Z</time>
      </trkpt>
      <trkpt lat="45.26204" lon="6.11936">
        <ele>1870.863037</ele>
        <time>2011-09-03T05:51:58Z</time>
      </trkpt>
      <trkpt lat="45.26197" lon="6.11962">
        <ele>1877.111572</ele>
        <time>2011-09-03T05:52:24Z</time>
      </trkpt>
      <trkpt lat="45.26187" lon="6.11984">
        <ele>1883.359863</ele>
        <time>2011-09-03T05:52:49Z</time>
      </trkpt>
      <trkpt lat="45.26173" lon="6.11996">
        <ele>1883.840576</ele>
        <time>2011-09-03T05:53:08Z</time>
      </trkpt>
      <trkpt lat="45.2617" lon="6.12008">
        <ele>1890.089355</ele>
        <time>2011-09-03T05:53:24Z</time>
      </trkpt>
      <trkpt lat="45.26177" lon="6.12007">
        <ele>1893.93457</ele>
        <time>2011-09-03T05:53:34Z</time>
      </trkpt>
      <trkpt lat="45.26176" lon="6.12013">
        <ele>1895.857178</ele>
        <time>2011-09-03T05:53:42Z</time>
      </trkpt>
      <trkpt lat="45.2618" lon="6.1202">
        <ele>1899.702393</ele>
        <time>2011-09-03T05:53:58Z</time>
      </trkpt>
      <trkpt lat="45.26191" lon="6.12019">
        <ele>1900.663818</ele>
        <time>2011-09-03T05:54:11Z</time>
      </trkpt>
      <trkpt lat="45.26211" lon="6.12">
        <ele>1902.586426</ele>
        <time>2011-09-03T05:54:29Z</time>
      </trkpt>
      <trkpt lat="45.26239" lon="6.11993">
        <ele>1905.950928</ele>
        <time>2011-09-03T05:55:02Z</time>
      </trkpt>
      <trkpt lat="45.26258" lon="6.11981">
        <ele>1907.873779</ele>
        <time>2011-09-03T05:55:23Z</time>
      </trkpt>
      <trkpt lat="45.26297" lon="6.11979">
        <ele>1913.160889</ele>
        <time>2011-09-03T05:56:33Z</time>
      </trkpt>
      <trkpt lat="45.26324" lon="6.11968">
        <ele>1918.448242</ele>
        <time>2011-09-03T05:57:02Z</time>
      </trkpt>
      <trkpt lat="45.26342" lon="6.11967">
        <ele>1922.293457</ele>
        <time>2011-09-03T05:57:21Z</time>
      </trkpt>
      <trkpt lat="45.26342" lon="6.11973">
        <ele>1922.77417</ele>
        <time>2011-09-03T05:57:27Z</time>
      </trkpt>
      <trkpt lat="45.2632" lon="6.12007">
        <ele>1930.4646</ele>
        <time>2011-09-03T05:58:07Z</time>
      </trkpt>
      <trkpt lat="45.2631" lon="6.12034">
        <ele>1934.790771</ele>
        <time>2011-09-03T05:58:34Z</time>
      </trkpt>
      <trkpt lat="45.26284" lon="6.12074">
        <ele>1946.806885</ele>
        <time>2011-09-03T05:59:21Z</time>
      </trkpt>
      <trkpt lat="45.26302" lon="6.12077">
        <ele>1951.61377</ele>
        <time>2011-09-03T05:59:47Z</time>
      </trkpt>
      <trkpt lat="45.26324" lon="6.1207">
        <ele>1954.978271</ele>
        <time>2011-09-03T06:00:11Z</time>
      </trkpt>
      <trkpt lat="45.26354" lon="6.12051">
        <ele>1958.823486</ele>
        <time>2011-09-03T06:00:42Z</time>
      </trkpt>
      <trkpt lat="45.26339" lon="6.12099">
        <ele>1971.320557</ele>
        <time>2011-09-03T06:01:26Z</time>
      </trkpt>
      <trkpt lat="45.26325" lon="6.12121">
        <ele>1974.20459</ele>
        <time>2011-09-03T06:01:46Z</time>
      </trkpt>
      <trkpt lat="45.2631" lon="6.12133">
        <ele>1978.049805</ele>
        <time>2011-09-03T06:02:20Z</time>
      </trkpt>
      <trkpt lat="45.26294" lon="6.12162">
        <ele>1983.817871</ele>
        <time>2011-09-03T06:02:51Z</time>
      </trkpt>
      <trkpt lat="45.26279" lon="6.12201">
        <ele>1993.430908</ele>
        <time>2011-09-03T06:03:30Z</time>
      </trkpt>
      <trkpt lat="45.26275" lon="6.12232">
        <ele>1999.198975</ele>
        <time>2011-09-03T06:03:58Z</time>
      </trkpt>
      <trkpt lat="45.2624" lon="6.12253">
        <ele>2002.563477</ele>
        <time>2011-09-03T06:04:43Z</time>
      </trkpt>
      <trkpt lat="45.26228" lon="6.12268">
        <ele>2004.966797</ele>
        <time>2011-09-03T06:04:58Z</time>
      </trkpt>
      <trkpt lat="45.26203" lon="6.12276">
        <ele>2009.292725</ele>
        <time>2011-09-03T06:05:23Z</time>
      </trkpt>
      <trkpt lat="45.26179" lon="6.123">
        <ele>2012.657471</ele>
        <time>2011-09-03T06:05:52Z</time>
      </trkpt>
      <trkpt lat="45.26152" lon="6.12316">
        <ele>2013.138184</ele>
        <time>2011-09-03T06:06:22Z</time>
      </trkpt>
      <trkpt lat="45.26133" lon="6.12316">
        <ele>2018.906006</ele>
        <time>2011-09-03T06:08:09Z</time>
      </trkpt>
      <trkpt lat="45.26131" lon="6.12325">
        <ele>2010.253906</ele>
        <time>2011-09-03T06:09:22Z</time>
      </trkpt>
      <trkpt lat="45.26136" lon="6.12322">
        <ele>2020.828613</ele>
        <time>2011-09-03T06:10:49Z</time>
      </trkpt>
      <trkpt lat="45.26124" lon="6.1234">
        <ele>2021.789795</ele>
        <time>2011-09-03T06:11:39Z</time>
      </trkpt>
      <trkpt lat="45.26093" lon="6.12359">
        <ele>2023.712402</ele>
        <time>2011-09-03T06:12:13Z</time>
      </trkpt>
      <trkpt lat="45.26082" lon="6.1236">
        <ele>2015.060791</ele>
        <time>2011-09-03T06:12:27Z</time>
      </trkpt>
      <trkpt lat="45.26066" lon="6.12382">
        <ele>2026.115723</ele>
        <time>2011-09-03T06:13:19Z</time>
      </trkpt>
      <trkpt lat="45.2606" lon="6.12403">
        <ele>2024.673828</ele>
        <time>2011-09-03T06:13:32Z</time>
      </trkpt>
      <trkpt lat="45.26051" lon="6.12414">
        <ele>2024.673828</ele>
        <time>2011-09-03T06:13:42Z</time>
      </trkpt>
      <trkpt lat="45.26048" lon="6.1243">
        <ele>2026.115723</ele>
        <time>2011-09-03T06:13:51Z</time>
      </trkpt>
      <trkpt lat="45.26042" lon="6.12441">
        <ele>2024.673828</ele>
        <time>2011-09-03T06:14:02Z</time>
      </trkpt>
      <trkpt lat="45.26037" lon="6.12473">
        <ele>2028.999756</ele>
        <time>2011-09-03T06:14:28Z</time>
      </trkpt>
      <trkpt lat="45.26032" lon="6.12479">
        <ele>2034.767822</ele>
        <time>2011-09-03T06:14:38Z</time>
      </trkpt>
      <trkpt lat="45.26038" lon="6.12492">
        <ele>2037.651611</ele>
        <time>2011-09-03T06:14:54Z</time>
      </trkpt>
      <trkpt lat="45.26025" lon="6.12507">
        <ele>2039.574219</ele>
        <time>2011-09-03T06:15:13Z</time>
      </trkpt>
      <trkpt lat="45.26026" lon="6.12518">
        <ele>2041.977539</ele>
        <time>2011-09-03T06:15:28Z</time>
      </trkpt>
      <trkpt lat="45.26021" lon="6.12529">
        <ele>2041.977539</ele>
        <time>2011-09-03T06:15:41Z</time>
      </trkpt>
      <trkpt lat="45.26019" lon="6.12557">
        <ele>2050.148926</ele>
        <time>2011-09-03T06:16:16Z</time>
      </trkpt>
      <trkpt lat="45.26011" lon="6.12577">
        <ele>2055.436035</ele>
        <time>2011-09-03T06:16:46Z</time>
      </trkpt>
      <trkpt lat="45.26012" lon="6.1261">
        <ele>2063.126709</ele>
        <time>2011-09-03T06:17:22Z</time>
      </trkpt>
      <trkpt lat="45.26002" lon="6.12635">
        <ele>2065.530029</ele>
        <time>2011-09-03T06:17:49Z</time>
      </trkpt>
      <trkpt lat="45.26003" lon="6.12639">
        <ele>2067.933105</ele>
        <time>2011-09-03T06:17:53Z</time>
      </trkpt>
      <trkpt lat="45.25991" lon="6.12669">
        <ele>2067.452393</ele>
        <time>2011-09-03T06:18:35Z</time>
      </trkpt>
      <trkpt lat="45.25985" lon="6.12707">
        <ele>2076.585205</ele>
        <time>2011-09-03T06:19:08Z</time>
      </trkpt>
      <trkpt lat="45.25992" lon="6.12744">
        <ele>2084.756348</ele>
        <time>2011-09-03T06:19:44Z</time>
      </trkpt>
      <trkpt lat="45.2599" lon="6.12785">
        <ele>2094.850098</ele>
        <time>2011-09-03T06:20:25Z</time>
      </trkpt>
      <trkpt lat="45.2598" lon="6.12834">
        <ele>2105.905029</ele>
        <time>2011-09-03T06:21:21Z</time>
      </trkpt>
      <trkpt lat="45.25974" lon="6.12852">
        <ele>2106.866455</ele>
        <time>2011-09-03T06:21:36Z</time>
      </trkpt>
      <trkpt lat="45.25965" lon="6.12861">
        <ele>2107.827881</ele>
        <time>2011-09-03T06:21:52Z</time>
      </trkpt>
      <trkpt lat="45.25946" lon="6.12911">
        <ele>2117.921631</ele>
        <time>2011-09-03T06:22:43Z</time>
      </trkpt>
      <trkpt lat="45.25977" lon="6.12888">
        <ele>2124.651123</ele>
        <time>2011-09-03T06:23:26Z</time>
      </trkpt>
      <trkpt lat="45.26014" lon="6.12873">
        <ele>2133.302734</ele>
        <time>2011-09-03T06:24:07Z</time>
      </trkpt>
      <trkpt lat="45.26024" lon="6.12858">
        <ele>2133.783447</ele>
        <time>2011-09-03T06:24:22Z</time>
      </trkpt>
      <trkpt lat="45.26028" lon="6.12858">
        <ele>2133.783447</ele>
        <time>2011-09-03T06:24:26Z</time>
      </trkpt>
      <trkpt lat="45.26024" lon="6.12873">
        <ele>2138.109375</ele>
        <time>2011-09-03T06:24:40Z</time>
      </trkpt>
      <trkpt lat="45.2599" lon="6.12936">
        <ele>2143.877441</ele>
        <time>2011-09-03T06:25:34Z</time>
      </trkpt>
      <trkpt lat="45.2598" lon="6.12942">
        <ele>2144.35791</ele>
        <time>2011-09-03T06:25:47Z</time>
      </trkpt>
      <trkpt lat="45.25975" lon="6.12954">
        <ele>2147.722656</ele>
        <time>2011-09-03T06:26:15Z</time>
      </trkpt>
      <trkpt lat="45.25964" lon="6.12965">
        <ele>2150.125977</ele>
        <time>2011-09-03T06:26:38Z</time>
      </trkpt>
      <trkpt lat="45.25937" lon="6.13014">
        <ele>2159.258545</ele>
        <time>2011-09-03T06:27:29Z</time>
      </trkpt>
      <trkpt lat="45.25914" lon="6.13028">
        <ele>2164.545654</ele>
        <time>2011-09-03T06:27:58Z</time>
      </trkpt>
      <trkpt lat="45.25876" lon="6.13082">
        <ele>2176.562256</ele>
        <time>2011-09-03T06:29:04Z</time>
      </trkpt>
      <trkpt lat="45.25856" lon="6.13098">
        <ele>2180.888184</ele>
        <time>2011-09-03T06:29:33Z</time>
      </trkpt>
      <trkpt lat="45.25814" lon="6.13115">
        <ele>2189.540039</ele>
        <time>2011-09-03T06:30:26Z</time>
      </trkpt>
      <trkpt lat="45.25802" lon="6.13128">
        <ele>2196.269287</ele>
        <time>2011-09-03T06:30:51Z</time>
      </trkpt>
      <trkpt lat="45.25749" lon="6.13157">
        <ele>2218.379395</ele>
        <time>2011-09-03T06:32:28Z</time>
      </trkpt>
      <trkpt lat="45.25758" lon="6.13162">
        <ele>2226.550781</ele>
        <time>2011-09-03T06:33:04Z</time>
      </trkpt>
      <trkpt lat="45.25771" lon="6.1318">
        <ele>2229.915283</ele>
        <time>2011-09-03T06:33:36Z</time>
      </trkpt>
      <trkpt lat="45.25781" lon="6.13186">
        <ele>2231.357178</ele>
        <time>2011-09-03T06:33:45Z</time>
      </trkpt>
      <trkpt lat="45.25795" lon="6.13213">
        <ele>2238.08667</ele>
        <time>2011-09-03T06:34:23Z</time>
      </trkpt>
      <trkpt lat="45.25808" lon="6.13223">
        <ele>2239.047852</ele>
        <time>2011-09-03T06:34:40Z</time>
      </trkpt>
      <trkpt lat="45.25857" lon="6.13302">
        <ele>2256.832275</ele>
        <time>2011-09-03T06:36:21Z</time>
      </trkpt>
      <trkpt lat="45.2586" lon="6.13302">
        <ele>2256.832275</ele>
        <time>2011-09-03T06:36:26Z</time>
      </trkpt>
      <trkpt lat="45.25872" lon="6.13324">
        <ele>2260.196777</ele>
        <time>2011-09-03T06:37:25Z</time>
      </trkpt>
      <trkpt lat="45.25893" lon="6.13331">
        <ele>2262.600098</ele>
        <time>2011-09-03T06:37:59Z</time>
      </trkpt>
      <trkpt lat="45.25914" lon="6.13319">
        <ele>2270.290771</ele>
        <time>2011-09-03T06:38:26Z</time>
      </trkpt>
      <trkpt lat="45.25967" lon="6.13335">
        <ele>2284.22998</ele>
        <time>2011-09-03T06:39:38Z</time>
      </trkpt>
      <trkpt lat="45.25978" lon="6.13329">
        <ele>2286.633057</ele>
        <time>2011-09-03T06:39:51Z</time>
      </trkpt>
      <trkpt lat="45.25986" lon="6.13332">
        <ele>2289.036377</ele>
        <time>2011-09-03T06:40:02Z</time>
      </trkpt>
      <trkpt lat="45.25985" lon="6.13336">
        <ele>2289.51709</ele>
        <time>2011-09-03T06:40:06Z</time>
      </trkpt>
      <trkpt lat="45.25979" lon="6.13339">
        <ele>2292.401123</ele>
        <time>2011-09-03T06:40:14Z</time>
      </trkpt>
      <trkpt lat="45.25976" lon="6.13353">
        <ele>2294.804199</ele>
        <time>2011-09-03T06:40:27Z</time>
      </trkpt>
      <trkpt lat="45.25969" lon="6.13362">
        <ele>2296.726807</ele>
        <time>2011-09-03T06:40:38Z</time>
      </trkpt>
      <trkpt lat="45.25943" lon="6.13369">
        <ele>2299.130127</ele>
        <time>2011-09-03T06:41:04Z</time>
      </trkpt>
      <trkpt lat="45.25925" lon="6.1339">
        <ele>2304.898193</ele>
        <time>2011-09-03T06:41:32Z</time>
      </trkpt>
      <trkpt lat="45.25938" lon="6.13387">
        <ele>2309.224121</ele>
        <time>2011-09-03T06:41:47Z</time>
      </trkpt>
      <trkpt lat="45.25966" lon="6.13395">
        <ele>2317.395264</ele>
        <time>2011-09-03T06:42:26Z</time>
      </trkpt>
      <trkpt lat="45.25968" lon="6.13393">
        <ele>2322.682617</ele>
        <time>2011-09-03T06:42:43Z</time>
      </trkpt>
      <trkpt lat="45.25964" lon="6.13393">
        <ele>2322.201904</ele>
        <time>2011-09-03T06:42:58Z</time>
      </trkpt>
      <trkpt lat="45.25998" lon="6.13414">
        <ele>2327.489014</ele>
        <time>2011-09-03T06:43:50Z</time>
      </trkpt>
      <trkpt lat="45.25976" lon="6.13425">
        <ele>2330.373047</ele>
        <time>2011-09-03T06:44:17Z</time>
      </trkpt>
      <trkpt lat="45.2595" lon="6.13449">
        <ele>2333.737793</ele>
        <time>2011-09-03T06:44:58Z</time>
      </trkpt>
      <trkpt lat="45.2595" lon="6.13456">
        <ele>2335.179688</ele>
        <time>2011-09-03T06:45:03Z</time>
      </trkpt>
      <trkpt lat="45.25939" lon="6.13456">
        <ele>2337.102295</ele>
        <time>2011-09-03T06:45:09Z</time>
      </trkpt>
      <trkpt lat="45.25931" lon="6.13466">
        <ele>2338.544434</ele>
        <time>2011-09-03T06:45:21Z</time>
      </trkpt>
      <trkpt lat="45.25911" lon="6.13464">
        <ele>2339.505615</ele>
        <time>2011-09-03T06:45:31Z</time>
      </trkpt>
      <trkpt lat="45.2591" lon="6.13474">
        <ele>2340.94751</ele>
        <time>2011-09-03T06:45:41Z</time>
      </trkpt>
      <trkpt lat="45.25904" lon="6.13482">
        <ele>2343.831543</ele>
        <time>2011-09-03T06:45:50Z</time>
      </trkpt>
      <trkpt lat="45.259" lon="6.13499">
        <ele>2347.196045</ele>
        <time>2011-09-03T06:46:06Z</time>
      </trkpt>
      <trkpt lat="45.25903" lon="6.13516">
        <ele>2351.041504</ele>
        <time>2011-09-03T06:46:18Z</time>
      </trkpt>
      <trkpt lat="45.25901" lon="6.13526">
        <ele>2351.522217</ele>
        <time>2011-09-03T06:46:28Z</time>
      </trkpt>
      <trkpt lat="45.25891" lon="6.13535">
        <ele>2354.406006</ele>
        <time>2011-09-03T06:46:50Z</time>
      </trkpt>
      <trkpt lat="45.2588" lon="6.13532">
        <ele>2346.715332</ele>
        <time>2011-09-03T06:47:18Z</time>
      </trkpt>
      <trkpt lat="45.25879" lon="6.13538">
        <ele>2349.599609</ele>
        <time>2011-09-03T06:47:31Z</time>
      </trkpt>
      <trkpt lat="45.25857" lon="6.13563">
        <ele>2358.251221</ele>
        <time>2011-09-03T06:48:04Z</time>
      </trkpt>
      <trkpt lat="45.25833" lon="6.13572">
        <ele>2366.422607</ele>
        <time>2011-09-03T06:48:35Z</time>
      </trkpt>
      <trkpt lat="45.25828" lon="6.13579">
        <ele>2368.345215</ele>
        <time>2011-09-03T06:48:45Z</time>
      </trkpt>
      <trkpt lat="45.25828" lon="6.13595">
        <ele>2372.19043</ele>
        <time>2011-09-03T06:48:58Z</time>
      </trkpt>
      <trkpt lat="45.25804" lon="6.1361">
        <ele>2377.958252</ele>
        <time>2011-09-03T06:49:30Z</time>
      </trkpt>
      <trkpt lat="45.25804" lon="6.13615">
        <ele>2378.919434</ele>
        <time>2011-09-03T06:49:34Z</time>
      </trkpt>
      <trkpt lat="45.25776" lon="6.1362">
        <ele>2379.880859</ele>
        <time>2011-09-03T06:50:03Z</time>
      </trkpt>
      <trkpt lat="45.25774" lon="6.13616">
        <ele>2379.880859</ele>
        <time>2011-09-03T06:50:13Z</time>
      </trkpt>
      <trkpt lat="45.25781" lon="6.13611">
        <ele>2387.09082</ele>
        <time>2011-09-03T06:50:30Z</time>
      </trkpt>
      <trkpt lat="45.25803" lon="6.13613">
        <ele>2390.936035</ele>
        <time>2011-09-03T06:51:02Z</time>
      </trkpt>
      <trkpt lat="45.2582" lon="6.13628">
        <ele>2394.78125</ele>
        <time>2011-09-03T06:51:54Z</time>
      </trkpt>
      <trkpt lat="45.25801" lon="6.13637">
        <ele>2397.665527</ele>
        <time>2011-09-03T06:52:18Z</time>
      </trkpt>
      <trkpt lat="45.25779" lon="6.13668">
        <ele>2404.875244</ele>
        <time>2011-09-03T06:53:06Z</time>
      </trkpt>
      <trkpt lat="45.25806" lon="6.13663">
        <ele>2418.33374</ele>
        <time>2011-09-03T06:53:52Z</time>
      </trkpt>
      <trkpt lat="45.25808" lon="6.13666">
        <ele>2418.814453</ele>
        <time>2011-09-03T06:53:56Z</time>
      </trkpt>
      <trkpt lat="45.25799" lon="6.1368">
        <ele>2423.140381</ele>
        <time>2011-09-03T06:54:19Z</time>
      </trkpt>
      <trkpt lat="45.25785" lon="6.13692">
        <ele>2426.504883</ele>
        <time>2011-09-03T06:54:43Z</time>
      </trkpt>
      <trkpt lat="45.25791" lon="6.13703">
        <ele>2428.908203</ele>
        <time>2011-09-03T06:54:49Z</time>
      </trkpt>
      <trkpt lat="45.25763" lon="6.13685">
        <ele>2428.427734</ele>
        <time>2011-09-03T06:54:54Z</time>
      </trkpt>
      <trkpt lat="45.25764" lon="6.13712">
        <ele>2428.427734</ele>
        <time>2011-09-03T06:55:18Z</time>
      </trkpt>
      <trkpt lat="45.25733" lon="6.13707">
        <ele>2438.040771</ele>
        <time>2011-09-03T06:55:48Z</time>
      </trkpt>
      <trkpt lat="45.2574" lon="6.13716">
        <ele>2442.847168</ele>
        <time>2011-09-03T06:56:08Z</time>
      </trkpt>
      <trkpt lat="45.25764" lon="6.13729">
        <ele>2451.018555</ele>
        <time>2011-09-03T06:56:42Z</time>
      </trkpt>
      <trkpt lat="45.25785" lon="6.13735">
        <ele>2455.344482</ele>
        <time>2011-09-03T06:57:01Z</time>
      </trkpt>
      <trkpt lat="45.25781" lon="6.13732">
        <ele>2455.824951</ele>
        <time>2011-09-03T06:57:03Z</time>
      </trkpt>
      <trkpt lat="45.25786" lon="6.13735">
        <ele>2457.26709</ele>
        <time>2011-09-03T06:57:10Z</time>
      </trkpt>
      <trkpt lat="45.25787" lon="6.13743">
        <ele>2458.708984</ele>
        <time>2011-09-03T06:57:19Z</time>
      </trkpt>
      <trkpt lat="45.25783" lon="6.1374">
        <ele>2457.747803</ele>
        <time>2011-09-03T06:57:26Z</time>
      </trkpt>
      <trkpt lat="45.25798" lon="6.13756">
        <ele>2459.670166</ele>
        <time>2011-09-03T06:57:36Z</time>
      </trkpt>
      <trkpt lat="45.25785" lon="6.13757">
        <ele>2462.554443</ele>
        <time>2011-09-03T06:57:49Z</time>
      </trkpt>
      <trkpt lat="45.25787" lon="6.13761">
        <ele>2462.07373</ele>
        <time>2011-09-03T06:57:53Z</time>
      </trkpt>
      <trkpt lat="45.25779" lon="6.13762">
        <ele>2463.996338</ele>
        <time>2011-09-03T06:58:07Z</time>
      </trkpt>
      <trkpt lat="45.25782" lon="6.13769">
        <ele>2466.399658</ele>
        <time>2011-09-03T06:58:25Z</time>
      </trkpt>
      <trkpt lat="45.25776" lon="6.13765">
        <ele>2466.880371</ele>
        <time>2011-09-03T06:58:33Z</time>
      </trkpt>
      <trkpt lat="45.25776" lon="6.13771">
        <ele>2469.283691</ele>
        <time>2011-09-03T06:58:44Z</time>
      </trkpt>
      <trkpt lat="45.2581" lon="6.138">
        <ele>2466.880371</ele>
        <time>2011-09-03T06:59:02Z</time>
      </trkpt>
      <trkpt lat="45.25781" lon="6.13774">
        <ele>2464.957764</ele>
        <time>2011-09-03T06:59:28Z</time>
      </trkpt>
      <trkpt lat="45.25785" lon="6.13785">
        <ele>2477.454834</ele>
        <time>2011-09-03T06:59:50Z</time>
      </trkpt>
      <trkpt lat="45.25781" lon="6.13787">
        <ele>2479.377441</ele>
        <time>2011-09-03T07:00:04Z</time>
      </trkpt>
      <trkpt lat="45.25788" lon="6.13801">
        <ele>2480.81958</ele>
        <time>2011-09-03T07:00:18Z</time>
      </trkpt>
      <trkpt lat="45.25777" lon="6.138">
        <ele>2485.145264</ele>
        <time>2011-09-03T07:01:03Z</time>
      </trkpt>
      <trkpt lat="45.25785" lon="6.1381">
        <ele>2488.51001</ele>
        <time>2011-09-03T07:01:15Z</time>
      </trkpt>
      <trkpt lat="45.25782" lon="6.13811">
        <ele>2490.432373</ele>
        <time>2011-09-03T07:01:20Z</time>
      </trkpt>
      <trkpt lat="45.25787" lon="6.1382">
        <ele>2494.758545</ele>
        <time>2011-09-03T07:01:37Z</time>
      </trkpt>
      <trkpt lat="45.25783" lon="6.13823">
        <ele>2493.797363</ele>
        <time>2011-09-03T07:01:44Z</time>
      </trkpt>
      <trkpt lat="45.25796" lon="6.13849">
        <ele>2501.00708</ele>
        <time>2011-09-03T07:02:32Z</time>
      </trkpt>
      <trkpt lat="45.2579" lon="6.13856">
        <ele>2506.294189</ele>
        <time>2011-09-03T07:02:50Z</time>
      </trkpt>
      <trkpt lat="45.25774" lon="6.13854">
        <ele>2512.542969</ele>
        <time>2011-09-03T07:03:14Z</time>
      </trkpt>
      <trkpt lat="45.25776" lon="6.13858">
        <ele>2515.427002</ele>
        <time>2011-09-03T07:03:32Z</time>
      </trkpt>
      <trkpt lat="45.25773" lon="6.13861">
        <ele>2510.620361</ele>
        <time>2011-09-03T07:03:51Z</time>
      </trkpt>
      <trkpt lat="45.25786" lon="6.13878">
        <ele>2521.675293</ele>
        <time>2011-09-03T07:04:38Z</time>
      </trkpt>
      <trkpt lat="45.25786" lon="6.13894">
        <ele>2526.482178</ele>
        <time>2011-09-03T07:05:01Z</time>
      </trkpt>
      <trkpt lat="45.25793" lon="6.13905">
        <ele>2531.288574</ele>
        <time>2011-09-03T07:05:25Z</time>
      </trkpt>
      <trkpt lat="45.25791" lon="6.13911">
        <ele>2535.614502</ele>
        <time>2011-09-03T07:05:41Z</time>
      </trkpt>
      <trkpt lat="45.25791" lon="6.13906">
        <ele>2531.288574</ele>
        <time>2011-09-03T07:06:32Z</time>
      </trkpt>
      <trkpt lat="45.25796" lon="6.13908">
        <ele>2536.095215</ele>
        <time>2011-09-03T07:07:46Z</time>
      </trkpt>
      <trkpt lat="45.25791" lon="6.13907">
        <ele>2531.769287</ele>
        <time>2011-09-03T07:08:42Z</time>
      </trkpt>
      <trkpt lat="45.25792" lon="6.13914">
        <ele>2539.459717</ele>
        <time>2011-09-03T07:12:11Z</time>
      </trkpt>
      <trkpt lat="45.25796" lon="6.13907">
        <ele>2536.575684</ele>
        <time>2011-09-03T07:13:25Z</time>
      </trkpt>
      <trkpt lat="45.25798" lon="6.13908">
        <ele>2538.017822</ele>
        <time>2011-09-03T07:13:35Z</time>
      </trkpt>
      <trkpt lat="45.25799" lon="6.139">
        <ele>2534.172607</ele>
        <time>2011-09-03T07:14:14Z</time>
      </trkpt>
      <trkpt lat="45.25809" lon="6.13894">
        <ele>2539.94043</ele>
        <time>2011-09-03T07:14:58Z</time>
      </trkpt>
      <trkpt lat="45.25807" lon="6.13895">
        <ele>2542.343994</ele>
        <time>2011-09-03T07:15:43Z</time>
      </trkpt>
      <trkpt lat="45.2581" lon="6.13901">
        <ele>2544.74707</ele>
        <time>2011-09-03T07:16:18Z</time>
      </trkpt>
      <trkpt lat="45.25785" lon="6.13921">
        <ele>2536.575684</ele>
        <time>2011-09-03T07:17:57Z</time>
      </trkpt>
      <trkpt lat="45.25796" lon="6.13949">
        <ele>2516.868896</ele>
        <time>2011-09-03T07:19:06Z</time>
      </trkpt>
      <trkpt lat="45.25791" lon="6.13949">
        <ele>2505.333008</ele>
        <time>2011-09-03T07:19:26Z</time>
      </trkpt>
      <trkpt lat="45.25794" lon="6.13944">
        <ele>2507.255615</ele>
        <time>2011-09-03T07:20:12Z</time>
      </trkpt>
      <trkpt lat="45.25806" lon="6.13954">
        <ele>2502.929688</ele>
        <time>2011-09-03T07:20:34Z</time>
      </trkpt>
      <trkpt lat="45.25809" lon="6.13965">
        <ele>2500.526367</ele>
        <time>2011-09-03T07:20:44Z</time>
      </trkpt>
      <trkpt lat="45.25806" lon="6.13976">
        <ele>2510.139648</ele>
        <time>2011-09-03T07:21:12Z</time>
      </trkpt>
      <trkpt lat="45.25808" lon="6.13978">
        <ele>2511.101074</ele>
        <time>2011-09-03T07:21:34Z</time>
      </trkpt>
      <trkpt lat="45.25805" lon="6.1399">
        <ele>2509.178467</ele>
        <time>2011-09-03T07:21:47Z</time>
      </trkpt>
      <trkpt lat="45.2581" lon="6.14">
        <ele>2510.620361</ele>
        <time>2011-09-03T07:22:00Z</time>
      </trkpt>
      <trkpt lat="45.25809" lon="6.14019">
        <ele>2502.448975</ele>
        <time>2011-09-03T07:22:14Z</time>
      </trkpt>
      <trkpt lat="45.25812" lon="6.14041">
        <ele>2499.084473</ele>
        <time>2011-09-03T07:22:28Z</time>
      </trkpt>
      <trkpt lat="45.2581" lon="6.14047">
        <ele>2495.239258</ele>
        <time>2011-09-03T07:22:32Z</time>
      </trkpt>
      <trkpt lat="45.25813" lon="6.14104">
        <ele>2480.338867</ele>
        <time>2011-09-03T07:23:15Z</time>
      </trkpt>
      <trkpt lat="45.25819" lon="6.1412">
        <ele>2476.493652</ele>
        <time>2011-09-03T07:23:25Z</time>
      </trkpt>
      <trkpt lat="45.25823" lon="6.14146">
        <ele>2472.648193</ele>
        <time>2011-09-03T07:23:40Z</time>
      </trkpt>
      <trkpt lat="45.2582" lon="6.14152">
        <ele>2469.76416</ele>
        <time>2011-09-03T07:23:48Z</time>
      </trkpt>
      <trkpt lat="45.2583" lon="6.14195">
        <ele>2458.708984</ele>
        <time>2011-09-03T07:24:13Z</time>
      </trkpt>
      <trkpt lat="45.25817" lon="6.14236">
        <ele>2455.344482</ele>
        <time>2011-09-03T07:24:36Z</time>
      </trkpt>
      <trkpt lat="45.2582" lon="6.1427">
        <ele>2448.134521</ele>
        <time>2011-09-03T07:24:55Z</time>
      </trkpt>
      <trkpt lat="45.25813" lon="6.14288">
        <ele>2443.327881</ele>
        <time>2011-09-03T07:25:06Z</time>
      </trkpt>
      <trkpt lat="45.25787" lon="6.14324">
        <ele>2435.637451</ele>
        <time>2011-09-03T07:25:34Z</time>
      </trkpt>
      <trkpt lat="45.25783" lon="6.14351">
        <ele>2427.946777</ele>
        <time>2011-09-03T07:25:50Z</time>
      </trkpt>
      <trkpt lat="45.25761" lon="6.14388">
        <ele>2422.178955</ele>
        <time>2011-09-03T07:26:14Z</time>
      </trkpt>
      <trkpt lat="45.2573" lon="6.14409">
        <ele>2423.140381</ele>
        <time>2011-09-03T07:27:00Z</time>
      </trkpt>
      <trkpt lat="45.25724" lon="6.14408">
        <ele>2421.217529</ele>
        <time>2011-09-03T07:27:07Z</time>
      </trkpt>
      <trkpt lat="45.25728" lon="6.14394">
        <ele>2418.33374</ele>
        <time>2011-09-03T07:27:13Z</time>
      </trkpt>
      <trkpt lat="45.25726" lon="6.14375">
        <ele>2413.046631</ele>
        <time>2011-09-03T07:27:25Z</time>
      </trkpt>
      <trkpt lat="45.25721" lon="6.14379">
        <ele>2410.643066</ele>
        <time>2011-09-03T07:27:31Z</time>
      </trkpt>
      <trkpt lat="45.25719" lon="6.14367">
        <ele>2403.914062</ele>
        <time>2011-09-03T07:27:41Z</time>
      </trkpt>
      <trkpt lat="45.25714" lon="6.14378">
        <ele>2400.549316</ele>
        <time>2011-09-03T07:27:48Z</time>
      </trkpt>
      <trkpt lat="45.25709" lon="6.14369">
        <ele>2395.742676</ele>
        <time>2011-09-03T07:27:58Z</time>
      </trkpt>
      <trkpt lat="45.25689" lon="6.14401">
        <ele>2382.764893</ele>
        <time>2011-09-03T07:28:25Z</time>
      </trkpt>
      <trkpt lat="45.25689" lon="6.14387">
        <ele>2379.400146</ele>
        <time>2011-09-03T07:28:35Z</time>
      </trkpt>
      <trkpt lat="45.25686" lon="6.14385">
        <ele>2376.99707</ele>
        <time>2011-09-03T07:28:40Z</time>
      </trkpt>
      <trkpt lat="45.2568" lon="6.14393">
        <ele>2374.113037</ele>
        <time>2011-09-03T07:28:49Z</time>
      </trkpt>
      <trkpt lat="45.25674" lon="6.14392">
        <ele>2368.825928</ele>
        <time>2011-09-03T07:29:04Z</time>
      </trkpt>
      <trkpt lat="45.25673" lon="6.14397">
        <ele>2369.306641</ele>
        <time>2011-09-03T07:29:09Z</time>
      </trkpt>
      <trkpt lat="45.25671" lon="6.14394">
        <ele>2367.864502</ele>
        <time>2011-09-03T07:29:13Z</time>
      </trkpt>
      <trkpt lat="45.25665" lon="6.14402">
        <ele>2364.5</ele>
        <time>2011-09-03T07:29:23Z</time>
      </trkpt>
      <trkpt lat="45.25664" lon="6.14396">
        <ele>2362.577148</ele>
        <time>2011-09-03T07:29:30Z</time>
      </trkpt>
      <trkpt lat="45.25657" lon="6.14394">
        <ele>2359.212646</ele>
        <time>2011-09-03T07:29:40Z</time>
      </trkpt>
      <trkpt lat="45.25655" lon="6.14386">
        <ele>2359.212646</ele>
        <time>2011-09-03T07:29:47Z</time>
      </trkpt>
      <trkpt lat="45.2564" lon="6.14392">
        <ele>2353.925537</ele>
        <time>2011-09-03T07:30:02Z</time>
      </trkpt>
      <trkpt lat="45.25621" lon="6.14419">
        <ele>2352.483398</ele>
        <time>2011-09-03T07:30:23Z</time>
      </trkpt>
      <trkpt lat="45.25615" lon="6.14418">
        <ele>2352.002686</ele>
        <time>2011-09-03T07:30:30Z</time>
      </trkpt>
      <trkpt lat="45.25585" lon="6.1445">
        <ele>2353.925537</ele>
        <time>2011-09-03T07:30:57Z</time>
      </trkpt>
      <trkpt lat="45.25574" lon="6.1448">
        <ele>2345.273438</ele>
        <time>2011-09-03T07:31:17Z</time>
      </trkpt>
      <trkpt lat="45.25566" lon="6.14489">
        <ele>2343.831543</ele>
        <time>2011-09-03T07:31:24Z</time>
      </trkpt>
      <trkpt lat="45.25547" lon="6.14529">
        <ele>2339.505615</ele>
        <time>2011-09-03T07:31:46Z</time>
      </trkpt>
      <trkpt lat="45.25546" lon="6.14566">
        <ele>2324.124512</ele>
        <time>2011-09-03T07:32:17Z</time>
      </trkpt>
      <trkpt lat="45.25539" lon="6.14576">
        <ele>2321.240479</ele>
        <time>2011-09-03T07:32:27Z</time>
      </trkpt>
      <trkpt lat="45.25535" lon="6.14595">
        <ele>2312.588623</ele>
        <time>2011-09-03T07:32:41Z</time>
      </trkpt>
      <trkpt lat="45.25522" lon="6.14605">
        <ele>2311.627441</ele>
        <time>2011-09-03T07:32:54Z</time>
      </trkpt>
      <trkpt lat="45.25526" lon="6.14612">
        <ele>2305.378906</ele>
        <time>2011-09-03T07:33:11Z</time>
      </trkpt>
      <trkpt lat="45.25511" lon="6.14633">
        <ele>2300.572266</ele>
        <time>2011-09-03T07:33:44Z</time>
      </trkpt>
      <trkpt lat="45.25491" lon="6.14642">
        <ele>2294.804199</ele>
        <time>2011-09-03T07:34:22Z</time>
      </trkpt>
      <trkpt lat="45.25483" lon="6.14659">
        <ele>2283.749023</ele>
        <time>2011-09-03T07:34:37Z</time>
      </trkpt>
      <trkpt lat="45.25458" lon="6.14687">
        <ele>2277.981201</ele>
        <time>2011-09-03T07:35:18Z</time>
      </trkpt>
      <trkpt lat="45.25451" lon="6.14681">
        <ele>2274.135986</ele>
        <time>2011-09-03T07:35:25Z</time>
      </trkpt>
      <trkpt lat="45.25435" lon="6.14712">
        <ele>2265.9646</ele>
        <time>2011-09-03T07:35:46Z</time>
      </trkpt>
      <trkpt lat="45.25433" lon="6.14729">
        <ele>2258.27417</ele>
        <time>2011-09-03T07:35:54Z</time>
      </trkpt>
      <trkpt lat="45.25426" lon="6.14742">
        <ele>2250.583496</ele>
        <time>2011-09-03T07:36:04Z</time>
      </trkpt>
      <trkpt lat="45.25421" lon="6.14796">
        <ele>2243.373779</ele>
        <time>2011-09-03T07:36:31Z</time>
      </trkpt>
      <trkpt lat="45.25424" lon="6.14802">
        <ele>2243.373779</ele>
        <time>2011-09-03T07:36:35Z</time>
      </trkpt>
      <trkpt lat="45.25422" lon="6.1481">
        <ele>2241.931885</ele>
        <time>2011-09-03T07:36:39Z</time>
      </trkpt>
      <trkpt lat="45.25407" lon="6.14826">
        <ele>2231.837891</ele>
        <time>2011-09-03T07:37:03Z</time>
      </trkpt>
      <trkpt lat="45.254" lon="6.14822">
        <ele>2229.915283</ele>
        <time>2011-09-03T07:37:16Z</time>
      </trkpt>
      <trkpt lat="45.25368" lon="6.14839">
        <ele>2225.108643</ele>
        <time>2011-09-03T07:37:40Z</time>
      </trkpt>
      <trkpt lat="45.25357" lon="6.14894">
        <ele>2223.666748</ele>
        <time>2011-09-03T07:38:08Z</time>
      </trkpt>
      <trkpt lat="45.25356" lon="6.14929">
        <ele>2219.821289</ele>
        <time>2011-09-03T07:38:22Z</time>
      </trkpt>
      <trkpt lat="45.25365" lon="6.1496">
        <ele>2211.169678</ele>
        <time>2011-09-03T07:38:37Z</time>
      </trkpt>
      <trkpt lat="45.25365" lon="6.14984">
        <ele>2205.882324</ele>
        <time>2011-09-03T07:38:49Z</time>
      </trkpt>
      <trkpt lat="45.25369" lon="6.14997">
        <ele>2200.594971</ele>
        <time>2011-09-03T07:38:56Z</time>
      </trkpt>
      <trkpt lat="45.25367" lon="6.15047">
        <ele>2192.904541</ele>
        <time>2011-09-03T07:39:18Z</time>
      </trkpt>
      <trkpt lat="45.25351" lon="6.15092">
        <ele>2184.252686</ele>
        <time>2011-09-03T07:39:40Z</time>
      </trkpt>
      <trkpt lat="45.25345" lon="6.15117">
        <ele>2175.60083</ele>
        <time>2011-09-03T07:39:52Z</time>
      </trkpt>
      <trkpt lat="45.25342" lon="6.15113">
        <ele>2173.197754</ele>
        <time>2011-09-03T07:40:03Z</time>
      </trkpt>
      <trkpt lat="45.25328" lon="6.15143">
        <ele>2170.794189</ele>
        <time>2011-09-03T07:40:20Z</time>
      </trkpt>
      <trkpt lat="45.25324" lon="6.15169">
        <ele>2163.10376</ele>
        <time>2011-09-03T07:40:35Z</time>
      </trkpt>
      <trkpt lat="45.25329" lon="6.15186">
        <ele>2159.739014</ele>
        <time>2011-09-03T07:40:45Z</time>
      </trkpt>
      <trkpt lat="45.2532" lon="6.15218">
        <ele>2153.490479</ele>
        <time>2011-09-03T07:41:01Z</time>
      </trkpt>
      <trkpt lat="45.25305" lon="6.1523">
        <ele>2149.645264</ele>
        <time>2011-09-03T07:41:14Z</time>
      </trkpt>
      <trkpt lat="45.25285" lon="6.15304">
        <ele>2140.512695</ele>
        <time>2011-09-03T07:41:53Z</time>
      </trkpt>
      <trkpt lat="45.25262" lon="6.15356">
        <ele>2135.706055</ele>
        <time>2011-09-03T07:42:21Z</time>
      </trkpt>
      <trkpt lat="45.25265" lon="6.15385">
        <ele>2133.783447</ele>
        <time>2011-09-03T07:42:35Z</time>
      </trkpt>
      <trkpt lat="45.25257" lon="6.15416">
        <ele>2133.302734</ele>
        <time>2011-09-03T07:42:51Z</time>
      </trkpt>
      <trkpt lat="45.25256" lon="6.15444">
        <ele>2131.86084</ele>
        <time>2011-09-03T07:43:05Z</time>
      </trkpt>
      <trkpt lat="45.25239" lon="6.1546">
        <ele>2136.667236</ele>
        <time>2011-09-03T07:43:26Z</time>
      </trkpt>
      <trkpt lat="45.25234" lon="6.15477">
        <ele>2137.147949</ele>
        <time>2011-09-03T07:43:41Z</time>
      </trkpt>
      <trkpt lat="45.25229" lon="6.15478">
        <ele>2136.186768</ele>
        <time>2011-09-03T07:43:47Z</time>
      </trkpt>
      <trkpt lat="45.25222" lon="6.15491">
        <ele>2133.302734</ele>
        <time>2011-09-03T07:43:59Z</time>
      </trkpt>
      <trkpt lat="45.25224" lon="6.15501">
        <ele>2130.418945</ele>
        <time>2011-09-03T07:44:04Z</time>
      </trkpt>
      <trkpt lat="45.25205" lon="6.15568">
        <ele>2121.766846</ele>
        <time>2011-09-03T07:44:32Z</time>
      </trkpt>
      <trkpt lat="45.25208" lon="6.15584">
        <ele>2120.805664</ele>
        <time>2011-09-03T07:44:38Z</time>
      </trkpt>
      <trkpt lat="45.25206" lon="6.15598">
        <ele>2119.36377</ele>
        <time>2011-09-03T07:44:44Z</time>
      </trkpt>
      <trkpt lat="45.25194" lon="6.15631">
        <ele>2115.999023</ele>
        <time>2011-09-03T07:45:00Z</time>
      </trkpt>
      <trkpt lat="45.25161" lon="6.15672">
        <ele>2118.402344</ele>
        <time>2011-09-03T07:45:29Z</time>
      </trkpt>
      <trkpt lat="45.25155" lon="6.15694">
        <ele>2117.921631</ele>
        <time>2011-09-03T07:45:46Z</time>
      </trkpt>
      <trkpt lat="45.25145" lon="6.15702">
        <ele>2115.518555</ele>
        <time>2011-09-03T07:46:18Z</time>
      </trkpt>
      <trkpt lat="45.25132" lon="6.15766">
        <ele>2110.711914</ele>
        <time>2011-09-03T07:47:06Z</time>
      </trkpt>
      <trkpt lat="45.25123" lon="6.15788">
        <ele>2108.789307</ele>
        <time>2011-09-03T07:47:26Z</time>
      </trkpt>
      <trkpt lat="45.25132" lon="6.15804">
        <ele>2106.866455</ele>
        <time>2011-09-03T07:47:41Z</time>
      </trkpt>
      <trkpt lat="45.25133" lon="6.15812">
        <ele>2103.982666</ele>
        <time>2011-09-03T07:47:47Z</time>
      </trkpt>
      <trkpt lat="45.25099" lon="6.15852">
        <ele>2097.253418</ele>
        <time>2011-09-03T07:48:24Z</time>
      </trkpt>
      <trkpt lat="45.25098" lon="6.15861">
        <ele>2095.811523</ele>
        <time>2011-09-03T07:48:30Z</time>
      </trkpt>
      <trkpt lat="45.25087" lon="6.15877">
        <ele>2093.408203</ele>
        <time>2011-09-03T07:48:49Z</time>
      </trkpt>
      <trkpt lat="45.2509" lon="6.15876">
        <ele>2088.601562</ele>
        <time>2011-09-03T07:49:03Z</time>
      </trkpt>
      <trkpt lat="45.25079" lon="6.15932">
        <ele>2085.236816</ele>
        <time>2011-09-03T07:49:48Z</time>
      </trkpt>
      <trkpt lat="45.2504" lon="6.15995">
        <ele>2070.336426</ele>
        <time>2011-09-03T07:50:44Z</time>
      </trkpt>
      <trkpt lat="45.25033" lon="6.15999">
        <ele>2066.010498</ele>
        <time>2011-09-03T07:50:51Z</time>
      </trkpt>
      <trkpt lat="45.25005" lon="6.16055">
        <ele>2062.165283</ele>
        <time>2011-09-03T07:51:29Z</time>
      </trkpt>
      <trkpt lat="45.25003" lon="6.16066">
        <ele>2065.530029</ele>
        <time>2011-09-03T07:51:34Z</time>
      </trkpt>
      <trkpt lat="45.2499" lon="6.16086">
        <ele>2062.165283</ele>
        <time>2011-09-03T07:51:45Z</time>
      </trkpt>
      <trkpt lat="45.24982" lon="6.16127">
        <ele>2060.723389</ele>
        <time>2011-09-03T07:51:59Z</time>
      </trkpt>
      <trkpt lat="45.24987" lon="6.16138">
        <ele>2054.474609</ele>
        <time>2011-09-03T07:52:09Z</time>
      </trkpt>
      <trkpt lat="45.24982" lon="6.16148">
        <ele>2048.706787</ele>
        <time>2011-09-03T07:52:20Z</time>
      </trkpt>
      <trkpt lat="45.24984" lon="6.16202">
        <ele>2041.016113</ele>
        <time>2011-09-03T07:52:48Z</time>
      </trkpt>
      <trkpt lat="45.24973" lon="6.16219">
        <ele>2046.303711</ele>
        <time>2011-09-03T07:53:07Z</time>
      </trkpt>
      <trkpt lat="45.24973" lon="6.16236">
        <ele>2038.613037</ele>
        <time>2011-09-03T07:53:47Z</time>
      </trkpt>
      <trkpt lat="45.24962" lon="6.16252">
        <ele>2038.613037</ele>
        <time>2011-09-03T07:54:09Z</time>
      </trkpt>
      <trkpt lat="45.24955" lon="6.16254">
        <ele>2037.170898</ele>
        <time>2011-09-03T07:54:16Z</time>
      </trkpt>
      <trkpt lat="45.24937" lon="6.16295">
        <ele>2029.480469</ele>
        <time>2011-09-03T07:54:43Z</time>
      </trkpt>
      <trkpt lat="45.24916" lon="6.16324">
        <ele>2026.596436</ele>
        <time>2011-09-03T07:55:08Z</time>
      </trkpt>
      <trkpt lat="45.24885" lon="6.16335">
        <ele>2024.673828</ele>
        <time>2011-09-03T07:55:25Z</time>
      </trkpt>
      <trkpt lat="45.24877" lon="6.16342">
        <ele>2025.154297</ele>
        <time>2011-09-03T07:55:38Z</time>
      </trkpt>
      <trkpt lat="45.24846" lon="6.16352">
        <ele>2027.557617</ele>
        <time>2011-09-03T07:55:53Z</time>
      </trkpt>
      <trkpt lat="45.24786" lon="6.16387">
        <ele>2030.922607</ele>
        <time>2011-09-03T07:56:26Z</time>
      </trkpt>
      <trkpt lat="45.24772" lon="6.16408">
        <ele>2029.480469</ele>
        <time>2011-09-03T07:56:43Z</time>
      </trkpt>
      <trkpt lat="45.24737" lon="6.16438">
        <ele>2020.828613</ele>
        <time>2011-09-03T07:57:09Z</time>
      </trkpt>
      <trkpt lat="45.24726" lon="6.16435">
        <ele>2018.906006</ele>
        <time>2011-09-03T07:57:15Z</time>
      </trkpt>
      <trkpt lat="45.24708" lon="6.16446">
        <ele>2017.463867</ele>
        <time>2011-09-03T07:57:31Z</time>
      </trkpt>
      <trkpt lat="45.247" lon="6.16458">
        <ele>2015.541504</ele>
        <time>2011-09-03T07:57:36Z</time>
      </trkpt>
      <trkpt lat="45.24691" lon="6.16462">
        <ele>2015.060791</ele>
        <time>2011-09-03T07:57:43Z</time>
      </trkpt>
      <trkpt lat="45.24682" lon="6.16474">
        <ele>2016.021973</ele>
        <time>2011-09-03T07:57:55Z</time>
      </trkpt>
      <trkpt lat="45.24666" lon="6.16485">
        <ele>2016.502686</ele>
        <time>2011-09-03T07:58:10Z</time>
      </trkpt>
      <trkpt lat="45.2465" lon="6.16489">
        <ele>2017.94458</ele>
        <time>2011-09-03T07:58:25Z</time>
      </trkpt>
      <trkpt lat="45.24624" lon="6.16518">
        <ele>2019.386719</ele>
        <time>2011-09-03T07:58:54Z</time>
      </trkpt>
      <trkpt lat="45.24612" lon="6.16525">
        <ele>2018.906006</ele>
        <time>2011-09-03T07:59:04Z</time>
      </trkpt>
      <trkpt lat="45.24584" lon="6.16524">
        <ele>2018.425293</ele>
        <time>2011-09-03T07:59:26Z</time>
      </trkpt>
      <trkpt lat="45.24575" lon="6.16517">
        <ele>2014.580078</ele>
        <time>2011-09-03T07:59:36Z</time>
      </trkpt>
      <trkpt lat="45.24562" lon="6.16515">
        <ele>2017.94458</ele>
        <time>2011-09-03T07:59:50Z</time>
      </trkpt>
      <trkpt lat="45.24548" lon="6.16525">
        <ele>2017.463867</ele>
        <time>2011-09-03T08:00:08Z</time>
      </trkpt>
      <trkpt lat="45.24537" lon="6.16526">
        <ele>2013.618652</ele>
        <time>2011-09-03T08:00:16Z</time>
      </trkpt>
      <trkpt lat="45.24528" lon="6.16519">
        <ele>2011.215332</ele>
        <time>2011-09-03T08:00:21Z</time>
      </trkpt>
      <trkpt lat="45.24503" lon="6.16528">
        <ele>2005.44751</ele>
        <time>2011-09-03T08:00:48Z</time>
      </trkpt>
      <trkpt lat="45.24473" lon="6.16519">
        <ele>2005.927979</ele>
        <time>2011-09-03T08:01:18Z</time>
      </trkpt>
      <trkpt lat="45.24466" lon="6.1651">
        <ele>2001.121582</ele>
        <time>2011-09-03T08:01:26Z</time>
      </trkpt>
      <trkpt lat="45.24427" lon="6.16495">
        <ele>1991.989014</ele>
        <time>2011-09-03T08:01:45Z</time>
      </trkpt>
      <trkpt lat="45.24418" lon="6.16484">
        <ele>1990.066406</ele>
        <time>2011-09-03T08:01:50Z</time>
      </trkpt>
      <trkpt lat="45.24385" lon="6.16483">
        <ele>1980.934082</ele>
        <time>2011-09-03T08:02:07Z</time>
      </trkpt>
      <trkpt lat="45.2437" lon="6.16474">
        <ele>1979.010986</ele>
        <time>2011-09-03T08:02:15Z</time>
      </trkpt>
      <trkpt lat="45.24363" lon="6.16478">
        <ele>1977.088623</ele>
        <time>2011-09-03T08:02:19Z</time>
      </trkpt>
      <trkpt lat="45.24338" lon="6.16462">
        <ele>1968.91748</ele>
        <time>2011-09-03T08:02:35Z</time>
      </trkpt>
      <trkpt lat="45.24316" lon="6.16466">
        <ele>1967.956055</ele>
        <time>2011-09-03T08:02:54Z</time>
      </trkpt>
      <trkpt lat="45.24305" lon="6.16478">
        <ele>1970.840088</ele>
        <time>2011-09-03T08:03:07Z</time>
      </trkpt>
      <trkpt lat="45.24282" lon="6.16467">
        <ele>1973.723877</ele>
        <time>2011-09-03T08:03:36Z</time>
      </trkpt>
      <trkpt lat="45.24265" lon="6.16479">
        <ele>1974.20459</ele>
        <time>2011-09-03T08:03:52Z</time>
      </trkpt>
      <trkpt lat="45.24225" lon="6.16476">
        <ele>1959.784668</ele>
        <time>2011-09-03T08:04:23Z</time>
      </trkpt>
      <trkpt lat="45.24208" lon="6.16491">
        <ele>1953.536377</ele>
        <time>2011-09-03T08:04:37Z</time>
      </trkpt>
      <trkpt lat="45.24203" lon="6.16489">
        <ele>1951.61377</ele>
        <time>2011-09-03T08:04:41Z</time>
      </trkpt>
      <trkpt lat="45.24181" lon="6.16504">
        <ele>1947.768311</ele>
        <time>2011-09-03T08:05:06Z</time>
      </trkpt>
      <trkpt lat="45.24174" lon="6.16491">
        <ele>1950.652344</ele>
        <time>2011-09-03T08:05:30Z</time>
      </trkpt>
      <trkpt lat="45.2418" lon="6.16486">
        <ele>1954.497559</ele>
        <time>2011-09-03T08:05:41Z</time>
      </trkpt>
      <trkpt lat="45.24153" lon="6.16452">
        <ele>1969.398193</ele>
        <time>2011-09-03T08:06:35Z</time>
      </trkpt>
      <trkpt lat="45.24152" lon="6.1644">
        <ele>1970.840088</ele>
        <time>2011-09-03T08:06:48Z</time>
      </trkpt>
      <trkpt lat="45.24136" lon="6.16395">
        <ele>1981.895264</ele>
        <time>2011-09-03T08:07:41Z</time>
      </trkpt>
      <trkpt lat="45.24125" lon="6.16383">
        <ele>1985.740479</ele>
        <time>2011-09-03T08:07:57Z</time>
      </trkpt>
      <trkpt lat="45.24111" lon="6.16346">
        <ele>1989.10498</ele>
        <time>2011-09-03T08:08:30Z</time>
      </trkpt>
      <trkpt lat="45.24112" lon="6.16337">
        <ele>1991.027588</ele>
        <time>2011-09-03T08:08:37Z</time>
      </trkpt>
      <trkpt lat="45.24105" lon="6.16306">
        <ele>1997.75708</ele>
        <time>2011-09-03T08:09:11Z</time>
      </trkpt>
      <trkpt lat="45.2411" lon="6.16304">
        <ele>1998.718262</ele>
        <time>2011-09-03T08:09:19Z</time>
      </trkpt>
      <trkpt lat="45.241" lon="6.16288">
        <ele>2001.121582</ele>
        <time>2011-09-03T08:09:38Z</time>
      </trkpt>
      <trkpt lat="45.24107" lon="6.16271">
        <ele>2005.44751</ele>
        <time>2011-09-03T08:10:01Z</time>
      </trkpt>
      <trkpt lat="45.241" lon="6.16248">
        <ele>2012.176758</ele>
        <time>2011-09-03T08:10:30Z</time>
      </trkpt>
      <trkpt lat="45.24092" lon="6.16202">
        <ele>2017.94458</ele>
        <time>2011-09-03T08:11:05Z</time>
      </trkpt>
      <trkpt lat="45.24086" lon="6.16187">
        <ele>2021.789795</ele>
        <time>2011-09-03T08:11:20Z</time>
      </trkpt>
      <trkpt lat="45.24058" lon="6.16156">
        <ele>2031.403076</ele>
        <time>2011-09-03T08:12:04Z</time>
      </trkpt>
      <trkpt lat="45.24051" lon="6.16153">
        <ele>2033.325684</ele>
        <time>2011-09-03T08:12:12Z</time>
      </trkpt>
      <trkpt lat="45.24025" lon="6.16119">
        <ele>2040.5354</ele>
        <time>2011-09-03T08:12:44Z</time>
      </trkpt>
      <trkpt lat="45.24017" lon="6.16114">
        <ele>2042.458252</ele>
        <time>2011-09-03T08:12:52Z</time>
      </trkpt>
      <trkpt lat="45.24007" lon="6.16097">
        <ele>2044.861572</ele>
        <time>2011-09-03T08:13:07Z</time>
      </trkpt>
      <trkpt lat="45.24004" lon="6.16077">
        <ele>2050.148926</ele>
        <time>2011-09-03T08:13:25Z</time>
      </trkpt>
      <trkpt lat="45.24006" lon="6.16073">
        <ele>2051.59082</ele>
        <time>2011-09-03T08:13:30Z</time>
      </trkpt>
      <trkpt lat="45.24012" lon="6.16076">
        <ele>2053.032715</ele>
        <time>2011-09-03T08:13:36Z</time>
      </trkpt>
      <trkpt lat="45.24013" lon="6.16057">
        <ele>2056.397217</ele>
        <time>2011-09-03T08:13:50Z</time>
      </trkpt>
      <trkpt lat="45.23998" lon="6.16047">
        <ele>2059.761719</ele>
        <time>2011-09-03T08:14:05Z</time>
      </trkpt>
      <trkpt lat="45.23991" lon="6.16031">
        <ele>2060.723389</ele>
        <time>2011-09-03T08:14:17Z</time>
      </trkpt>
      <trkpt lat="45.23983" lon="6.16033">
        <ele>2059.28125</ele>
        <time>2011-09-03T08:14:27Z</time>
      </trkpt>
      <trkpt lat="45.23975" lon="6.16018">
        <ele>2064.087891</ele>
        <time>2011-09-03T08:14:41Z</time>
      </trkpt>
      <trkpt lat="45.23956" lon="6.16013">
        <ele>2066.971924</ele>
        <time>2011-09-03T08:14:58Z</time>
      </trkpt>
      <trkpt lat="45.23944" lon="6.16003">
        <ele>2069.375244</ele>
        <time>2011-09-03T08:15:12Z</time>
      </trkpt>
      <trkpt lat="45.23937" lon="6.15982">
        <ele>2073.220459</ele>
        <time>2011-09-03T08:15:27Z</time>
      </trkpt>
      <trkpt lat="45.23911" lon="6.15967">
        <ele>2078.507812</ele>
        <time>2011-09-03T08:15:58Z</time>
      </trkpt>
      <trkpt lat="45.2389" lon="6.15946">
        <ele>2083.794922</ele>
        <time>2011-09-03T08:16:22Z</time>
      </trkpt>
      <trkpt lat="45.23875" lon="6.15923">
        <ele>2085.236816</ele>
        <time>2011-09-03T08:16:51Z</time>
      </trkpt>
      <trkpt lat="45.23875" lon="6.15912">
        <ele>2087.159424</ele>
        <time>2011-09-03T08:16:59Z</time>
      </trkpt>
      <trkpt lat="45.23865" lon="6.159">
        <ele>2091.966064</ele>
        <time>2011-09-03T08:17:14Z</time>
      </trkpt>
      <trkpt lat="45.23851" lon="6.15918">
        <ele>2096.292236</ele>
        <time>2011-09-03T08:17:32Z</time>
      </trkpt>
      <trkpt lat="45.23793" lon="6.15879">
        <ele>2103.501953</ele>
        <time>2011-09-03T08:18:26Z</time>
      </trkpt>
      <trkpt lat="45.23769" lon="6.15853">
        <ele>2103.02124</ele>
        <time>2011-09-03T08:18:58Z</time>
      </trkpt>
      <trkpt lat="45.23742" lon="6.15846">
        <ele>2103.982666</ele>
        <time>2011-09-03T08:19:18Z</time>
      </trkpt>
      <trkpt lat="45.23722" lon="6.15832">
        <ele>2103.982666</ele>
        <time>2011-09-03T08:19:47Z</time>
      </trkpt>
      <trkpt lat="45.23667" lon="6.15814">
        <ele>2105.424561</ele>
        <time>2011-09-03T08:20:28Z</time>
      </trkpt>
      <trkpt lat="45.23633" lon="6.15813">
        <ele>2113.115234</ele>
        <time>2011-09-03T08:21:02Z</time>
      </trkpt>
      <trkpt lat="45.2365" lon="6.15814">
        <ele>2107.827881</ele>
        <time>2011-09-03T08:21:41Z</time>
      </trkpt>
      <trkpt lat="45.23654" lon="6.1581">
        <ele>2106.385742</ele>
        <time>2011-09-03T08:21:57Z</time>
      </trkpt>
      <trkpt lat="45.23647" lon="6.15803">
        <ele>2108.308594</ele>
        <time>2011-09-03T08:22:28Z</time>
      </trkpt>
      <trkpt lat="45.2364" lon="6.15784">
        <ele>2109.750488</ele>
        <time>2011-09-03T08:22:45Z</time>
      </trkpt>
      <trkpt lat="45.23628" lon="6.15766">
        <ele>2111.192627</ele>
        <time>2011-09-03T08:23:17Z</time>
      </trkpt>
      <trkpt lat="45.23627" lon="6.15746">
        <ele>2110.711914</ele>
        <time>2011-09-03T08:23:33Z</time>
      </trkpt>
      <trkpt lat="45.23621" lon="6.15722">
        <ele>2109.750488</ele>
        <time>2011-09-03T08:23:59Z</time>
      </trkpt>
      <trkpt lat="45.23621" lon="6.15709">
        <ele>2107.347168</ele>
        <time>2011-09-03T08:24:06Z</time>
      </trkpt>
      <trkpt lat="45.23636" lon="6.15668">
        <ele>2103.501953</ele>
        <time>2011-09-03T08:24:36Z</time>
      </trkpt>
      <trkpt lat="45.2366" lon="6.15616">
        <ele>2117.440918</ele>
        <time>2011-09-03T08:26:21Z</time>
      </trkpt>
      <trkpt lat="45.23685" lon="6.15584">
        <ele>2122.247559</ele>
        <time>2011-09-03T08:26:56Z</time>
      </trkpt>
      <trkpt lat="45.23687" lon="6.15571">
        <ele>2124.17041</ele>
        <time>2011-09-03T08:27:06Z</time>
      </trkpt>
      <trkpt lat="45.23678" lon="6.15529">
        <ele>2126.093018</ele>
        <time>2011-09-03T08:27:33Z</time>
      </trkpt>
      <trkpt lat="45.23681" lon="6.15522">
        <ele>2126.57373</ele>
        <time>2011-09-03T08:27:37Z</time>
      </trkpt>
      <trkpt lat="45.23673" lon="6.15499">
        <ele>2131.380127</ele>
        <time>2011-09-03T08:27:53Z</time>
      </trkpt>
      <trkpt lat="45.23667" lon="6.15451">
        <ele>2138.590088</ele>
        <time>2011-09-03T08:28:26Z</time>
      </trkpt>
      <trkpt lat="45.23659" lon="6.15418">
        <ele>2144.35791</ele>
        <time>2011-09-03T08:28:49Z</time>
      </trkpt>
      <trkpt lat="45.23662" lon="6.15389">
        <ele>2145.319336</ele>
        <time>2011-09-03T08:29:24Z</time>
      </trkpt>
      <trkpt lat="45.23652" lon="6.15381">
        <ele>2146.76123</ele>
        <time>2011-09-03T08:29:34Z</time>
      </trkpt>
      <trkpt lat="45.23632" lon="6.15345">
        <ele>2151.567871</ele>
        <time>2011-09-03T08:30:11Z</time>
      </trkpt>
      <trkpt lat="45.23615" lon="6.15267">
        <ele>2158.777832</ele>
        <time>2011-09-03T08:31:08Z</time>
      </trkpt>
      <trkpt lat="45.23616" lon="6.15222">
        <ele>2162.142334</ele>
        <time>2011-09-03T08:31:36Z</time>
      </trkpt>
      <trkpt lat="45.23619" lon="6.15198">
        <ele>2164.064941</ele>
        <time>2011-09-03T08:31:52Z</time>
      </trkpt>
      <trkpt lat="45.23616" lon="6.15157">
        <ele>2168.390869</ele>
        <time>2011-09-03T08:32:18Z</time>
      </trkpt>
      <trkpt lat="45.23619" lon="6.15145">
        <ele>2170.794189</ele>
        <time>2011-09-03T08:32:26Z</time>
      </trkpt>
      <trkpt lat="45.23633" lon="6.15124">
        <ele>2170.794189</ele>
        <time>2011-09-03T08:32:47Z</time>
      </trkpt>
      <trkpt lat="45.23639" lon="6.15103">
        <ele>2174.158936</ele>
        <time>2011-09-03T08:33:07Z</time>
      </trkpt>
      <trkpt lat="45.23647" lon="6.15103">
        <ele>2175.60083</ele>
        <time>2011-09-03T08:33:16Z</time>
      </trkpt>
      <trkpt lat="45.23658" lon="6.15091">
        <ele>2178.965332</ele>
        <time>2011-09-03T08:33:50Z</time>
      </trkpt>
      <trkpt lat="45.23661" lon="6.15078">
        <ele>2187.136475</ele>
        <time>2011-09-03T08:34:14Z</time>
      </trkpt>
      <trkpt lat="45.23663" lon="6.15081">
        <ele>2186.655762</ele>
        <time>2011-09-03T08:34:25Z</time>
      </trkpt>
      <trkpt lat="45.23655" lon="6.15067">
        <ele>2192.424072</ele>
        <time>2011-09-03T08:35:26Z</time>
      </trkpt>
      <trkpt lat="45.23659" lon="6.15054">
        <ele>2194.827148</ele>
        <time>2011-09-03T08:35:40Z</time>
      </trkpt>
      <trkpt lat="45.2367" lon="6.15039">
        <ele>2195.788574</ele>
        <time>2011-09-03T08:35:58Z</time>
      </trkpt>
      <trkpt lat="45.23684" lon="6.15035">
        <ele>2198.672363</ele>
        <time>2011-09-03T08:36:13Z</time>
      </trkpt>
      <trkpt lat="45.2372" lon="6.15044">
        <ele>2207.324463</ele>
        <time>2011-09-03T08:37:01Z</time>
      </trkpt>
      <trkpt lat="45.23759" lon="6.15015">
        <ele>2215.495605</ele>
        <time>2011-09-03T08:37:49Z</time>
      </trkpt>
      <trkpt lat="45.23771" lon="6.15014">
        <ele>2216.9375</ele>
        <time>2011-09-03T08:38:03Z</time>
      </trkpt>
      <trkpt lat="45.23782" lon="6.15001">
        <ele>2221.744141</ele>
        <time>2011-09-03T08:38:25Z</time>
      </trkpt>
      <trkpt lat="45.238" lon="6.14992">
        <ele>2223.666748</ele>
        <time>2011-09-03T08:38:46Z</time>
      </trkpt>
      <trkpt lat="45.23809" lon="6.14995">
        <ele>2226.070068</ele>
        <time>2011-09-03T08:39:04Z</time>
      </trkpt>
      <trkpt lat="45.23812" lon="6.14982">
        <ele>2227.031494</ele>
        <time>2011-09-03T08:39:20Z</time>
      </trkpt>
      <trkpt lat="45.23806" lon="6.14977">
        <ele>2227.031494</ele>
        <time>2011-09-03T08:39:26Z</time>
      </trkpt>
      <trkpt lat="45.23804" lon="6.14968">
        <ele>2227.511963</ele>
        <time>2011-09-03T08:39:35Z</time>
      </trkpt>
      <trkpt lat="45.23777" lon="6.14942">
        <ele>2229.915283</ele>
        <time>2011-09-03T08:40:25Z</time>
      </trkpt>
      <trkpt lat="45.2377" lon="6.14944">
        <ele>2229.915283</ele>
        <time>2011-09-03T08:40:31Z</time>
      </trkpt>
      <trkpt lat="45.23764" lon="6.14939">
        <ele>2230.395996</ele>
        <time>2011-09-03T08:40:37Z</time>
      </trkpt>
      <trkpt lat="45.23756" lon="6.14914">
        <ele>2230.395996</ele>
        <time>2011-09-03T08:40:54Z</time>
      </trkpt>
      <trkpt lat="45.23758" lon="6.1489">
        <ele>2227.992676</ele>
        <time>2011-09-03T08:41:13Z</time>
      </trkpt>
      <trkpt lat="45.23754" lon="6.14878">
        <ele>2230.876709</ele>
        <time>2011-09-03T08:41:25Z</time>
      </trkpt>
      <trkpt lat="45.23753" lon="6.14845">
        <ele>2234.721924</ele>
        <time>2011-09-03T08:41:57Z</time>
      </trkpt>
      <trkpt lat="45.23759" lon="6.14779">
        <ele>2229.43457</ele>
        <time>2011-09-03T08:42:45Z</time>
      </trkpt>
      <trkpt lat="45.23766" lon="6.14741">
        <ele>2224.147461</ele>
        <time>2011-09-03T08:43:14Z</time>
      </trkpt>
      <trkpt lat="45.2376" lon="6.14727">
        <ele>2221.744141</ele>
        <time>2011-09-03T08:43:25Z</time>
      </trkpt>
      <trkpt lat="45.23762" lon="6.14702">
        <ele>2220.782959</ele>
        <time>2011-09-03T08:43:41Z</time>
      </trkpt>
      <trkpt lat="45.23759" lon="6.14698">
        <ele>2220.782959</ele>
        <time>2011-09-03T08:43:47Z</time>
      </trkpt>
      <trkpt lat="45.23759" lon="6.14647">
        <ele>2226.550781</ele>
        <time>2011-09-03T08:44:32Z</time>
      </trkpt>
      <trkpt lat="45.23763" lon="6.14624">
        <ele>2230.395996</ele>
        <time>2011-09-03T08:44:50Z</time>
      </trkpt>
      <trkpt lat="45.23755" lon="6.14601">
        <ele>2232.799072</ele>
        <time>2011-09-03T08:45:11Z</time>
      </trkpt>
      <trkpt lat="45.23763" lon="6.14544">
        <ele>2233.279785</ele>
        <time>2011-09-03T08:45:56Z</time>
      </trkpt>
      <trkpt lat="45.2376" lon="6.145">
        <ele>2231.837891</ele>
        <time>2011-09-03T08:46:28Z</time>
      </trkpt>
      <trkpt lat="45.23756" lon="6.14487">
        <ele>2232.318604</ele>
        <time>2011-09-03T08:46:37Z</time>
      </trkpt>
      <trkpt lat="45.23751" lon="6.14416">
        <ele>2239.528564</ele>
        <time>2011-09-03T08:47:38Z</time>
      </trkpt>
      <trkpt lat="45.23753" lon="6.14414">
        <ele>2237.605957</ele>
        <time>2011-09-03T08:48:25Z</time>
      </trkpt>
      <trkpt lat="45.23749" lon="6.14411">
        <ele>2238.08667</ele>
        <time>2011-09-03T08:49:02Z</time>
      </trkpt>
      <trkpt lat="45.23734" lon="6.1436">
        <ele>2249.141602</ele>
        <time>2011-09-03T08:50:01Z</time>
      </trkpt>
      <trkpt lat="45.23724" lon="6.14345">
        <ele>2249.622314</ele>
        <time>2011-09-03T08:50:16Z</time>
      </trkpt>
      <trkpt lat="45.2373" lon="6.14292">
        <ele>2252.025635</ele>
        <time>2011-09-03T08:51:33Z</time>
      </trkpt>
      <trkpt lat="45.23727" lon="6.14261">
        <ele>2253.467773</ele>
        <time>2011-09-03T08:52:06Z</time>
      </trkpt>
      <trkpt lat="45.23723" lon="6.14257">
        <ele>2252.506348</ele>
        <time>2011-09-03T08:52:11Z</time>
      </trkpt>
      <trkpt lat="45.2372" lon="6.14234">
        <ele>2254.428955</ele>
        <time>2011-09-03T08:52:36Z</time>
      </trkpt>
      <trkpt lat="45.23711" lon="6.14222">
        <ele>2257.793701</ele>
        <time>2011-09-03T08:52:52Z</time>
      </trkpt>
      <trkpt lat="45.23715" lon="6.14208">
        <ele>2261.158203</ele>
        <time>2011-09-03T08:53:25Z</time>
      </trkpt>
      <trkpt lat="45.23712" lon="6.14205">
        <ele>2262.119385</ele>
        <time>2011-09-03T08:53:33Z</time>
      </trkpt>
      <trkpt lat="45.23713" lon="6.14184">
        <ele>2267.406494</ele>
        <time>2011-09-03T08:53:58Z</time>
      </trkpt>
      <trkpt lat="45.23692" lon="6.14144">
        <ele>2273.174805</ele>
        <time>2011-09-03T08:54:42Z</time>
      </trkpt>
      <trkpt lat="45.23682" lon="6.14134">
        <ele>2275.577881</ele>
        <time>2011-09-03T08:55:04Z</time>
      </trkpt>
      <trkpt lat="45.23679" lon="6.14119">
        <ele>2279.903809</ele>
        <time>2011-09-03T08:55:33Z</time>
      </trkpt>
      <trkpt lat="45.23677" lon="6.1412">
        <ele>2279.903809</ele>
        <time>2011-09-03T08:55:37Z</time>
      </trkpt>
      <trkpt lat="45.23673" lon="6.14108">
        <ele>2282.787598</ele>
        <time>2011-09-03T08:55:58Z</time>
      </trkpt>
      <trkpt lat="45.2368" lon="6.14101">
        <ele>2285.671875</ele>
        <time>2011-09-03T08:56:16Z</time>
      </trkpt>
      <trkpt lat="45.23657" lon="6.14058">
        <ele>2298.649414</ele>
        <time>2011-09-03T08:57:51Z</time>
      </trkpt>
      <trkpt lat="45.23663" lon="6.14057">
        <ele>2292.881592</ele>
        <time>2011-09-03T08:58:41Z</time>
      </trkpt>
      <trkpt lat="45.2365" lon="6.14043">
        <ele>2299.61084</ele>
        <time>2011-09-03T08:59:16Z</time>
      </trkpt>
      <trkpt lat="45.23642" lon="6.14018">
        <ele>2305.859375</ele>
        <time>2011-09-03T08:59:50Z</time>
      </trkpt>
      <trkpt lat="45.23645" lon="6.14018">
        <ele>2305.378906</ele>
        <time>2011-09-03T08:59:54Z</time>
      </trkpt>
      <trkpt lat="45.23631" lon="6.1399">
        <ele>2313.069336</ele>
        <time>2011-09-03T09:00:44Z</time>
      </trkpt>
      <trkpt lat="45.23626" lon="6.13991">
        <ele>2315.953125</ele>
        <time>2011-09-03T09:01:00Z</time>
      </trkpt>
      <trkpt lat="45.23603" lon="6.13955">
        <ele>2326.047119</ele>
        <time>2011-09-03T09:02:10Z</time>
      </trkpt>
      <trkpt lat="45.23599" lon="6.13935">
        <ele>2327.489014</ele>
        <time>2011-09-03T09:02:50Z</time>
      </trkpt>
      <trkpt lat="45.23607" lon="6.13908">
        <ele>2326.527832</ele>
        <time>2011-09-03T09:03:14Z</time>
      </trkpt>
      <trkpt lat="45.23584" lon="6.13816">
        <ele>2320.76001</ele>
        <time>2011-09-03T09:04:35Z</time>
      </trkpt>
      <trkpt lat="45.23579" lon="6.13807">
        <ele>2317.875977</ele>
        <time>2011-09-03T09:04:49Z</time>
      </trkpt>
      <trkpt lat="45.23555" lon="6.13706">
        <ele>2317.395264</ele>
        <time>2011-09-03T09:06:45Z</time>
      </trkpt>
      <trkpt lat="45.23542" lon="6.13677">
        <ele>2315.953125</ele>
        <time>2011-09-03T09:07:09Z</time>
      </trkpt>
      <trkpt lat="45.23539" lon="6.1365">
        <ele>2315.472656</ele>
        <time>2011-09-03T09:07:30Z</time>
      </trkpt>
      <trkpt lat="45.23541" lon="6.13612">
        <ele>2314.51123</ele>
        <time>2011-09-03T09:07:56Z</time>
      </trkpt>
      <trkpt lat="45.23527" lon="6.13573">
        <ele>2314.030518</ele>
        <time>2011-09-03T09:08:30Z</time>
      </trkpt>
      <trkpt lat="45.23526" lon="6.13563">
        <ele>2312.588623</ele>
        <time>2011-09-03T09:08:38Z</time>
      </trkpt>
      <trkpt lat="45.23501" lon="6.135">
        <ele>2303.937012</ele>
        <time>2011-09-03T09:09:27Z</time>
      </trkpt>
      <trkpt lat="45.23487" lon="6.13493">
        <ele>2301.052979</ele>
        <time>2011-09-03T09:09:54Z</time>
      </trkpt>
      <trkpt lat="45.23479" lon="6.1346">
        <ele>2301.533691</ele>
        <time>2011-09-03T09:10:21Z</time>
      </trkpt>
      <trkpt lat="45.2348" lon="6.13434">
        <ele>2302.494873</ele>
        <time>2011-09-03T09:10:46Z</time>
      </trkpt>
      <trkpt lat="45.23473" lon="6.13402">
        <ele>2307.782227</ele>
        <time>2011-09-03T09:11:32Z</time>
      </trkpt>
      <trkpt lat="45.23463" lon="6.13393">
        <ele>2314.991943</ele>
        <time>2011-09-03T09:11:55Z</time>
      </trkpt>
      <trkpt lat="45.23467" lon="6.13373">
        <ele>2319.318115</ele>
        <time>2011-09-03T09:12:30Z</time>
      </trkpt>
      <trkpt lat="45.23462" lon="6.13364">
        <ele>2325.566406</ele>
        <time>2011-09-03T09:13:03Z</time>
      </trkpt>
      <trkpt lat="45.23465" lon="6.13352">
        <ele>2328.450439</ele>
        <time>2011-09-03T09:13:20Z</time>
      </trkpt>
      <trkpt lat="45.23461" lon="6.13339">
        <ele>2326.047119</ele>
        <time>2011-09-03T09:13:38Z</time>
      </trkpt>
      <trkpt lat="45.23464" lon="6.13327">
        <ele>2314.51123</ele>
        <time>2011-09-03T09:13:57Z</time>
      </trkpt>
      <trkpt lat="45.23481" lon="6.13323">
        <ele>2327.489014</ele>
        <time>2011-09-03T09:14:32Z</time>
      </trkpt>
      <trkpt lat="45.23478" lon="6.13317">
        <ele>2331.334229</ele>
        <time>2011-09-03T09:14:50Z</time>
      </trkpt>
      <trkpt lat="45.23475" lon="6.13321">
        <ele>2336.621582</ele>
        <time>2011-09-03T09:15:04Z</time>
      </trkpt>
      <trkpt lat="45.23458" lon="6.13295">
        <ele>2342.389648</ele>
        <time>2011-09-03T09:16:08Z</time>
      </trkpt>
      <trkpt lat="45.23457" lon="6.13287">
        <ele>2346.234863</ele>
        <time>2011-09-03T09:16:30Z</time>
      </trkpt>
      <trkpt lat="45.23465" lon="6.1327">
        <ele>2342.870117</ele>
        <time>2011-09-03T09:17:06Z</time>
      </trkpt>
      <trkpt lat="45.23478" lon="6.13272">
        <ele>2355.367432</ele>
        <time>2011-09-03T09:17:45Z</time>
      </trkpt>
      <trkpt lat="45.23484" lon="6.13267">
        <ele>2367.383789</ele>
        <time>2011-09-03T09:18:19Z</time>
      </trkpt>
      <trkpt lat="45.23477" lon="6.1326">
        <ele>2371.709717</ele>
        <time>2011-09-03T09:18:41Z</time>
      </trkpt>
      <trkpt lat="45.2348" lon="6.13258">
        <ele>2371.709717</ele>
        <time>2011-09-03T09:18:52Z</time>
      </trkpt>
      <trkpt lat="45.23478" lon="6.1324">
        <ele>2383.245605</ele>
        <time>2011-09-03T09:19:46Z</time>
      </trkpt>
      <trkpt lat="45.23466" lon="6.13226">
        <ele>2406.317139</ele>
        <time>2011-09-03T09:20:30Z</time>
      </trkpt>
      <trkpt lat="45.2346" lon="6.13224">
        <ele>2413.5271</ele>
        <time>2011-09-03T09:20:53Z</time>
      </trkpt>
      <trkpt lat="45.23463" lon="6.13221">
        <ele>2414.969238</ele>
        <time>2011-09-03T09:21:00Z</time>
      </trkpt>
      <trkpt lat="45.23467" lon="6.13208">
        <ele>2406.317139</ele>
        <time>2011-09-03T09:21:23Z</time>
      </trkpt>
      <trkpt lat="45.23467" lon="6.1319">
        <ele>2406.797852</ele>
        <time>2011-09-03T09:22:18Z</time>
      </trkpt>
      <trkpt lat="45.23459" lon="6.13185">
        <ele>2415.449951</ele>
        <time>2011-09-03T09:23:11Z</time>
      </trkpt>
      <trkpt lat="45.23457" lon="6.13161">
        <ele>2428.908203</ele>
        <time>2011-09-03T09:24:25Z</time>
      </trkpt>
      <trkpt lat="45.23453" lon="6.13166">
        <ele>2424.582275</ele>
        <time>2011-09-03T09:24:48Z</time>
      </trkpt>
      <trkpt lat="45.2345" lon="6.13164">
        <ele>2425.062744</ele>
        <time>2011-09-03T09:25:26Z</time>
      </trkpt>
      <trkpt lat="45.23454" lon="6.13164">
        <ele>2426.985596</ele>
        <time>2011-09-03T09:26:35Z</time>
      </trkpt>
      <trkpt lat="45.23446" lon="6.13165">
        <ele>2424.582275</ele>
        <time>2011-09-03T09:28:38Z</time>
      </trkpt>
      <trkpt lat="45.23454" lon="6.13167">
        <ele>2430.831055</ele>
        <time>2011-09-03T09:30:02Z</time>
      </trkpt>
      <trkpt lat="45.23448" lon="6.13168">
        <ele>2429.869629</ele>
        <time>2011-09-03T09:30:59Z</time>
      </trkpt>
      <trkpt lat="45.23453" lon="6.13165">
        <ele>2429.869629</ele>
        <time>2011-09-03T09:31:57Z</time>
      </trkpt>
      <trkpt lat="45.23449" lon="6.13165">
        <ele>2428.427734</ele>
        <time>2011-09-03T09:32:13Z</time>
      </trkpt>
      <trkpt lat="45.23462" lon="6.13153">
        <ele>2425.543457</ele>
        <time>2011-09-03T09:32:44Z</time>
      </trkpt>
      <trkpt lat="45.23465" lon="6.13142">
        <ele>2422.178955</ele>
        <time>2011-09-03T09:32:53Z</time>
      </trkpt>
      <trkpt lat="45.23484" lon="6.13123">
        <ele>2407.759277</ele>
        <time>2011-09-03T09:33:20Z</time>
      </trkpt>
      <trkpt lat="45.23496" lon="6.13121">
        <ele>2405.836426</ele>
        <time>2011-09-03T09:33:31Z</time>
      </trkpt>
      <trkpt lat="45.23502" lon="6.13114">
        <ele>2403.43335</ele>
        <time>2011-09-03T09:33:38Z</time>
      </trkpt>
      <trkpt lat="45.23507" lon="6.1309">
        <ele>2404.875244</ele>
        <time>2011-09-03T09:33:57Z</time>
      </trkpt>
      <trkpt lat="45.23527" lon="6.13079">
        <ele>2401.510742</ele>
        <time>2011-09-03T09:34:25Z</time>
      </trkpt>
      <trkpt lat="45.23529" lon="6.13069">
        <ele>2397.665527</ele>
        <time>2011-09-03T09:34:34Z</time>
      </trkpt>
      <trkpt lat="45.23546" lon="6.13052">
        <ele>2392.378174</ele>
        <time>2011-09-03T09:35:00Z</time>
      </trkpt>
      <trkpt lat="45.23555" lon="6.12995">
        <ele>2396.223633</ele>
        <time>2011-09-03T09:35:53Z</time>
      </trkpt>
      <trkpt lat="45.23554" lon="6.12938">
        <ele>2393.820068</ele>
        <time>2011-09-03T09:37:04Z</time>
      </trkpt>
      <trkpt lat="45.23561" lon="6.12926">
        <ele>2393.339355</ele>
        <time>2011-09-03T09:37:16Z</time>
      </trkpt>
      <trkpt lat="45.23573" lon="6.12863">
        <ele>2386.610107</ele>
        <time>2011-09-03T09:38:22Z</time>
      </trkpt>
      <trkpt lat="45.23576" lon="6.12859">
        <ele>2385.648926</ele>
        <time>2011-09-03T09:38:27Z</time>
      </trkpt>
      <trkpt lat="45.23574" lon="6.12848">
        <ele>2387.571533</ele>
        <time>2011-09-03T09:38:38Z</time>
      </trkpt>
      <trkpt lat="45.23578" lon="6.12827">
        <ele>2380.361816</ele>
        <time>2011-09-03T09:39:09Z</time>
      </trkpt>
      <trkpt lat="45.23585" lon="6.1283">
        <ele>2378.438965</ele>
        <time>2011-09-03T09:39:21Z</time>
      </trkpt>
      <trkpt lat="45.23588" lon="6.12822">
        <ele>2376.516357</ele>
        <time>2011-09-03T09:39:35Z</time>
      </trkpt>
      <trkpt lat="45.23605" lon="6.1282">
        <ele>2364.980713</ele>
        <time>2011-09-03T09:40:05Z</time>
      </trkpt>
      <trkpt lat="45.23615" lon="6.12807">
        <ele>2364.5</ele>
        <time>2011-09-03T09:40:23Z</time>
      </trkpt>
      <trkpt lat="45.23623" lon="6.12807">
        <ele>2365.461426</ele>
        <time>2011-09-03T09:40:33Z</time>
      </trkpt>
      <trkpt lat="45.23635" lon="6.12772">
        <ele>2373.151855</ele>
        <time>2011-09-03T09:41:23Z</time>
      </trkpt>
      <trkpt lat="45.23634" lon="6.12752">
        <ele>2378.919434</ele>
        <time>2011-09-03T09:41:49Z</time>
      </trkpt>
      <trkpt lat="45.23646" lon="6.12757">
        <ele>2381.803711</ele>
        <time>2011-09-03T09:42:12Z</time>
      </trkpt>
      <trkpt lat="45.23668" lon="6.12722">
        <ele>2389.974854</ele>
        <time>2011-09-03T09:43:05Z</time>
      </trkpt>
      <trkpt lat="45.23676" lon="6.12733">
        <ele>2392.378174</ele>
        <time>2011-09-03T09:43:30Z</time>
      </trkpt>
      <trkpt lat="45.23682" lon="6.12734">
        <ele>2389.974854</ele>
        <time>2011-09-03T09:43:45Z</time>
      </trkpt>
      <trkpt lat="45.23678" lon="6.12731">
        <ele>2393.820068</ele>
        <time>2011-09-03T09:44:59Z</time>
      </trkpt>
      <trkpt lat="45.23679" lon="6.12734">
        <ele>2397.665527</ele>
        <time>2011-09-03T09:45:48Z</time>
      </trkpt>
      <trkpt lat="45.23683" lon="6.12731">
        <ele>2395.742676</ele>
        <time>2011-09-03T09:46:03Z</time>
      </trkpt>
      <trkpt lat="45.23679" lon="6.12733">
        <ele>2396.223633</ele>
        <time>2011-09-03T09:46:17Z</time>
      </trkpt>
      <trkpt lat="45.23685" lon="6.1274">
        <ele>2388.052246</ele>
        <time>2011-09-03T09:47:20Z</time>
      </trkpt>
      <trkpt lat="45.23719" lon="6.12744">
        <ele>2399.107422</ele>
        <time>2011-09-03T09:47:52Z</time>
      </trkpt>
      <trkpt lat="45.23733" lon="6.12713">
        <ele>2401.030029</ele>
        <time>2011-09-03T09:48:19Z</time>
      </trkpt>
      <trkpt lat="45.23732" lon="6.12698">
        <ele>2404.394531</ele>
        <time>2011-09-03T09:48:36Z</time>
      </trkpt>
      <trkpt lat="45.23738" lon="6.12694">
        <ele>2404.394531</ele>
        <time>2011-09-03T09:48:43Z</time>
      </trkpt>
      <trkpt lat="45.23739" lon="6.12678">
        <ele>2405.355957</ele>
        <time>2011-09-03T09:48:59Z</time>
      </trkpt>
      <trkpt lat="45.23726" lon="6.1266">
        <ele>2414.488525</ele>
        <time>2011-09-03T09:49:29Z</time>
      </trkpt>
      <trkpt lat="45.2374" lon="6.12647">
        <ele>2420.256348</ele>
        <time>2011-09-03T09:49:54Z</time>
      </trkpt>
      <trkpt lat="45.23747" lon="6.12648">
        <ele>2420.737061</ele>
        <time>2011-09-03T09:50:02Z</time>
      </trkpt>
      <trkpt lat="45.2379" lon="6.12622">
        <ele>2433.234131</ele>
        <time>2011-09-03T09:51:04Z</time>
      </trkpt>
      <trkpt lat="45.23803" lon="6.12619">
        <ele>2434.195557</ele>
        <time>2011-09-03T09:51:21Z</time>
      </trkpt>
      <trkpt lat="45.23805" lon="6.12591">
        <ele>2439.963379</ele>
        <time>2011-09-03T09:51:51Z</time>
      </trkpt>
      <trkpt lat="45.23811" lon="6.12585">
        <ele>2442.847168</ele>
        <time>2011-09-03T09:52:05Z</time>
      </trkpt>
      <trkpt lat="45.23822" lon="6.12591">
        <ele>2447.17334</ele>
        <time>2011-09-03T09:52:30Z</time>
      </trkpt>
      <trkpt lat="45.23829" lon="6.12561">
        <ele>2454.86377</ele>
        <time>2011-09-03T09:53:11Z</time>
      </trkpt>
      <trkpt lat="45.23833" lon="6.12564">
        <ele>2458.228271</ele>
        <time>2011-09-03T09:53:20Z</time>
      </trkpt>
      <trkpt lat="45.23835" lon="6.12552">
        <ele>2462.07373</ele>
        <time>2011-09-03T09:53:38Z</time>
      </trkpt>
      <trkpt lat="45.23841" lon="6.12551">
        <ele>2463.035156</ele>
        <time>2011-09-03T09:53:46Z</time>
      </trkpt>
      <trkpt lat="45.23842" lon="6.12504">
        <ele>2470.725586</ele>
        <time>2011-09-03T09:54:34Z</time>
      </trkpt>
      <trkpt lat="45.2383" lon="6.1248">
        <ele>2473.128906</ele>
        <time>2011-09-03T09:55:13Z</time>
      </trkpt>
      <trkpt lat="45.23841" lon="6.12479">
        <ele>2472.16748</ele>
        <time>2011-09-03T09:55:24Z</time>
      </trkpt>
      <trkpt lat="45.23862" lon="6.12484">
        <ele>2483.222656</ele>
        <time>2011-09-03T09:56:04Z</time>
      </trkpt>
      <trkpt lat="45.2386" lon="6.12469">
        <ele>2490.432373</ele>
        <time>2011-09-03T09:56:46Z</time>
      </trkpt>
      <trkpt lat="45.2385" lon="6.12451">
        <ele>2495.719971</ele>
        <time>2011-09-03T09:57:10Z</time>
      </trkpt>
      <trkpt lat="45.23854" lon="6.12436">
        <ele>2500.526367</ele>
        <time>2011-09-03T09:57:42Z</time>
      </trkpt>
      <trkpt lat="45.2387" lon="6.12427">
        <ele>2506.774902</ele>
        <time>2011-09-03T09:58:20Z</time>
      </trkpt>
      <trkpt lat="45.23865" lon="6.1241">
        <ele>2512.062256</ele>
        <time>2011-09-03T09:58:43Z</time>
      </trkpt>
      <trkpt lat="45.23866" lon="6.12406">
        <ele>2512.542969</ele>
        <time>2011-09-03T09:59:02Z</time>
      </trkpt>
      <trkpt lat="45.2388" lon="6.12404">
        <ele>2516.868896</ele>
        <time>2011-09-03T09:59:25Z</time>
      </trkpt>
      <trkpt lat="45.23876" lon="6.12384">
        <ele>2520.714111</ele>
        <time>2011-09-03T09:59:47Z</time>
      </trkpt>
      <trkpt lat="45.23868" lon="6.12369">
        <ele>2525.040039</ele>
        <time>2011-09-03T10:00:06Z</time>
      </trkpt>
      <trkpt lat="45.23866" lon="6.12351">
        <ele>2526.482178</ele>
        <time>2011-09-03T10:00:25Z</time>
      </trkpt>
      <trkpt lat="45.2385" lon="6.12313">
        <ele>2523.5979</ele>
        <time>2011-09-03T10:00:56Z</time>
      </trkpt>
      <trkpt lat="45.23842" lon="6.12305">
        <ele>2525.520752</ele>
        <time>2011-09-03T10:01:06Z</time>
      </trkpt>
      <trkpt lat="45.23844" lon="6.12305">
        <ele>2525.520752</ele>
        <time>2011-09-03T10:01:11Z</time>
      </trkpt>
      <trkpt lat="45.23829" lon="6.1229">
        <ele>2534.65332</ele>
        <time>2011-09-03T10:01:51Z</time>
      </trkpt>
      <trkpt lat="45.23819" lon="6.12269">
        <ele>2538.017822</ele>
        <time>2011-09-03T10:02:15Z</time>
      </trkpt>
      <trkpt lat="45.23831" lon="6.12255">
        <ele>2540.901855</ele>
        <time>2011-09-03T10:02:39Z</time>
      </trkpt>
      <trkpt lat="45.23825" lon="6.12226">
        <ele>2546.669678</ele>
        <time>2011-09-03T10:03:49Z</time>
      </trkpt>
      <trkpt lat="45.23812" lon="6.12204">
        <ele>2553.398926</ele>
        <time>2011-09-03T10:04:14Z</time>
      </trkpt>
      <trkpt lat="45.2381" lon="6.12171">
        <ele>2557.244385</ele>
        <time>2011-09-03T10:05:09Z</time>
      </trkpt>
      <trkpt lat="45.23816" lon="6.12172">
        <ele>2560.128174</ele>
        <time>2011-09-03T10:05:22Z</time>
      </trkpt>
      <trkpt lat="45.23826" lon="6.12147">
        <ele>2564.934814</ele>
        <time>2011-09-03T10:06:01Z</time>
      </trkpt>
      <trkpt lat="45.23844" lon="6.12137">
        <ele>2565.415527</ele>
        <time>2011-09-03T10:06:25Z</time>
      </trkpt>
      <trkpt lat="45.2385" lon="6.1214">
        <ele>2567.337891</ele>
        <time>2011-09-03T10:06:36Z</time>
      </trkpt>
      <trkpt lat="45.2386" lon="6.12132">
        <ele>2566.857422</ele>
        <time>2011-09-03T10:06:53Z</time>
      </trkpt>
      <trkpt lat="45.23874" lon="6.12136">
        <ele>2569.741211</ele>
        <time>2011-09-03T10:07:12Z</time>
      </trkpt>
      <trkpt lat="45.2388" lon="6.12093">
        <ele>2583.68042</ele>
        <time>2011-09-03T10:08:11Z</time>
      </trkpt>
      <trkpt lat="45.23876" lon="6.12065">
        <ele>2588.006592</ele>
        <time>2011-09-03T10:08:52Z</time>
      </trkpt>
      <trkpt lat="45.2387" lon="6.12055">
        <ele>2588.487305</ele>
        <time>2011-09-03T10:09:03Z</time>
      </trkpt>
      <trkpt lat="45.23877" lon="6.12019">
        <ele>2594.254883</ele>
        <time>2011-09-03T10:09:39Z</time>
      </trkpt>
      <trkpt lat="45.23876" lon="6.11998">
        <ele>2596.177734</ele>
        <time>2011-09-03T10:09:57Z</time>
      </trkpt>
      <trkpt lat="45.23861" lon="6.11964">
        <ele>2601.945312</ele>
        <time>2011-09-03T10:10:35Z</time>
      </trkpt>
      <trkpt lat="45.2386" lon="6.11956">
        <ele>2604.348633</ele>
        <time>2011-09-03T10:10:46Z</time>
      </trkpt>
      <trkpt lat="45.23867" lon="6.11944">
        <ele>2607.232422</ele>
        <time>2011-09-03T10:11:09Z</time>
      </trkpt>
      <trkpt lat="45.23893" lon="6.11923">
        <ele>2620.691406</ele>
        <time>2011-09-03T10:12:12Z</time>
      </trkpt>
      <trkpt lat="45.23901" lon="6.11924">
        <ele>2622.133301</ele>
        <time>2011-09-03T10:12:33Z</time>
      </trkpt>
      <trkpt lat="45.23897" lon="6.11906">
        <ele>2627.900879</ele>
        <time>2011-09-03T10:13:15Z</time>
      </trkpt>
      <trkpt lat="45.23893" lon="6.11902">
        <ele>2631.746582</ele>
        <time>2011-09-03T10:13:40Z</time>
      </trkpt>
      <trkpt lat="45.23892" lon="6.11883">
        <ele>2637.994629</ele>
        <time>2011-09-03T10:14:12Z</time>
      </trkpt>
      <trkpt lat="45.23886" lon="6.1188">
        <ele>2640.878906</ele>
        <time>2011-09-03T10:14:23Z</time>
      </trkpt>
      <trkpt lat="45.23884" lon="6.11874">
        <ele>2643.281738</ele>
        <time>2011-09-03T10:14:35Z</time>
      </trkpt>
      <trkpt lat="45.2388" lon="6.11873">
        <ele>2645.685547</ele>
        <time>2011-09-03T10:14:47Z</time>
      </trkpt>
      <trkpt lat="45.23883" lon="6.11864">
        <ele>2646.646973</ele>
        <time>2011-09-03T10:14:59Z</time>
      </trkpt>
      <trkpt lat="45.23884" lon="6.11848">
        <ele>2649.050293</ele>
        <time>2011-09-03T10:15:53Z</time>
      </trkpt>
      <trkpt lat="45.23875" lon="6.11824">
        <ele>2658.663086</ele>
        <time>2011-09-03T10:16:26Z</time>
      </trkpt>
      <trkpt lat="45.23883" lon="6.11804">
        <ele>2663.950684</ele>
        <time>2011-09-03T10:16:59Z</time>
      </trkpt>
      <trkpt lat="45.23888" lon="6.11804">
        <ele>2664.911621</ele>
        <time>2011-09-03T10:17:06Z</time>
      </trkpt>
      <trkpt lat="45.23895" lon="6.11794">
        <ele>2667.795898</ele>
        <time>2011-09-03T10:17:24Z</time>
      </trkpt>
      <trkpt lat="45.23903" lon="6.11793">
        <ele>2670.199219</ele>
        <time>2011-09-03T10:17:37Z</time>
      </trkpt>
      <trkpt lat="45.23902" lon="6.1178">
        <ele>2671.641113</ele>
        <time>2011-09-03T10:17:53Z</time>
      </trkpt>
      <trkpt lat="45.2389" lon="6.11764">
        <ele>2677.40918</ele>
        <time>2011-09-03T10:18:23Z</time>
      </trkpt>
      <trkpt lat="45.23895" lon="6.1176">
        <ele>2680.292969</ele>
        <time>2011-09-03T10:18:32Z</time>
      </trkpt>
      <trkpt lat="45.23891" lon="6.11751">
        <ele>2682.696289</ele>
        <time>2011-09-03T10:18:43Z</time>
      </trkpt>
      <trkpt lat="45.23898" lon="6.11741">
        <ele>2687.022461</ele>
        <time>2011-09-03T10:19:01Z</time>
      </trkpt>
      <trkpt lat="45.23895" lon="6.11714">
        <ele>2687.50293</ele>
        <time>2011-09-03T10:19:30Z</time>
      </trkpt>
      <trkpt lat="45.23902" lon="6.11664">
        <ele>2686.541504</ele>
        <time>2011-09-03T10:20:13Z</time>
      </trkpt>
      <trkpt lat="45.23912" lon="6.11641">
        <ele>2690.386719</ele>
        <time>2011-09-03T10:20:35Z</time>
      </trkpt>
      <trkpt lat="45.23921" lon="6.11634">
        <ele>2695.673828</ele>
        <time>2011-09-03T10:20:52Z</time>
      </trkpt>
      <trkpt lat="45.23928" lon="6.11601">
        <ele>2699.519043</ele>
        <time>2011-09-03T10:21:28Z</time>
      </trkpt>
      <trkpt lat="45.23927" lon="6.11577">
        <ele>2698.077148</ele>
        <time>2011-09-03T10:21:45Z</time>
      </trkpt>
      <trkpt lat="45.23933" lon="6.11554">
        <ele>2695.193359</ele>
        <time>2011-09-03T10:22:02Z</time>
      </trkpt>
      <trkpt lat="45.23944" lon="6.11535">
        <ele>2696.154785</ele>
        <time>2011-09-03T10:22:19Z</time>
      </trkpt>
      <trkpt lat="45.23966" lon="6.11516">
        <ele>2697.59668</ele>
        <time>2011-09-03T10:22:49Z</time>
      </trkpt>
      <trkpt lat="45.23974" lon="6.11496">
        <ele>2693.270996</ele>
        <time>2011-09-03T10:23:08Z</time>
      </trkpt>
      <trkpt lat="45.2398" lon="6.11454">
        <ele>2690.867676</ele>
        <time>2011-09-03T10:23:42Z</time>
      </trkpt>
      <trkpt lat="45.23991" lon="6.11445">
        <ele>2687.983398</ele>
        <time>2011-09-03T10:23:54Z</time>
      </trkpt>
      <trkpt lat="45.23987" lon="6.11385">
        <ele>2689.425293</ele>
        <time>2011-09-03T10:24:43Z</time>
      </trkpt>
      <trkpt lat="45.23984" lon="6.11383">
        <ele>2688.464355</ele>
        <time>2011-09-03T10:24:49Z</time>
      </trkpt>
      <trkpt lat="45.23978" lon="6.11345">
        <ele>2685.580566</ele>
        <time>2011-09-03T10:25:26Z</time>
      </trkpt>
      <trkpt lat="45.23973" lon="6.11332">
        <ele>2688.944824</ele>
        <time>2011-09-03T10:25:41Z</time>
      </trkpt>
      <trkpt lat="45.2397" lon="6.11298">
        <ele>2694.712891</ele>
        <time>2011-09-03T10:26:15Z</time>
      </trkpt>
      <trkpt lat="45.23972" lon="6.11255">
        <ele>2703.364258</ele>
        <time>2011-09-03T10:27:26Z</time>
      </trkpt>
      <trkpt lat="45.23958" lon="6.11198">
        <ele>2704.806152</ele>
        <time>2011-09-03T10:28:41Z</time>
      </trkpt>
      <trkpt lat="45.23946" lon="6.11177">
        <ele>2706.248535</ele>
        <time>2011-09-03T10:29:06Z</time>
      </trkpt>
      <trkpt lat="45.23928" lon="6.11181">
        <ele>2709.132812</ele>
        <time>2011-09-03T10:29:32Z</time>
      </trkpt>
      <trkpt lat="45.23907" lon="6.1116">
        <ele>2709.132812</ele>
        <time>2011-09-03T10:30:06Z</time>
      </trkpt>
      <trkpt lat="45.23904" lon="6.11151">
        <ele>2702.883789</ele>
        <time>2011-09-03T10:30:26Z</time>
      </trkpt>
      <trkpt lat="45.23906" lon="6.11133">
        <ele>2700.961426</ele>
        <time>2011-09-03T10:30:38Z</time>
      </trkpt>
      <trkpt lat="45.23903" lon="6.1111">
        <ele>2700.480469</ele>
        <time>2011-09-03T10:30:55Z</time>
      </trkpt>
      <trkpt lat="45.23905" lon="6.11061">
        <ele>2698.558105</ele>
        <time>2011-09-03T10:31:33Z</time>
      </trkpt>
      <trkpt lat="45.23892" lon="6.11014">
        <ele>2709.613281</ele>
        <time>2011-09-03T10:32:27Z</time>
      </trkpt>
      <trkpt lat="45.23895" lon="6.10992">
        <ele>2717.303711</ele>
        <time>2011-09-03T10:33:00Z</time>
      </trkpt>
      <trkpt lat="45.23905" lon="6.1098">
        <ele>2723.552246</ele>
        <time>2011-09-03T10:33:41Z</time>
      </trkpt>
      <trkpt lat="45.23904" lon="6.10971">
        <ele>2727.87793</ele>
        <time>2011-09-03T10:34:02Z</time>
      </trkpt>
      <trkpt lat="45.23909" lon="6.10965">
        <ele>2731.723633</ele>
        <time>2011-09-03T10:34:16Z</time>
      </trkpt>
      <trkpt lat="45.23901" lon="6.10952">
        <ele>2735.087891</ele>
        <time>2011-09-03T10:34:43Z</time>
      </trkpt>
      <trkpt lat="45.239" lon="6.10941">
        <ele>2737.491211</ele>
        <time>2011-09-03T10:35:45Z</time>
      </trkpt>
      <trkpt lat="45.23908" lon="6.10933">
        <ele>2742.778809</ele>
        <time>2011-09-03T10:36:24Z</time>
      </trkpt>
      <trkpt lat="45.23915" lon="6.10915">
        <ele>2748.065918</ele>
        <time>2011-09-03T10:37:09Z</time>
      </trkpt>
      <trkpt lat="45.23926" lon="6.10902">
        <ele>2757.679199</ele>
        <time>2011-09-03T10:38:02Z</time>
      </trkpt>
      <trkpt lat="45.23915" lon="6.10881">
        <ele>2766.811523</ele>
        <time>2011-09-03T10:39:05Z</time>
      </trkpt>
      <trkpt lat="45.23919" lon="6.10871">
        <ele>2767.772949</ele>
        <time>2011-09-03T10:39:35Z</time>
      </trkpt>
      <trkpt lat="45.23902" lon="6.10853">
        <ele>2779.789551</ele>
        <time>2011-09-03T10:40:26Z</time>
      </trkpt>
      <trkpt lat="45.23895" lon="6.10851">
        <ele>2780.750977</ele>
        <time>2011-09-03T10:40:43Z</time>
      </trkpt>
      <trkpt lat="45.23896" lon="6.10842">
        <ele>2783.154297</ele>
        <time>2011-09-03T10:40:56Z</time>
      </trkpt>
      <trkpt lat="45.23886" lon="6.10825">
        <ele>2792.286621</ele>
        <time>2011-09-03T10:41:41Z</time>
      </trkpt>
      <trkpt lat="45.23888" lon="6.10818">
        <ele>2797.57373</ele>
        <time>2011-09-03T10:41:57Z</time>
      </trkpt>
      <trkpt lat="45.23884" lon="6.10797">
        <ele>2808.148438</ele>
        <time>2011-09-03T10:43:11Z</time>
      </trkpt>
      <trkpt lat="45.2389" lon="6.10791">
        <ele>2811.513184</ele>
        <time>2011-09-03T10:43:42Z</time>
      </trkpt>
      <trkpt lat="45.23884" lon="6.10785">
        <ele>2811.032227</ele>
        <time>2011-09-03T10:44:45Z</time>
      </trkpt>
      <trkpt lat="45.23881" lon="6.10791">
        <ele>2806.706543</ele>
        <time>2011-09-03T10:45:02Z</time>
      </trkpt>
      <trkpt lat="45.23865" lon="6.10785">
        <ele>2811.032227</ele>
        <time>2011-09-03T10:45:33Z</time>
      </trkpt>
      <trkpt lat="45.23867" lon="6.10787">
        <ele>2810.551758</ele>
        <time>2011-09-03T10:46:16Z</time>
      </trkpt>
      <trkpt lat="45.23842" lon="6.10782">
        <ele>2810.551758</ele>
        <time>2011-09-03T10:48:46Z</time>
      </trkpt>
      <trkpt lat="45.23834" lon="6.1077">
        <ele>2806.226074</ele>
        <time>2011-09-03T10:49:05Z</time>
      </trkpt>
      <trkpt lat="45.23836" lon="6.10764">
        <ele>2803.822266</ele>
        <time>2011-09-03T10:49:17Z</time>
      </trkpt>
      <trkpt lat="45.23845" lon="6.1077">
        <ele>2803.341309</ele>
        <time>2011-09-03T10:49:37Z</time>
      </trkpt>
      <trkpt lat="45.23835" lon="6.10753">
        <ele>2797.092773</ele>
        <time>2011-09-03T10:50:10Z</time>
      </trkpt>
      <trkpt lat="45.23831" lon="6.10738">
        <ele>2789.883301</ele>
        <time>2011-09-03T10:50:41Z</time>
      </trkpt>
      <trkpt lat="45.23837" lon="6.10738">
        <ele>2786.038086</ele>
        <time>2011-09-03T10:51:00Z</time>
      </trkpt>
      <trkpt lat="45.23837" lon="6.10731">
        <ele>2783.634766</ele>
        <time>2011-09-03T10:51:11Z</time>
      </trkpt>
      <trkpt lat="45.23851" lon="6.10732">
        <ele>2774.502441</ele>
        <time>2011-09-03T10:51:56Z</time>
      </trkpt>
      <trkpt lat="45.23855" lon="6.10727">
        <ele>2771.618164</ele>
        <time>2011-09-03T10:52:07Z</time>
      </trkpt>
      <trkpt lat="45.23854" lon="6.10723">
        <ele>2770.17627</ele>
        <time>2011-09-03T10:52:13Z</time>
      </trkpt>
      <trkpt lat="45.23864" lon="6.10719">
        <ele>2764.408203</ele>
        <time>2011-09-03T10:52:33Z</time>
      </trkpt>
      <trkpt lat="45.23863" lon="6.10715">
        <ele>2762.004883</ele>
        <time>2011-09-03T10:52:44Z</time>
      </trkpt>
      <trkpt lat="45.23876" lon="6.10706">
        <ele>2753.353027</ele>
        <time>2011-09-03T10:53:14Z</time>
      </trkpt>
      <trkpt lat="45.23879" lon="6.10687">
        <ele>2746.624023</ele>
        <time>2011-09-03T10:53:41Z</time>
      </trkpt>
      <trkpt lat="45.23875" lon="6.10676">
        <ele>2741.336914</ele>
        <time>2011-09-03T10:54:04Z</time>
      </trkpt>
      <trkpt lat="45.23873" lon="6.10678">
        <ele>2731.723633</ele>
        <time>2011-09-03T10:54:28Z</time>
      </trkpt>
      <trkpt lat="45.23873" lon="6.10674">
        <ele>2732.68457</ele>
        <time>2011-09-03T10:54:39Z</time>
      </trkpt>
      <trkpt lat="45.2388" lon="6.10667">
        <ele>2733.165527</ele>
        <time>2011-09-03T10:55:09Z</time>
      </trkpt>
      <trkpt lat="45.23882" lon="6.10655">
        <ele>2726.916992</ele>
        <time>2011-09-03T10:55:30Z</time>
      </trkpt>
      <trkpt lat="45.23898" lon="6.10646">
        <ele>2715.381348</ele>
        <time>2011-09-03T10:56:08Z</time>
      </trkpt>
      <trkpt lat="45.23898" lon="6.1064">
        <ele>2712.978027</ele>
        <time>2011-09-03T10:56:34Z</time>
      </trkpt>
      <trkpt lat="45.23899" lon="6.10643">
        <ele>2707.209473</ele>
        <time>2011-09-03T10:56:51Z</time>
      </trkpt>
      <trkpt lat="45.23901" lon="6.10636">
        <ele>2706.729004</ele>
        <time>2011-09-03T10:57:03Z</time>
      </trkpt>
      <trkpt lat="45.23909" lon="6.10633">
        <ele>2704.806152</ele>
        <time>2011-09-03T10:57:22Z</time>
      </trkpt>
      <trkpt lat="45.23905" lon="6.10618">
        <ele>2702.40332</ele>
        <time>2011-09-03T10:58:23Z</time>
      </trkpt>
      <trkpt lat="45.23918" lon="6.10598">
        <ele>2698.077148</ele>
        <time>2011-09-03T10:59:07Z</time>
      </trkpt>
      <trkpt lat="45.23916" lon="6.10594">
        <ele>2696.154785</ele>
        <time>2011-09-03T10:59:20Z</time>
      </trkpt>
      <trkpt lat="45.23919" lon="6.10575">
        <ele>2691.348145</ele>
        <time>2011-09-03T10:59:50Z</time>
      </trkpt>
      <trkpt lat="45.23921" lon="6.10577">
        <ele>2690.867676</ele>
        <time>2011-09-03T10:59:54Z</time>
      </trkpt>
      <trkpt lat="45.23927" lon="6.10567">
        <ele>2688.464355</ele>
        <time>2011-09-03T11:00:17Z</time>
      </trkpt>
      <trkpt lat="45.23925" lon="6.1053">
        <ele>2677.40918</ele>
        <time>2011-09-03T11:00:59Z</time>
      </trkpt>
      <trkpt lat="45.23935" lon="6.10487">
        <ele>2676.928711</ele>
        <time>2011-09-03T11:01:32Z</time>
      </trkpt>
      <trkpt lat="45.2394" lon="6.10487">
        <ele>2675.966797</ele>
        <time>2011-09-03T11:01:39Z</time>
      </trkpt>
      <trkpt lat="45.23949" lon="6.10461">
        <ele>2669.718262</ele>
        <time>2011-09-03T11:02:02Z</time>
      </trkpt>
      <trkpt lat="45.23951" lon="6.10437">
        <ele>2661.547363</ele>
        <time>2011-09-03T11:02:27Z</time>
      </trkpt>
      <trkpt lat="45.23949" lon="6.10432">
        <ele>2662.027832</ele>
        <time>2011-09-03T11:02:39Z</time>
      </trkpt>
      <trkpt lat="45.23956" lon="6.10385">
        <ele>2647.608398</ele>
        <time>2011-09-03T11:03:16Z</time>
      </trkpt>
      <trkpt lat="45.23946" lon="6.10377">
        <ele>2643.762695</ele>
        <time>2011-09-03T11:03:28Z</time>
      </trkpt>
      <trkpt lat="45.23943" lon="6.10364">
        <ele>2640.878906</ele>
        <time>2011-09-03T11:03:40Z</time>
      </trkpt>
      <trkpt lat="45.23944" lon="6.10331">
        <ele>2634.149414</ele>
        <time>2011-09-03T11:04:12Z</time>
      </trkpt>
      <trkpt lat="45.23941" lon="6.10336">
        <ele>2625.01709</ele>
        <time>2011-09-03T11:04:24Z</time>
      </trkpt>
      <trkpt lat="45.23946" lon="6.10328">
        <ele>2625.01709</ele>
        <time>2011-09-03T11:04:35Z</time>
      </trkpt>
      <trkpt lat="45.23952" lon="6.10299">
        <ele>2627.42041</ele>
        <time>2011-09-03T11:05:05Z</time>
      </trkpt>
      <trkpt lat="45.23965" lon="6.10286">
        <ele>2628.381836</ele>
        <time>2011-09-03T11:05:18Z</time>
      </trkpt>
      <trkpt lat="45.23977" lon="6.10263">
        <ele>2629.82373</ele>
        <time>2011-09-03T11:05:35Z</time>
      </trkpt>
      <trkpt lat="45.23986" lon="6.10232">
        <ele>2633.668945</ele>
        <time>2011-09-03T11:06:06Z</time>
      </trkpt>
      <trkpt lat="45.23995" lon="6.10231">
        <ele>2629.82373</ele>
        <time>2011-09-03T11:06:16Z</time>
      </trkpt>
      <trkpt lat="45.24014" lon="6.10205">
        <ele>2623.575195</ele>
        <time>2011-09-03T11:06:49Z</time>
      </trkpt>
      <trkpt lat="45.24017" lon="6.10184">
        <ele>2621.171875</ele>
        <time>2011-09-03T11:07:14Z</time>
      </trkpt>
      <trkpt lat="45.2402" lon="6.10181">
        <ele>2617.807617</ele>
        <time>2011-09-03T11:07:20Z</time>
      </trkpt>
      <trkpt lat="45.24019" lon="6.10168">
        <ele>2610.597168</ele>
        <time>2011-09-03T11:07:36Z</time>
      </trkpt>
      <trkpt lat="45.24027" lon="6.10153">
        <ele>2606.751953</ele>
        <time>2011-09-03T11:07:53Z</time>
      </trkpt>
      <trkpt lat="45.24029" lon="6.10122">
        <ele>2602.42627</ele>
        <time>2011-09-03T11:08:22Z</time>
      </trkpt>
      <trkpt lat="45.24034" lon="6.10115">
        <ele>2601.945312</ele>
        <time>2011-09-03T11:08:34Z</time>
      </trkpt>
      <trkpt lat="45.24033" lon="6.10069">
        <ele>2592.812988</ele>
        <time>2011-09-03T11:09:29Z</time>
      </trkpt>
      <trkpt lat="45.24026" lon="6.10055">
        <ele>2587.525635</ele>
        <time>2011-09-03T11:10:01Z</time>
      </trkpt>
      <trkpt lat="45.24022" lon="6.10052">
        <ele>2583.199707</ele>
        <time>2011-09-03T11:10:10Z</time>
      </trkpt>
      <trkpt lat="45.24018" lon="6.10037">
        <ele>2577.431885</ele>
        <time>2011-09-03T11:10:36Z</time>
      </trkpt>
      <trkpt lat="45.24013" lon="6.10033">
        <ele>2575.028564</ele>
        <time>2011-09-03T11:10:46Z</time>
      </trkpt>
      <trkpt lat="45.24013" lon="6.10028">
        <ele>2574.067383</ele>
        <time>2011-09-03T11:10:51Z</time>
      </trkpt>
      <trkpt lat="45.23994" lon="6.10008">
        <ele>2564.454102</ele>
        <time>2011-09-03T11:11:25Z</time>
      </trkpt>
      <trkpt lat="45.23987" lon="6.09994">
        <ele>2560.128174</ele>
        <time>2011-09-03T11:11:46Z</time>
      </trkpt>
      <trkpt lat="45.23971" lon="6.09976">
        <ele>2558.686279</ele>
        <time>2011-09-03T11:12:18Z</time>
      </trkpt>
      <trkpt lat="45.23968" lon="6.09948">
        <ele>2551.476318</ele>
        <time>2011-09-03T11:12:55Z</time>
      </trkpt>
      <trkpt lat="45.2396" lon="6.09941">
        <ele>2540.421143</ele>
        <time>2011-09-03T11:13:24Z</time>
      </trkpt>
      <trkpt lat="45.23965" lon="6.09919">
        <ele>2537.056396</ele>
        <time>2011-09-03T11:13:51Z</time>
      </trkpt>
      <trkpt lat="45.23971" lon="6.09909">
        <ele>2537.537109</ele>
        <time>2011-09-03T11:14:07Z</time>
      </trkpt>
      <trkpt lat="45.23966" lon="6.09888">
        <ele>2527.924072</ele>
        <time>2011-09-03T11:14:49Z</time>
      </trkpt>
      <trkpt lat="45.23971" lon="6.09875">
        <ele>2526.482178</ele>
        <time>2011-09-03T11:15:24Z</time>
      </trkpt>
      <trkpt lat="45.2397" lon="6.09872">
        <ele>2526.001465</ele>
        <time>2011-09-03T11:15:29Z</time>
      </trkpt>
      <trkpt lat="45.23974" lon="6.0987">
        <ele>2523.5979</ele>
        <time>2011-09-03T11:15:41Z</time>
      </trkpt>
      <trkpt lat="45.23982" lon="6.09841">
        <ele>2512.062256</ele>
        <time>2011-09-03T11:16:47Z</time>
      </trkpt>
      <trkpt lat="45.2398" lon="6.09839">
        <ele>2509.178467</ele>
        <time>2011-09-03T11:16:53Z</time>
      </trkpt>
      <trkpt lat="45.23984" lon="6.09831">
        <ele>2504.852295</ele>
        <time>2011-09-03T11:17:04Z</time>
      </trkpt>
      <trkpt lat="45.23983" lon="6.09826">
        <ele>2502.448975</ele>
        <time>2011-09-03T11:17:09Z</time>
      </trkpt>
      <trkpt lat="45.24001" lon="6.09805">
        <ele>2493.31665</ele>
        <time>2011-09-03T11:17:41Z</time>
      </trkpt>
      <trkpt lat="45.24003" lon="6.09798">
        <ele>2489.471191</ele>
        <time>2011-09-03T11:17:55Z</time>
      </trkpt>
      <trkpt lat="45.24" lon="6.09789">
        <ele>2487.548584</ele>
        <time>2011-09-03T11:18:05Z</time>
      </trkpt>
      <trkpt lat="45.24011" lon="6.09771">
        <ele>2480.81958</ele>
        <time>2011-09-03T11:18:40Z</time>
      </trkpt>
      <trkpt lat="45.24018" lon="6.09751">
        <ele>2474.090088</ele>
        <time>2011-09-03T11:19:05Z</time>
      </trkpt>
      <trkpt lat="45.2403" lon="6.09742">
        <ele>2469.76416</ele>
        <time>2011-09-03T11:19:25Z</time>
      </trkpt>
      <trkpt lat="45.24029" lon="6.09732">
        <ele>2466.880371</ele>
        <time>2011-09-03T11:19:35Z</time>
      </trkpt>
      <trkpt lat="45.2404" lon="6.09712">
        <ele>2463.515625</ele>
        <time>2011-09-03T11:20:00Z</time>
      </trkpt>
      <trkpt lat="45.24036" lon="6.09712">
        <ele>2456.305664</ele>
        <time>2011-09-03T11:20:43Z</time>
      </trkpt>
      <trkpt lat="45.24039" lon="6.09696">
        <ele>2456.786377</ele>
        <time>2011-09-03T11:21:25Z</time>
      </trkpt>
      <trkpt lat="45.24045" lon="6.09693">
        <ele>2454.383057</ele>
        <time>2011-09-03T11:21:35Z</time>
      </trkpt>
      <trkpt lat="45.2404" lon="6.09683">
        <ele>2450.057373</ele>
        <time>2011-09-03T11:21:51Z</time>
      </trkpt>
      <trkpt lat="45.24044" lon="6.09681">
        <ele>2448.615234</ele>
        <time>2011-09-03T11:22:01Z</time>
      </trkpt>
      <trkpt lat="45.24041" lon="6.09676">
        <ele>2447.654053</ele>
        <time>2011-09-03T11:22:15Z</time>
      </trkpt>
      <trkpt lat="45.24046" lon="6.09672">
        <ele>2444.289307</ele>
        <time>2011-09-03T11:22:26Z</time>
      </trkpt>
      <trkpt lat="45.24047" lon="6.09651">
        <ele>2439.001953</ele>
        <time>2011-09-03T11:23:20Z</time>
      </trkpt>
      <trkpt lat="45.24056" lon="6.09645">
        <ele>2442.847168</ele>
        <time>2011-09-03T11:23:52Z</time>
      </trkpt>
      <trkpt lat="45.24056" lon="6.09649">
        <ele>2439.963379</ele>
        <time>2011-09-03T11:24:08Z</time>
      </trkpt>
      <trkpt lat="45.24049" lon="6.09631">
        <ele>2437.560059</ele>
        <time>2011-09-03T11:24:51Z</time>
      </trkpt>
      <trkpt lat="45.24056" lon="6.09629">
        <ele>2433.234131</ele>
        <time>2011-09-03T11:25:07Z</time>
      </trkpt>
      <trkpt lat="45.2405" lon="6.09615">
        <ele>2427.466064</ele>
        <time>2011-09-03T11:25:28Z</time>
      </trkpt>
      <trkpt lat="45.24054" lon="6.09613">
        <ele>2423.140381</ele>
        <time>2011-09-03T11:25:37Z</time>
      </trkpt>
      <trkpt lat="45.24054" lon="6.09602">
        <ele>2420.256348</ele>
        <time>2011-09-03T11:25:49Z</time>
      </trkpt>
      <trkpt lat="45.2406" lon="6.09596">
        <ele>2417.372314</ele>
        <time>2011-09-03T11:25:59Z</time>
      </trkpt>
      <trkpt lat="45.24066" lon="6.09532">
        <ele>2408.720459</ele>
        <time>2011-09-03T11:27:41Z</time>
      </trkpt>
      <trkpt lat="45.24064" lon="6.09525">
        <ele>2410.643066</ele>
        <time>2011-09-03T11:27:56Z</time>
      </trkpt>
      <trkpt lat="45.2407" lon="6.09517">
        <ele>2406.317139</ele>
        <time>2011-09-03T11:28:17Z</time>
      </trkpt>
      <trkpt lat="45.24067" lon="6.09497">
        <ele>2401.991211</ele>
        <time>2011-09-03T11:29:10Z</time>
      </trkpt>
      <trkpt lat="45.24077" lon="6.09487">
        <ele>2397.184814</ele>
        <time>2011-09-03T11:29:37Z</time>
      </trkpt>
      <trkpt lat="45.24078" lon="6.09469">
        <ele>2392.858643</ele>
        <time>2011-09-03T11:30:02Z</time>
      </trkpt>
      <trkpt lat="45.24069" lon="6.09458">
        <ele>2383.245605</ele>
        <time>2011-09-03T11:30:47Z</time>
      </trkpt>
      <trkpt lat="45.24077" lon="6.09456">
        <ele>2380.361816</ele>
        <time>2011-09-03T11:30:58Z</time>
      </trkpt>
      <trkpt lat="45.24082" lon="6.09444">
        <ele>2376.99707</ele>
        <time>2011-09-03T11:31:17Z</time>
      </trkpt>
      <trkpt lat="45.2408" lon="6.09423">
        <ele>2364.5</ele>
        <time>2011-09-03T11:31:57Z</time>
      </trkpt>
      <trkpt lat="45.24096" lon="6.09417">
        <ele>2352.002686</ele>
        <time>2011-09-03T11:32:36Z</time>
      </trkpt>
      <trkpt lat="45.24112" lon="6.09428">
        <ele>2352.002686</ele>
        <time>2011-09-03T11:33:13Z</time>
      </trkpt>
      <trkpt lat="45.24127" lon="6.0943">
        <ele>2349.118896</ele>
        <time>2011-09-03T11:33:32Z</time>
      </trkpt>
      <trkpt lat="45.2414" lon="6.09413">
        <ele>2360.173828</ele>
        <time>2011-09-03T11:33:54Z</time>
      </trkpt>
      <trkpt lat="45.24155" lon="6.09407">
        <ele>2349.599609</ele>
        <time>2011-09-03T11:34:17Z</time>
      </trkpt>
      <trkpt lat="45.24169" lon="6.0939">
        <ele>2345.273438</ele>
        <time>2011-09-03T11:34:46Z</time>
      </trkpt>
      <trkpt lat="45.24174" lon="6.09368">
        <ele>2349.118896</ele>
        <time>2011-09-03T11:35:08Z</time>
      </trkpt>
      <trkpt lat="45.2418" lon="6.09359">
        <ele>2350.080322</ele>
        <time>2011-09-03T11:35:20Z</time>
      </trkpt>
      <trkpt lat="45.24183" lon="6.09344">
        <ele>2349.599609</ele>
        <time>2011-09-03T11:35:34Z</time>
      </trkpt>
      <trkpt lat="45.24186" lon="6.09344">
        <ele>2349.118896</ele>
        <time>2011-09-03T11:35:40Z</time>
      </trkpt>
      <trkpt lat="45.24198" lon="6.09305">
        <ele>2346.715332</ele>
        <time>2011-09-03T11:36:13Z</time>
      </trkpt>
      <trkpt lat="45.24212" lon="6.09283">
        <ele>2339.024902</ele>
        <time>2011-09-03T11:36:41Z</time>
      </trkpt>
      <trkpt lat="45.2421" lon="6.09277">
        <ele>2336.141113</ele>
        <time>2011-09-03T11:36:53Z</time>
      </trkpt>
      <trkpt lat="45.24216" lon="6.09268">
        <ele>2328.930908</ele>
        <time>2011-09-03T11:37:26Z</time>
      </trkpt>
      <trkpt lat="45.24214" lon="6.09271">
        <ele>2332.295898</ele>
        <time>2011-09-03T11:39:01Z</time>
      </trkpt>
      <trkpt lat="45.2422" lon="6.09277">
        <ele>2329.892334</ele>
        <time>2011-09-03T11:39:43Z</time>
      </trkpt>
      <trkpt lat="45.24229" lon="6.09276">
        <ele>2324.605225</ele>
        <time>2011-09-03T11:39:56Z</time>
      </trkpt>
      <trkpt lat="45.24236" lon="6.0927">
        <ele>2331.814941</ele>
        <time>2011-09-03T11:40:05Z</time>
      </trkpt>
      <trkpt lat="45.24233" lon="6.09251">
        <ele>2318.837402</ele>
        <time>2011-09-03T11:40:29Z</time>
      </trkpt>
      <trkpt lat="45.24242" lon="6.09257">
        <ele>2309.224121</ele>
        <time>2011-09-03T11:40:53Z</time>
      </trkpt>
      <trkpt lat="45.24254" lon="6.0925">
        <ele>2299.130127</ele>
        <time>2011-09-03T11:41:19Z</time>
      </trkpt>
      <trkpt lat="45.24268" lon="6.09231">
        <ele>2284.710693</ele>
        <time>2011-09-03T11:42:05Z</time>
      </trkpt>
      <trkpt lat="45.2428" lon="6.09225">
        <ele>2274.616699</ele>
        <time>2011-09-03T11:42:42Z</time>
      </trkpt>
      <trkpt lat="45.24283" lon="6.09208">
        <ele>2269.32959</ele>
        <time>2011-09-03T11:43:08Z</time>
      </trkpt>
      <trkpt lat="45.24311" lon="6.09177">
        <ele>2264.522705</ele>
        <time>2011-09-03T11:44:05Z</time>
      </trkpt>
      <trkpt lat="45.24313" lon="6.09165">
        <ele>2263.080811</ele>
        <time>2011-09-03T11:44:17Z</time>
      </trkpt>
      <trkpt lat="45.24331" lon="6.09126">
        <ele>2263.561279</ele>
        <time>2011-09-03T11:45:12Z</time>
      </trkpt>
      <trkpt lat="45.2433" lon="6.09121">
        <ele>2263.080811</ele>
        <time>2011-09-03T11:45:16Z</time>
      </trkpt>
      <trkpt lat="45.24349" lon="6.09087">
        <ele>2263.080811</ele>
        <time>2011-09-03T11:45:53Z</time>
      </trkpt>
      <trkpt lat="45.24369" lon="6.09069">
        <ele>2260.196777</ele>
        <time>2011-09-03T11:46:18Z</time>
      </trkpt>
      <trkpt lat="45.24389" lon="6.09029">
        <ele>2263.080811</ele>
        <time>2011-09-03T11:47:06Z</time>
      </trkpt>
      <trkpt lat="45.2439" lon="6.09017">
        <ele>2265.484131</ele>
        <time>2011-09-03T11:47:20Z</time>
      </trkpt>
      <trkpt lat="45.24406" lon="6.08996">
        <ele>2264.522705</ele>
        <time>2011-09-03T11:47:46Z</time>
      </trkpt>
      <trkpt lat="45.2442" lon="6.08948">
        <ele>2265.003418</ele>
        <time>2011-09-03T11:48:29Z</time>
      </trkpt>
      <trkpt lat="45.24438" lon="6.08914">
        <ele>2264.041992</ele>
        <time>2011-09-03T11:49:07Z</time>
      </trkpt>
      <trkpt lat="45.24458" lon="6.08899">
        <ele>2268.848877</ele>
        <time>2011-09-03T11:49:42Z</time>
      </trkpt>
      <trkpt lat="45.24464" lon="6.0889">
        <ele>2269.32959</ele>
        <time>2011-09-03T11:49:51Z</time>
      </trkpt>
      <trkpt lat="45.24501" lon="6.08881">
        <ele>2266.926025</ele>
        <time>2011-09-03T11:51:00Z</time>
      </trkpt>
      <trkpt lat="45.24523" lon="6.08854">
        <ele>2266.445312</ele>
        <time>2011-09-03T11:51:48Z</time>
      </trkpt>
      <trkpt lat="45.24528" lon="6.08858">
        <ele>2265.484131</ele>
        <time>2011-09-03T11:52:12Z</time>
      </trkpt>
      <trkpt lat="45.24541" lon="6.08858">
        <ele>2264.522705</ele>
        <time>2011-09-03T11:52:30Z</time>
      </trkpt>
      <trkpt lat="45.24553" lon="6.08845">
        <ele>2262.600098</ele>
        <time>2011-09-03T11:52:47Z</time>
      </trkpt>
      <trkpt lat="45.24576" lon="6.08835">
        <ele>2259.235596</ele>
        <time>2011-09-03T11:53:15Z</time>
      </trkpt>
      <trkpt lat="45.24584" lon="6.08827">
        <ele>2260.67749</ele>
        <time>2011-09-03T11:53:26Z</time>
      </trkpt>
      <trkpt lat="45.24588" lon="6.08812">
        <ele>2262.600098</ele>
        <time>2011-09-03T11:53:42Z</time>
      </trkpt>
      <trkpt lat="45.24604" lon="6.08786">
        <ele>2269.810059</ele>
        <time>2011-09-03T11:54:16Z</time>
      </trkpt>
      <trkpt lat="45.24605" lon="6.08774">
        <ele>2271.251953</ele>
        <time>2011-09-03T11:54:24Z</time>
      </trkpt>
      <trkpt lat="45.24621" lon="6.08764">
        <ele>2267.406494</ele>
        <time>2011-09-03T11:54:59Z</time>
      </trkpt>
      <trkpt lat="45.24632" lon="6.08734">
        <ele>2262.119385</ele>
        <time>2011-09-03T11:55:27Z</time>
      </trkpt>
      <trkpt lat="45.24633" lon="6.0872">
        <ele>2262.119385</ele>
        <time>2011-09-03T11:55:37Z</time>
      </trkpt>
      <trkpt lat="45.24643" lon="6.08701">
        <ele>2256.351562</ele>
        <time>2011-09-03T11:56:05Z</time>
      </trkpt>
      <trkpt lat="45.24657" lon="6.08694">
        <ele>2250.103027</ele>
        <time>2011-09-03T11:56:27Z</time>
      </trkpt>
      <trkpt lat="45.2466" lon="6.08678">
        <ele>2245.7771</ele>
        <time>2011-09-03T11:56:47Z</time>
      </trkpt>
      <trkpt lat="45.24663" lon="6.08675">
        <ele>2243.854492</ele>
        <time>2011-09-03T11:56:52Z</time>
      </trkpt>
      <trkpt lat="45.24664" lon="6.08657">
        <ele>2237.605957</ele>
        <time>2011-09-03T11:57:19Z</time>
      </trkpt>
      <trkpt lat="45.2468" lon="6.08626">
        <ele>2229.43457</ele>
        <time>2011-09-03T11:58:18Z</time>
      </trkpt>
      <trkpt lat="45.24698" lon="6.08601">
        <ele>2217.417969</ele>
        <time>2011-09-03T11:58:47Z</time>
      </trkpt>
      <trkpt lat="45.24694" lon="6.08573">
        <ele>2213.572754</ele>
        <time>2011-09-03T11:59:09Z</time>
      </trkpt>
      <trkpt lat="45.24705" lon="6.0855">
        <ele>2211.169678</ele>
        <time>2011-09-03T11:59:30Z</time>
      </trkpt>
      <trkpt lat="45.24698" lon="6.08537">
        <ele>2205.882324</ele>
        <time>2011-09-03T11:59:54Z</time>
      </trkpt>
      <trkpt lat="45.24699" lon="6.08501">
        <ele>2198.19165</ele>
        <time>2011-09-03T12:00:22Z</time>
      </trkpt>
      <trkpt lat="45.24703" lon="6.08495">
        <ele>2196.749756</ele>
        <time>2011-09-03T12:00:28Z</time>
      </trkpt>
      <trkpt lat="45.24704" lon="6.08485">
        <ele>2196.269287</ele>
        <time>2011-09-03T12:00:36Z</time>
      </trkpt>
      <trkpt lat="45.24699" lon="6.08477">
        <ele>2196.749756</ele>
        <time>2011-09-03T12:00:48Z</time>
      </trkpt>
      <trkpt lat="45.24697" lon="6.0846">
        <ele>2197.230469</ele>
        <time>2011-09-03T12:01:02Z</time>
      </trkpt>
      <trkpt lat="45.24702" lon="6.08449">
        <ele>2192.904541</ele>
        <time>2011-09-03T12:01:27Z</time>
      </trkpt>
      <trkpt lat="45.24722" lon="6.08439">
        <ele>2190.981934</ele>
        <time>2011-09-03T12:01:45Z</time>
      </trkpt>
      <trkpt lat="45.24736" lon="6.08422">
        <ele>2186.655762</ele>
        <time>2011-09-03T12:02:00Z</time>
      </trkpt>
      <trkpt lat="45.24745" lon="6.08393">
        <ele>2186.655762</ele>
        <time>2011-09-03T12:02:17Z</time>
      </trkpt>
      <trkpt lat="45.24762" lon="6.08373">
        <ele>2184.733398</ele>
        <time>2011-09-03T12:02:36Z</time>
      </trkpt>
      <trkpt lat="45.24772" lon="6.08373">
        <ele>2183.29126</ele>
        <time>2011-09-03T12:02:51Z</time>
      </trkpt>
      <trkpt lat="45.24769" lon="6.08372">
        <ele>2184.252686</ele>
        <time>2011-09-03T12:03:40Z</time>
      </trkpt>
      <trkpt lat="45.24773" lon="6.08375">
        <ele>2183.29126</ele>
        <time>2011-09-03T12:04:08Z</time>
      </trkpt>
      <trkpt lat="45.24783" lon="6.08354">
        <ele>2176.081543</ele>
        <time>2011-09-03T12:04:37Z</time>
      </trkpt>
      <trkpt lat="45.24781" lon="6.0835">
        <ele>2174.158936</ele>
        <time>2011-09-03T12:04:42Z</time>
      </trkpt>
      <trkpt lat="45.24801" lon="6.08347">
        <ele>2167.910156</ele>
        <time>2011-09-03T12:05:02Z</time>
      </trkpt>
      <trkpt lat="45.24806" lon="6.08333">
        <ele>2168.390869</ele>
        <time>2011-09-03T12:05:14Z</time>
      </trkpt>
      <trkpt lat="45.24797" lon="6.08259">
        <ele>2155.893555</ele>
        <time>2011-09-03T12:06:18Z</time>
      </trkpt>
      <trkpt lat="45.24818" lon="6.08224">
        <ele>2151.567871</ele>
        <time>2011-09-03T12:06:53Z</time>
      </trkpt>
      <trkpt lat="45.24825" lon="6.0822">
        <ele>2151.567871</ele>
        <time>2011-09-03T12:06:59Z</time>
      </trkpt>
      <trkpt lat="45.24837" lon="6.08221">
        <ele>2152.529053</ele>
        <time>2011-09-03T12:07:09Z</time>
      </trkpt>
      <trkpt lat="45.24847" lon="6.08215">
        <ele>2150.606445</ele>
        <time>2011-09-03T12:07:21Z</time>
      </trkpt>
      <trkpt lat="45.24865" lon="6.08223">
        <ele>2145.800049</ele>
        <time>2011-09-03T12:07:43Z</time>
      </trkpt>
      <trkpt lat="45.24863" lon="6.08212">
        <ele>2144.35791</ele>
        <time>2011-09-03T12:07:52Z</time>
      </trkpt>
      <trkpt lat="45.24877" lon="6.08214">
        <ele>2140.512695</ele>
        <time>2011-09-03T12:08:09Z</time>
      </trkpt>
      <trkpt lat="45.24888" lon="6.082">
        <ele>2138.590088</ele>
        <time>2011-09-03T12:08:23Z</time>
      </trkpt>
      <trkpt lat="45.24893" lon="6.08184">
        <ele>2143.396729</ele>
        <time>2011-09-03T12:08:40Z</time>
      </trkpt>
      <trkpt lat="45.24922" lon="6.08185">
        <ele>2146.280762</ele>
        <time>2011-09-03T12:09:12Z</time>
      </trkpt>
      <trkpt lat="45.24934" lon="6.08191">
        <ele>2140.993408</ele>
        <time>2011-09-03T12:09:30Z</time>
      </trkpt>
      <trkpt lat="45.24937" lon="6.08201">
        <ele>2138.590088</ele>
        <time>2011-09-03T12:09:38Z</time>
      </trkpt>
      <trkpt lat="45.24957" lon="6.08193">
        <ele>2139.55127</ele>
        <time>2011-09-03T12:09:55Z</time>
      </trkpt>
      <trkpt lat="45.24963" lon="6.08196">
        <ele>2139.55127</ele>
        <time>2011-09-03T12:10:01Z</time>
      </trkpt>
      <trkpt lat="45.2497" lon="6.08209">
        <ele>2139.55127</ele>
        <time>2011-09-03T12:10:11Z</time>
      </trkpt>
      <trkpt lat="45.24982" lon="6.08215">
        <ele>2140.032227</ele>
        <time>2011-09-03T12:10:31Z</time>
      </trkpt>
      <trkpt lat="45.25007" lon="6.08215">
        <ele>2140.512695</ele>
        <time>2011-09-03T12:10:53Z</time>
      </trkpt>
      <trkpt lat="45.25005" lon="6.08211">
        <ele>2145.319336</ele>
        <time>2011-09-03T12:11:16Z</time>
      </trkpt>
      <trkpt lat="45.2502" lon="6.08191">
        <ele>2142.435547</ele>
        <time>2011-09-03T12:11:39Z</time>
      </trkpt>
      <trkpt lat="45.2502" lon="6.08174">
        <ele>2141.954834</ele>
        <time>2011-09-03T12:11:50Z</time>
      </trkpt>
      <trkpt lat="45.25026" lon="6.08155">
        <ele>2142.435547</ele>
        <time>2011-09-03T12:12:06Z</time>
      </trkpt>
      <trkpt lat="45.25025" lon="6.08137">
        <ele>2144.35791</ele>
        <time>2011-09-03T12:12:17Z</time>
      </trkpt>
      <trkpt lat="45.25031" lon="6.0811">
        <ele>2145.800049</ele>
        <time>2011-09-03T12:12:38Z</time>
      </trkpt>
      <trkpt lat="45.2505" lon="6.08079">
        <ele>2143.877441</ele>
        <time>2011-09-03T12:13:13Z</time>
      </trkpt>
      <trkpt lat="45.25052" lon="6.08068">
        <ele>2140.512695</ele>
        <time>2011-09-03T12:13:23Z</time>
      </trkpt>
      <trkpt lat="45.25067" lon="6.08056">
        <ele>2142.916016</ele>
        <time>2011-09-03T12:13:46Z</time>
      </trkpt>
      <trkpt lat="45.25093" lon="6.08017">
        <ele>2154.45166</ele>
        <time>2011-09-03T12:14:35Z</time>
      </trkpt>
      <trkpt lat="45.25103" lon="6.08013">
        <ele>2152.529053</ele>
        <time>2011-09-03T12:14:48Z</time>
      </trkpt>
      <trkpt lat="45.25117" lon="6.07997">
        <ele>2151.087158</ele>
        <time>2011-09-03T12:15:06Z</time>
      </trkpt>
      <trkpt lat="45.25154" lon="6.07985">
        <ele>2145.319336</ele>
        <time>2011-09-03T12:15:48Z</time>
      </trkpt>
      <trkpt lat="45.2517" lon="6.0799">
        <ele>2142.435547</ele>
        <time>2011-09-03T12:16:08Z</time>
      </trkpt>
      <trkpt lat="45.25188" lon="6.0799">
        <ele>2137.628662</ele>
        <time>2011-09-03T12:16:32Z</time>
      </trkpt>
      <trkpt lat="45.25184" lon="6.07986">
        <ele>2139.070557</ele>
        <time>2011-09-03T12:16:46Z</time>
      </trkpt>
      <trkpt lat="45.25188" lon="6.07986">
        <ele>2142.916016</ele>
        <time>2011-09-03T12:17:11Z</time>
      </trkpt>
      <trkpt lat="45.25197" lon="6.07999">
        <ele>2140.032227</ele>
        <time>2011-09-03T12:17:21Z</time>
      </trkpt>
      <trkpt lat="45.25224" lon="6.08">
        <ele>2133.302734</ele>
        <time>2011-09-03T12:17:47Z</time>
      </trkpt>
      <trkpt lat="45.25242" lon="6.08034">
        <ele>2135.706055</ele>
        <time>2011-09-03T12:18:11Z</time>
      </trkpt>
      <trkpt lat="45.25248" lon="6.08039">
        <ele>2138.590088</ele>
        <time>2011-09-03T12:18:25Z</time>
      </trkpt>
      <trkpt lat="45.25251" lon="6.08033">
        <ele>2138.109375</ele>
        <time>2011-09-03T12:18:36Z</time>
      </trkpt>
      <trkpt lat="45.25249" lon="6.08021">
        <ele>2138.590088</ele>
        <time>2011-09-03T12:20:42Z</time>
      </trkpt>
      <trkpt lat="45.25245" lon="6.08057">
        <ele>2137.628662</ele>
        <time>2011-09-03T12:21:07Z</time>
      </trkpt>
      <trkpt lat="45.25252" lon="6.0807">
        <ele>2137.628662</ele>
        <time>2011-09-03T12:21:18Z</time>
      </trkpt>
      <trkpt lat="45.2525" lon="6.08091">
        <ele>2140.512695</ele>
        <time>2011-09-03T12:21:34Z</time>
      </trkpt>
      <trkpt lat="45.25257" lon="6.08108">
        <ele>2134.26416</ele>
        <time>2011-09-03T12:22:09Z</time>
      </trkpt>
      <trkpt lat="45.25262" lon="6.08085">
        <ele>2128.976807</ele>
        <time>2011-09-03T12:22:32Z</time>
      </trkpt>
      <trkpt lat="45.25269" lon="6.08076">
        <ele>2128.015625</ele>
        <time>2011-09-03T12:22:41Z</time>
      </trkpt>
      <trkpt lat="45.25289" lon="6.08015">
        <ele>2120.805664</ele>
        <time>2011-09-03T12:23:27Z</time>
      </trkpt>
      <trkpt lat="45.25297" lon="6.08005">
        <ele>2118.883057</ele>
        <time>2011-09-03T12:23:36Z</time>
      </trkpt>
      <trkpt lat="45.25297" lon="6.07996">
        <ele>2119.36377</ele>
        <time>2011-09-03T12:23:42Z</time>
      </trkpt>
      <trkpt lat="45.25303" lon="6.0799">
        <ele>2119.36377</ele>
        <time>2011-09-03T12:23:52Z</time>
      </trkpt>
      <trkpt lat="45.25305" lon="6.07977">
        <ele>2117.921631</ele>
        <time>2011-09-03T12:24:04Z</time>
      </trkpt>
      <trkpt lat="45.25299" lon="6.07962">
        <ele>2120.324951</ele>
        <time>2011-09-03T12:24:18Z</time>
      </trkpt>
      <trkpt lat="45.25302" lon="6.0794">
        <ele>2120.805664</ele>
        <time>2011-09-03T12:24:34Z</time>
      </trkpt>
      <trkpt lat="45.25299" lon="6.07933">
        <ele>2118.883057</ele>
        <time>2011-09-03T12:24:44Z</time>
      </trkpt>
      <trkpt lat="45.25306" lon="6.07898">
        <ele>2121.766846</ele>
        <time>2011-09-03T12:25:08Z</time>
      </trkpt>
      <trkpt lat="45.25313" lon="6.07895">
        <ele>2120.324951</ele>
        <time>2011-09-03T12:25:20Z</time>
      </trkpt>
      <trkpt lat="45.25361" lon="6.07818">
        <ele>2117.921631</ele>
        <time>2011-09-03T12:26:27Z</time>
      </trkpt>
      <trkpt lat="45.25367" lon="6.07803">
        <ele>2117.440918</ele>
        <time>2011-09-03T12:26:36Z</time>
      </trkpt>
      <trkpt lat="45.25396" lon="6.07761">
        <ele>2112.634521</ele>
        <time>2011-09-03T12:27:12Z</time>
      </trkpt>
      <trkpt lat="45.2541" lon="6.07754">
        <ele>2111.192627</ele>
        <time>2011-09-03T12:27:26Z</time>
      </trkpt>
      <trkpt lat="45.25473" lon="6.07754">
        <ele>2107.827881</ele>
        <time>2011-09-03T12:28:24Z</time>
      </trkpt>
      <trkpt lat="45.25482" lon="6.07746">
        <ele>2106.385742</ele>
        <time>2011-09-03T12:28:35Z</time>
      </trkpt>
      <trkpt lat="45.25493" lon="6.07728">
        <ele>2103.02124</ele>
        <time>2011-09-03T12:28:54Z</time>
      </trkpt>
      <trkpt lat="45.25521" lon="6.07738">
        <ele>2102.540527</ele>
        <time>2011-09-03T12:29:21Z</time>
      </trkpt>
      <trkpt lat="45.25517" lon="6.07738">
        <ele>2107.827881</ele>
        <time>2011-09-03T12:29:54Z</time>
      </trkpt>
      <trkpt lat="45.25517" lon="6.07711">
        <ele>2099.176025</ele>
        <time>2011-09-03T12:30:27Z</time>
      </trkpt>
      <trkpt lat="45.25524" lon="6.0768">
        <ele>2096.772705</ele>
        <time>2011-09-03T12:30:48Z</time>
      </trkpt>
      <trkpt lat="45.25519" lon="6.07658">
        <ele>2095.330811</ele>
        <time>2011-09-03T12:31:01Z</time>
      </trkpt>
      <trkpt lat="45.25555" lon="6.07657">
        <ele>2092.92749</ele>
        <time>2011-09-03T12:31:37Z</time>
      </trkpt>
      <trkpt lat="45.25561" lon="6.07652">
        <ele>2092.447021</ele>
        <time>2011-09-03T12:31:44Z</time>
      </trkpt>
      <trkpt lat="45.25572" lon="6.07658">
        <ele>2087.640137</ele>
        <time>2011-09-03T12:31:56Z</time>
      </trkpt>
      <trkpt lat="45.25579" lon="6.07652">
        <ele>2085.236816</ele>
        <time>2011-09-03T12:32:03Z</time>
      </trkpt>
      <trkpt lat="45.25586" lon="6.07652">
        <ele>2083.794922</ele>
        <time>2011-09-03T12:32:09Z</time>
      </trkpt>
      <trkpt lat="45.25588" lon="6.07644">
        <ele>2082.353027</ele>
        <time>2011-09-03T12:32:28Z</time>
      </trkpt>
      <trkpt lat="45.25592" lon="6.07645">
        <ele>2080.43042</ele>
        <time>2011-09-03T12:32:34Z</time>
      </trkpt>
      <trkpt lat="45.25595" lon="6.07651">
        <ele>2078.0271</ele>
        <time>2011-09-03T12:32:40Z</time>
      </trkpt>
      <trkpt lat="45.25595" lon="6.07633">
        <ele>2074.181641</ele>
        <time>2011-09-03T12:32:52Z</time>
      </trkpt>
      <trkpt lat="45.25604" lon="6.07619">
        <ele>2068.894531</ele>
        <time>2011-09-03T12:33:08Z</time>
      </trkpt>
      <trkpt lat="45.25606" lon="6.07603">
        <ele>2065.049316</ele>
        <time>2011-09-03T12:33:22Z</time>
      </trkpt>
      <trkpt lat="45.25613" lon="6.07592">
        <ele>2061.204102</ele>
        <time>2011-09-03T12:33:37Z</time>
      </trkpt>
      <trkpt lat="45.25619" lon="6.07596">
        <ele>2058.800537</ele>
        <time>2011-09-03T12:33:47Z</time>
      </trkpt>
      <trkpt lat="45.25624" lon="6.07606">
        <ele>2054.955322</ele>
        <time>2011-09-03T12:34:01Z</time>
      </trkpt>
      <trkpt lat="45.25628" lon="6.07588">
        <ele>2049.668213</ele>
        <time>2011-09-03T12:34:17Z</time>
      </trkpt>
      <trkpt lat="45.25634" lon="6.07597">
        <ele>2045.822998</ele>
        <time>2011-09-03T12:34:32Z</time>
      </trkpt>
      <trkpt lat="45.25637" lon="6.07594">
        <ele>2042.458252</ele>
        <time>2011-09-03T12:34:44Z</time>
      </trkpt>
      <trkpt lat="45.25634" lon="6.07594">
        <ele>2043.419434</ele>
        <time>2011-09-03T12:34:52Z</time>
      </trkpt>
      <trkpt lat="45.25641" lon="6.07597">
        <ele>2044.380859</ele>
        <time>2011-09-03T12:35:01Z</time>
      </trkpt>
      <trkpt lat="45.25628" lon="6.07595">
        <ele>2050.148926</ele>
        <time>2011-09-03T12:35:40Z</time>
      </trkpt>
      <trkpt lat="45.25642" lon="6.07604">
        <ele>2044.380859</ele>
        <time>2011-09-03T12:36:03Z</time>
      </trkpt>
      <trkpt lat="45.25646" lon="6.07581">
        <ele>2038.613037</ele>
        <time>2011-09-03T12:36:20Z</time>
      </trkpt>
      <trkpt lat="45.25651" lon="6.07572">
        <ele>2034.287109</ele>
        <time>2011-09-03T12:36:30Z</time>
      </trkpt>
      <trkpt lat="45.25654" lon="6.07573">
        <ele>2031.403076</ele>
        <time>2011-09-03T12:36:36Z</time>
      </trkpt>
      <trkpt lat="45.25671" lon="6.07617">
        <ele>2021.789795</ele>
        <time>2011-09-03T12:37:10Z</time>
      </trkpt>
      <trkpt lat="45.25678" lon="6.07585">
        <ele>2016.021973</ele>
        <time>2011-09-03T12:37:36Z</time>
      </trkpt>
      <trkpt lat="45.25697" lon="6.07606">
        <ele>2010.253906</ele>
        <time>2011-09-03T12:37:59Z</time>
      </trkpt>
      <trkpt lat="45.25698" lon="6.07619">
        <ele>2006.889404</ele>
        <time>2011-09-03T12:38:12Z</time>
      </trkpt>
      <trkpt lat="45.25704" lon="6.07631">
        <ele>2003.044189</ele>
        <time>2011-09-03T12:38:26Z</time>
      </trkpt>
      <trkpt lat="45.25704" lon="6.07614">
        <ele>1999.198975</ele>
        <time>2011-09-03T12:38:43Z</time>
      </trkpt>
      <trkpt lat="45.25708" lon="6.07618">
        <ele>1996.315186</ele>
        <time>2011-09-03T12:38:51Z</time>
      </trkpt>
      <trkpt lat="45.2571" lon="6.07606">
        <ele>1994.872803</ele>
        <time>2011-09-03T12:39:03Z</time>
      </trkpt>
      <trkpt lat="45.25715" lon="6.07612">
        <ele>1992.469727</ele>
        <time>2011-09-03T12:39:13Z</time>
      </trkpt>
      <trkpt lat="45.25712" lon="6.07595">
        <ele>1990.066406</ele>
        <time>2011-09-03T12:39:28Z</time>
      </trkpt>
      <trkpt lat="45.25719" lon="6.07588">
        <ele>1991.989014</ele>
        <time>2011-09-03T12:39:36Z</time>
      </trkpt>
      <trkpt lat="45.25718" lon="6.07577">
        <ele>1979.972412</ele>
        <time>2011-09-03T12:39:53Z</time>
      </trkpt>
      <trkpt lat="45.25721" lon="6.07576">
        <ele>1978.530518</ele>
        <time>2011-09-03T12:39:57Z</time>
      </trkpt>
      <trkpt lat="45.25723" lon="6.07586">
        <ele>1976.60791</ele>
        <time>2011-09-03T12:40:06Z</time>
      </trkpt>
      <trkpt lat="45.25731" lon="6.07577">
        <ele>1972.281982</ele>
        <time>2011-09-03T12:40:22Z</time>
      </trkpt>
      <trkpt lat="45.2573" lon="6.07566">
        <ele>1974.20459</ele>
        <time>2011-09-03T12:40:35Z</time>
      </trkpt>
      <trkpt lat="45.25732" lon="6.07563">
        <ele>1973.243408</ele>
        <time>2011-09-03T12:40:39Z</time>
      </trkpt>
      <trkpt lat="45.25747" lon="6.0757">
        <ele>1973.243408</ele>
        <time>2011-09-03T12:40:55Z</time>
      </trkpt>
      <trkpt lat="45.25747" lon="6.07565">
        <ele>1972.762695</ele>
        <time>2011-09-03T12:41:01Z</time>
      </trkpt>
      <trkpt lat="45.25737" lon="6.0755">
        <ele>1968.91748</ele>
        <time>2011-09-03T12:41:17Z</time>
      </trkpt>
      <trkpt lat="45.25743" lon="6.07553">
        <ele>1965.072266</ele>
        <time>2011-09-03T12:41:27Z</time>
      </trkpt>
      <trkpt lat="45.25749" lon="6.07549">
        <ele>1965.552979</ele>
        <time>2011-09-03T12:41:39Z</time>
      </trkpt>
      <trkpt lat="45.25745" lon="6.07545">
        <ele>1965.072266</ele>
        <time>2011-09-03T12:41:46Z</time>
      </trkpt>
      <trkpt lat="45.2575" lon="6.07536">
        <ele>1964.591553</ele>
        <time>2011-09-03T12:41:56Z</time>
      </trkpt>
      <trkpt lat="45.25763" lon="6.07547">
        <ele>1968.436768</ele>
        <time>2011-09-03T12:42:08Z</time>
      </trkpt>
      <trkpt lat="45.2578" lon="6.07551">
        <ele>1971.320557</ele>
        <time>2011-09-03T12:42:28Z</time>
      </trkpt>
      <trkpt lat="45.25782" lon="6.07544">
        <ele>1975.165771</ele>
        <time>2011-09-03T12:42:35Z</time>
      </trkpt>
      <trkpt lat="45.2578" lon="6.07534">
        <ele>1976.127197</ele>
        <time>2011-09-03T12:42:44Z</time>
      </trkpt>
      <trkpt lat="45.25764" lon="6.07529">
        <ele>1950.652344</ele>
        <time>2011-09-03T12:43:03Z</time>
      </trkpt>
      <trkpt lat="45.25774" lon="6.07519">
        <ele>1931.906494</ele>
        <time>2011-09-03T12:43:32Z</time>
      </trkpt>
      <trkpt lat="45.25777" lon="6.0753">
        <ele>1924.216064</ele>
        <time>2011-09-03T12:43:49Z</time>
      </trkpt>
      <trkpt lat="45.25781" lon="6.07517">
        <ele>1917.967529</ele>
        <time>2011-09-03T12:44:03Z</time>
      </trkpt>
      <trkpt lat="45.25785" lon="6.07516">
        <ele>1916.044922</ele>
        <time>2011-09-03T12:44:07Z</time>
      </trkpt>
      <trkpt lat="45.25789" lon="6.07535">
        <ele>1908.354248</ele>
        <time>2011-09-03T12:44:22Z</time>
      </trkpt>
      <trkpt lat="45.25801" lon="6.0752">
        <ele>1901.144531</ele>
        <time>2011-09-03T12:44:40Z</time>
      </trkpt>
      <trkpt lat="45.25803" lon="6.07507">
        <ele>1899.22168</ele>
        <time>2011-09-03T12:44:52Z</time>
      </trkpt>
      <trkpt lat="45.25813" lon="6.07493">
        <ele>1902.105713</ele>
        <time>2011-09-03T12:45:08Z</time>
      </trkpt>
      <trkpt lat="45.25822" lon="6.07502">
        <ele>1892.492676</ele>
        <time>2011-09-03T12:45:26Z</time>
      </trkpt>
      <trkpt lat="45.25825" lon="6.07518">
        <ele>1889.608643</ele>
        <time>2011-09-03T12:45:38Z</time>
      </trkpt>
      <trkpt lat="45.25827" lon="6.07518">
        <ele>1888.166748</ele>
        <time>2011-09-03T12:45:42Z</time>
      </trkpt>
      <trkpt lat="45.25834" lon="6.075">
        <ele>1881.917969</ele>
        <time>2011-09-03T12:45:59Z</time>
      </trkpt>
      <trkpt lat="45.25832" lon="6.07481">
        <ele>1880.476074</ele>
        <time>2011-09-03T12:46:18Z</time>
      </trkpt>
      <trkpt lat="45.2584" lon="6.07465">
        <ele>1886.244141</ele>
        <time>2011-09-03T12:46:33Z</time>
      </trkpt>
      <trkpt lat="45.25835" lon="6.07445">
        <ele>1876.150146</ele>
        <time>2011-09-03T12:46:49Z</time>
      </trkpt>
      <trkpt lat="45.25839" lon="6.07432">
        <ele>1873.266357</ele>
        <time>2011-09-03T12:47:01Z</time>
      </trkpt>
      <trkpt lat="45.25853" lon="6.07415">
        <ele>1867.498047</ele>
        <time>2011-09-03T12:47:24Z</time>
      </trkpt>
      <trkpt lat="45.25861" lon="6.07411">
        <ele>1864.614258</ele>
        <time>2011-09-03T12:47:35Z</time>
      </trkpt>
      <trkpt lat="45.25866" lon="6.07419">
        <ele>1861.249756</ele>
        <time>2011-09-03T12:47:46Z</time>
      </trkpt>
      <trkpt lat="45.2588" lon="6.07398">
        <ele>1856.443115</ele>
        <time>2011-09-03T12:48:04Z</time>
      </trkpt>
      <trkpt lat="45.25885" lon="6.07383">
        <ele>1853.559326</ele>
        <time>2011-09-03T12:48:17Z</time>
      </trkpt>
      <trkpt lat="45.25911" lon="6.07351">
        <ele>1845.387939</ele>
        <time>2011-09-03T12:48:55Z</time>
      </trkpt>
      <trkpt lat="45.25915" lon="6.07325">
        <ele>1842.984619</ele>
        <time>2011-09-03T12:49:14Z</time>
      </trkpt>
      <trkpt lat="45.25924" lon="6.07303">
        <ele>1842.984619</ele>
        <time>2011-09-03T12:49:34Z</time>
      </trkpt>
      <trkpt lat="45.2593" lon="6.07298">
        <ele>1839.139404</ele>
        <time>2011-09-03T12:49:43Z</time>
      </trkpt>
      <trkpt lat="45.25929" lon="6.07278">
        <ele>1838.178223</ele>
        <time>2011-09-03T12:49:59Z</time>
      </trkpt>
      <trkpt lat="45.25954" lon="6.07215">
        <ele>1823.277832</ele>
        <time>2011-09-03T12:51:01Z</time>
      </trkpt>
      <trkpt lat="45.25962" lon="6.07211">
        <ele>1820.874512</ele>
        <time>2011-09-03T12:51:13Z</time>
      </trkpt>
      <trkpt lat="45.25968" lon="6.07197">
        <ele>1818.95166</ele>
        <time>2011-09-03T12:51:25Z</time>
      </trkpt>
      <trkpt lat="45.25986" lon="6.07175">
        <ele>1810.780518</ele>
        <time>2011-09-03T12:51:53Z</time>
      </trkpt>
      <trkpt lat="45.25995" lon="6.07171">
        <ele>1807.416016</ele>
        <time>2011-09-03T12:52:09Z</time>
      </trkpt>
      <trkpt lat="45.26007" lon="6.0715">
        <ele>1798.763916</ele>
        <time>2011-09-03T12:52:37Z</time>
      </trkpt>
      <trkpt lat="45.2601" lon="6.07165">
        <ele>1795.399414</ele>
        <time>2011-09-03T12:52:49Z</time>
      </trkpt>
      <trkpt lat="45.26019" lon="6.07156">
        <ele>1790.112305</ele>
        <time>2011-09-03T12:53:02Z</time>
      </trkpt>
      <trkpt lat="45.2603" lon="6.07123">
        <ele>1784.344238</ele>
        <time>2011-09-03T12:53:29Z</time>
      </trkpt>
      <trkpt lat="45.26044" lon="6.07114">
        <ele>1777.61499</ele>
        <time>2011-09-03T12:53:50Z</time>
      </trkpt>
      <trkpt lat="45.26065" lon="6.07082">
        <ele>1768.482422</ele>
        <time>2011-09-03T12:54:19Z</time>
      </trkpt>
      <trkpt lat="45.26071" lon="6.07041">
        <ele>1762.7146</ele>
        <time>2011-09-03T12:54:49Z</time>
      </trkpt>
      <trkpt lat="45.2609" lon="6.07017">
        <ele>1753.582031</ele>
        <time>2011-09-03T12:55:20Z</time>
      </trkpt>
      <trkpt lat="45.26093" lon="6.0702">
        <ele>1752.620605</ele>
        <time>2011-09-03T12:55:26Z</time>
      </trkpt>
      <trkpt lat="45.26102" lon="6.07011">
        <ele>1748.775391</ele>
        <time>2011-09-03T12:55:38Z</time>
      </trkpt>
      <trkpt lat="45.26109" lon="6.06983">
        <ele>1746.852783</ele>
        <time>2011-09-03T12:55:55Z</time>
      </trkpt>
      <trkpt lat="45.2612" lon="6.06976">
        <ele>1743.968994</ele>
        <time>2011-09-03T12:56:13Z</time>
      </trkpt>
      <trkpt lat="45.26132" lon="6.06952">
        <ele>1738.200928</ele>
        <time>2011-09-03T12:56:36Z</time>
      </trkpt>
      <trkpt lat="45.26142" lon="6.06942">
        <ele>1734.355713</ele>
        <time>2011-09-03T12:56:50Z</time>
      </trkpt>
      <trkpt lat="45.26153" lon="6.06947">
        <ele>1729.549072</ele>
        <time>2011-09-03T12:57:07Z</time>
      </trkpt>
      <trkpt lat="45.26154" lon="6.06955">
        <ele>1728.587891</ele>
        <time>2011-09-03T12:57:17Z</time>
      </trkpt>
      <trkpt lat="45.26159" lon="6.06949">
        <ele>1725.703857</ele>
        <time>2011-09-03T12:57:25Z</time>
      </trkpt>
      <trkpt lat="45.26162" lon="6.06952">
        <ele>1722.819824</ele>
        <time>2011-09-03T12:57:31Z</time>
      </trkpt>
      <trkpt lat="45.26176" lon="6.06936">
        <ele>1718.493896</ele>
        <time>2011-09-03T12:57:45Z</time>
      </trkpt>
      <trkpt lat="45.26195" lon="6.06929">
        <ele>1716.571289</ele>
        <time>2011-09-03T12:58:02Z</time>
      </trkpt>
      <trkpt lat="45.26201" lon="6.06922">
        <ele>1716.571289</ele>
        <time>2011-09-03T12:58:08Z</time>
      </trkpt>
      <trkpt lat="45.26203" lon="6.06908">
        <ele>1715.610107</ele>
        <time>2011-09-03T12:58:19Z</time>
      </trkpt>
      <trkpt lat="45.26222" lon="6.06902">
        <ele>1709.842041</ele>
        <time>2011-09-03T12:58:39Z</time>
      </trkpt>
      <trkpt lat="45.26235" lon="6.06882">
        <ele>1703.593506</ele>
        <time>2011-09-03T12:58:55Z</time>
      </trkpt>
      <trkpt lat="45.26279" lon="6.06846">
        <ele>1691.096191</ele>
        <time>2011-09-03T12:59:50Z</time>
      </trkpt>
      <trkpt lat="45.26283" lon="6.06839">
        <ele>1690.615479</ele>
        <time>2011-09-03T12:59:55Z</time>
      </trkpt>
      <trkpt lat="45.26338" lon="6.06802">
        <ele>1683.405762</ele>
        <time>2011-09-03T13:00:45Z</time>
      </trkpt>
      <trkpt lat="45.26364" lon="6.06775">
        <ele>1669.466797</ele>
        <time>2011-09-03T13:01:08Z</time>
      </trkpt>
      <trkpt lat="45.26377" lon="6.06769">
        <ele>1666.582764</ele>
        <time>2011-09-03T13:01:20Z</time>
      </trkpt>
      <trkpt lat="45.26388" lon="6.06774">
        <ele>1665.140869</ele>
        <time>2011-09-03T13:01:30Z</time>
      </trkpt>
      <trkpt lat="45.2645" lon="6.06766">
        <ele>1659.372803</ele>
        <time>2011-09-03T13:02:17Z</time>
      </trkpt>
      <trkpt lat="45.26487" lon="6.06775">
        <ele>1649.759766</ele>
        <time>2011-09-03T13:03:08Z</time>
      </trkpt>
      <trkpt lat="45.26502" lon="6.06798">
        <ele>1641.588379</ele>
        <time>2011-09-03T13:03:30Z</time>
      </trkpt>
      <trkpt lat="45.26512" lon="6.06794">
        <ele>1640.146484</ele>
        <time>2011-09-03T13:03:37Z</time>
      </trkpt>
      <trkpt lat="45.2653" lon="6.06802">
        <ele>1633.417236</ele>
        <time>2011-09-03T13:03:54Z</time>
      </trkpt>
      <trkpt lat="45.26532" lon="6.06813">
        <ele>1631.01416</ele>
        <time>2011-09-03T13:04:00Z</time>
      </trkpt>
      <trkpt lat="45.26585" lon="6.06828">
        <ele>1617.55542</ele>
        <time>2011-09-03T13:04:53Z</time>
      </trkpt>
      <trkpt lat="45.26596" lon="6.06824">
        <ele>1615.633057</ele>
        <time>2011-09-03T13:05:01Z</time>
      </trkpt>
      <trkpt lat="45.26616" lon="6.06834">
        <ele>1608.903564</ele>
        <time>2011-09-03T13:05:25Z</time>
      </trkpt>
      <trkpt lat="45.26623" lon="6.06817">
        <ele>1605.05835</ele>
        <time>2011-09-03T13:05:36Z</time>
      </trkpt>
      <trkpt lat="45.26629" lon="6.06813">
        <ele>1602.174316</ele>
        <time>2011-09-03T13:05:43Z</time>
      </trkpt>
      <trkpt lat="45.26636" lon="6.06833">
        <ele>1597.848633</ele>
        <time>2011-09-03T13:05:56Z</time>
      </trkpt>
      <trkpt lat="45.26655" lon="6.06863">
        <ele>1593.041748</ele>
        <time>2011-09-03T13:06:19Z</time>
      </trkpt>
      <trkpt lat="45.26669" lon="6.06896">
        <ele>1584.390137</ele>
        <time>2011-09-03T13:06:38Z</time>
      </trkpt>
      <trkpt lat="45.26671" lon="6.06912">
        <ele>1581.986816</ele>
        <time>2011-09-03T13:06:43Z</time>
      </trkpt>
      <trkpt lat="45.26683" lon="6.06942">
        <ele>1582.467529</ele>
        <time>2011-09-03T13:06:57Z</time>
      </trkpt>
      <trkpt lat="45.26707" lon="6.06969">
        <ele>1577.180176</ele>
        <time>2011-09-03T13:07:19Z</time>
      </trkpt>
      <trkpt lat="45.26715" lon="6.06972">
        <ele>1575.257324</ele>
        <time>2011-09-03T13:07:24Z</time>
      </trkpt>
      <trkpt lat="45.26717" lon="6.0698">
        <ele>1573.334961</ele>
        <time>2011-09-03T13:07:28Z</time>
      </trkpt>
      <trkpt lat="45.26716" lon="6.06994">
        <ele>1568.52832</ele>
        <time>2011-09-03T13:07:37Z</time>
      </trkpt>
      <trkpt lat="45.26718" lon="6.06994">
        <ele>1565.644531</ele>
        <time>2011-09-03T13:07:40Z</time>
      </trkpt>
      <trkpt lat="45.26725" lon="6.07012">
        <ele>1568.52832</ele>
        <time>2011-09-03T13:07:58Z</time>
      </trkpt>
      <trkpt lat="45.2674" lon="6.07016">
        <ele>1564.683105</ele>
        <time>2011-09-03T13:08:11Z</time>
      </trkpt>
      <trkpt lat="45.26759" lon="6.07047">
        <ele>1560.356934</ele>
        <time>2011-09-03T13:08:29Z</time>
      </trkpt>
      <trkpt lat="45.26771" lon="6.07055">
        <ele>1557.473145</ele>
        <time>2011-09-03T13:08:39Z</time>
      </trkpt>
      <trkpt lat="45.26772" lon="6.07061">
        <ele>1554.589111</ele>
        <time>2011-09-03T13:08:43Z</time>
      </trkpt>
      <trkpt lat="45.26777" lon="6.07064">
        <ele>1554.589111</ele>
        <time>2011-09-03T13:08:49Z</time>
      </trkpt>
      <trkpt lat="45.26779" lon="6.07034">
        <ele>1547.37915</ele>
        <time>2011-09-03T13:09:15Z</time>
      </trkpt>
      <trkpt lat="45.26807" lon="6.07049">
        <ele>1537.766113</ele>
        <time>2011-09-03T13:09:49Z</time>
      </trkpt>
      <trkpt lat="45.26817" lon="6.07045">
        <ele>1543.533936</ele>
        <time>2011-09-03T13:09:59Z</time>
      </trkpt>
      <trkpt lat="45.26829" lon="6.07065">
        <ele>1543.533936</ele>
        <time>2011-09-03T13:10:24Z</time>
      </trkpt>
      <trkpt lat="45.26832" lon="6.0708">
        <ele>1541.130615</ele>
        <time>2011-09-03T13:10:32Z</time>
      </trkpt>
      <trkpt lat="45.26846" lon="6.07092">
        <ele>1531.517334</ele>
        <time>2011-09-03T13:10:46Z</time>
      </trkpt>
      <trkpt lat="45.26876" lon="6.07091">
        <ele>1535.843506</ele>
        <time>2011-09-03T13:11:19Z</time>
      </trkpt>
      <trkpt lat="45.26881" lon="6.07077">
        <ele>1528.152832</ele>
        <time>2011-09-03T13:11:37Z</time>
      </trkpt>
      <trkpt lat="45.2689" lon="6.07073">
        <ele>1530.556152</ele>
        <time>2011-09-03T13:11:44Z</time>
      </trkpt>
      <trkpt lat="45.26908" lon="6.07086">
        <ele>1530.075439</ele>
        <time>2011-09-03T13:11:58Z</time>
      </trkpt>
      <trkpt lat="45.26937" lon="6.0706">
        <ele>1525.268799</ele>
        <time>2011-09-03T13:12:32Z</time>
      </trkpt>
      <trkpt lat="45.26944" lon="6.07062">
        <ele>1528.152832</ele>
        <time>2011-09-03T13:12:38Z</time>
      </trkpt>
      <trkpt lat="45.26951" lon="6.07054">
        <ele>1528.633545</ele>
        <time>2011-09-03T13:12:46Z</time>
      </trkpt>
      <trkpt lat="45.26974" lon="6.07061">
        <ele>1522.38501</ele>
        <time>2011-09-03T13:13:01Z</time>
      </trkpt>
      <trkpt lat="45.26992" lon="6.07057">
        <ele>1516.136475</ele>
        <time>2011-09-03T13:13:14Z</time>
      </trkpt>
      <trkpt lat="45.27008" lon="6.07065">
        <ele>1509.407227</ele>
        <time>2011-09-03T13:13:28Z</time>
      </trkpt>
      <trkpt lat="45.27016" lon="6.07076">
        <ele>1507.484619</ele>
        <time>2011-09-03T13:13:37Z</time>
      </trkpt>
      <trkpt lat="45.27021" lon="6.07095">
        <ele>1510.849121</ele>
        <time>2011-09-03T13:13:45Z</time>
      </trkpt>
      <trkpt lat="45.27027" lon="6.07101">
        <ele>1507.003906</ele>
        <time>2011-09-03T13:13:52Z</time>
      </trkpt>
      <trkpt lat="45.27045" lon="6.07102">
        <ele>1494.987305</ele>
        <time>2011-09-03T13:14:08Z</time>
      </trkpt>
      <trkpt lat="45.27053" lon="6.07112">
        <ele>1489.219482</ele>
        <time>2011-09-03T13:14:16Z</time>
      </trkpt>
      <trkpt lat="45.2706" lon="6.07113">
        <ele>1488.258301</ele>
        <time>2011-09-03T13:14:21Z</time>
      </trkpt>
      <trkpt lat="45.27068" lon="6.07127">
        <ele>1487.777588</ele>
        <time>2011-09-03T13:14:32Z</time>
      </trkpt>
      <trkpt lat="45.27078" lon="6.07131">
        <ele>1487.296875</ele>
        <time>2011-09-03T13:14:42Z</time>
      </trkpt>
      <trkpt lat="45.2708" lon="6.07141">
        <ele>1483.932129</ele>
        <time>2011-09-03T13:14:49Z</time>
      </trkpt>
      <trkpt lat="45.27077" lon="6.07152">
        <ele>1480.086914</ele>
        <time>2011-09-03T13:15:26Z</time>
      </trkpt>
      <trkpt lat="45.27081" lon="6.07151">
        <ele>1483.451416</ele>
        <time>2011-09-03T13:16:05Z</time>
      </trkpt>
      <trkpt lat="45.27077" lon="6.07148">
        <ele>1485.85498</ele>
        <time>2011-09-03T13:16:18Z</time>
      </trkpt>
      <trkpt lat="45.27081" lon="6.07152">
        <ele>1489.219482</ele>
        <time>2011-09-03T13:16:47Z</time>
      </trkpt>
      <trkpt lat="45.27077" lon="6.0715">
        <ele>1481.04834</ele>
        <time>2011-09-03T13:17:07Z</time>
      </trkpt>
      <trkpt lat="45.27076" lon="6.07143">
        <ele>1478.64502</ele>
        <time>2011-09-03T13:17:27Z</time>
      </trkpt>
      <trkpt lat="45.27084" lon="6.07132">
        <ele>1486.816162</ele>
        <time>2011-09-03T13:17:35Z</time>
      </trkpt>
      <trkpt lat="45.27092" lon="6.07131">
        <ele>1488.258301</ele>
        <time>2011-09-03T13:17:43Z</time>
      </trkpt>
      <trkpt lat="45.27099" lon="6.07144">
        <ele>1486.816162</ele>
        <time>2011-09-03T13:17:53Z</time>
      </trkpt>
      <trkpt lat="45.27104" lon="6.07145">
        <ele>1486.816162</ele>
        <time>2011-09-03T13:17:57Z</time>
      </trkpt>
      <trkpt lat="45.27107" lon="6.07156">
        <ele>1493.064697</ele>
        <time>2011-09-03T13:18:06Z</time>
      </trkpt>
      <trkpt lat="45.2711" lon="6.07155">
        <ele>1493.54541</ele>
        <time>2011-09-03T13:18:09Z</time>
      </trkpt>
      <trkpt lat="45.27122" lon="6.07184">
        <ele>1490.661377</ele>
        <time>2011-09-03T13:18:31Z</time>
      </trkpt>
      <trkpt lat="45.27119" lon="6.07194">
        <ele>1490.661377</ele>
        <time>2011-09-03T13:18:38Z</time>
      </trkpt>
      <trkpt lat="45.27125" lon="6.07198">
        <ele>1488.258301</ele>
        <time>2011-09-03T13:18:44Z</time>
      </trkpt>
      <trkpt lat="45.27132" lon="6.07212">
        <ele>1486.816162</ele>
        <time>2011-09-03T13:18:53Z</time>
      </trkpt>
      <trkpt lat="45.2713" lon="6.07215">
        <ele>1486.335693</ele>
        <time>2011-09-03T13:18:55Z</time>
      </trkpt>
      <trkpt lat="45.27144" lon="6.07225">
        <ele>1479.125488</ele>
        <time>2011-09-03T13:19:10Z</time>
      </trkpt>
      <trkpt lat="45.27146" lon="6.07235">
        <ele>1479.125488</ele>
        <time>2011-09-03T13:19:20Z</time>
      </trkpt>
      <trkpt lat="45.27152" lon="6.07242">
        <ele>1476.241699</ele>
        <time>2011-09-03T13:19:26Z</time>
      </trkpt>
      <trkpt lat="45.27159" lon="6.07241">
        <ele>1470.473877</ele>
        <time>2011-09-03T13:19:32Z</time>
      </trkpt>
      <trkpt lat="45.27161" lon="6.07249">
        <ele>1467.109131</ele>
        <time>2011-09-03T13:19:36Z</time>
      </trkpt>
      <trkpt lat="45.27157" lon="6.07259">
        <ele>1464.705811</ele>
        <time>2011-09-03T13:19:41Z</time>
      </trkpt>
      <trkpt lat="45.27159" lon="6.07263">
        <ele>1464.225098</ele>
        <time>2011-09-03T13:19:44Z</time>
      </trkpt>
      <trkpt lat="45.27161" lon="6.07257">
        <ele>1466.147705</ele>
        <time>2011-09-03T13:19:50Z</time>
      </trkpt>
      <trkpt lat="45.27162" lon="6.07266">
        <ele>1468.55127</ele>
        <time>2011-09-03T13:19:57Z</time>
      </trkpt>
      <trkpt lat="45.27164" lon="6.0725">
        <ele>1461.341309</ele>
        <time>2011-09-03T13:20:14Z</time>
      </trkpt>
      <trkpt lat="45.27182" lon="6.07248">
        <ele>1452.689453</ele>
        <time>2011-09-03T13:20:24Z</time>
      </trkpt>
      <trkpt lat="45.27192" lon="6.07262">
        <ele>1445.960205</ele>
        <time>2011-09-03T13:20:42Z</time>
      </trkpt>
      <trkpt lat="45.27188" lon="6.07268">
        <ele>1447.4021</ele>
        <time>2011-09-03T13:20:48Z</time>
      </trkpt>
      <trkpt lat="45.27211" lon="6.07274">
        <ele>1439.230957</ele>
        <time>2011-09-03T13:21:16Z</time>
      </trkpt>
      <trkpt lat="45.27216" lon="6.0729">
        <ele>1434.424316</ele>
        <time>2011-09-03T13:21:29Z</time>
      </trkpt>
      <trkpt lat="45.27211" lon="6.0731">
        <ele>1432.501709</ele>
        <time>2011-09-03T13:21:44Z</time>
      </trkpt>
      <trkpt lat="45.27215" lon="6.07309">
        <ele>1431.540283</ele>
        <time>2011-09-03T13:21:47Z</time>
      </trkpt>
      <trkpt lat="45.27223" lon="6.0732">
        <ele>1426.733887</ele>
        <time>2011-09-03T13:21:59Z</time>
      </trkpt>
      <trkpt lat="45.2722" lon="6.07321">
        <ele>1424.330566</ele>
        <time>2011-09-03T13:22:03Z</time>
      </trkpt>
      <trkpt lat="45.27225" lon="6.07338">
        <ele>1422.888672</ele>
        <time>2011-09-03T13:22:18Z</time>
      </trkpt>
      <trkpt lat="45.27237" lon="6.0734">
        <ele>1420.004639</ele>
        <time>2011-09-03T13:22:27Z</time>
      </trkpt>
      <trkpt lat="45.27246" lon="6.07352">
        <ele>1414.236572</ele>
        <time>2011-09-03T13:22:36Z</time>
      </trkpt>
      <trkpt lat="45.27269" lon="6.07407">
        <ele>1408.949463</ele>
        <time>2011-09-03T13:23:12Z</time>
      </trkpt>
      <trkpt lat="45.2729" lon="6.07422">
        <ele>1402.700684</ele>
        <time>2011-09-03T13:23:32Z</time>
      </trkpt>
      <trkpt lat="45.27298" lon="6.07419">
        <ele>1405.104248</ele>
        <time>2011-09-03T13:23:41Z</time>
      </trkpt>
      <trkpt lat="45.27315" lon="6.07447">
        <ele>1402.700684</ele>
        <time>2011-09-03T13:24:03Z</time>
      </trkpt>
      <trkpt lat="45.27332" lon="6.0746">
        <ele>1401.258789</ele>
        <time>2011-09-03T13:24:14Z</time>
      </trkpt>
      <trkpt lat="45.27359" lon="6.07473">
        <ele>1407.988281</ele>
        <time>2011-09-03T13:24:32Z</time>
      </trkpt>
      <trkpt lat="45.2737" lon="6.07469">
        <ele>1413.275391</ele>
        <time>2011-09-03T13:24:38Z</time>
      </trkpt>
      <trkpt lat="45.27379" lon="6.07475">
        <ele>1417.601074</ele>
        <time>2011-09-03T13:24:44Z</time>
      </trkpt>
      <trkpt lat="45.27384" lon="6.07472">
        <ele>1417.120605</ele>
        <time>2011-09-03T13:24:50Z</time>
      </trkpt>
      <trkpt lat="45.27393" lon="6.07475">
        <ele>1409.430176</ele>
        <time>2011-09-03T13:24:57Z</time>
      </trkpt>
      <trkpt lat="45.27396" lon="6.07493">
        <ele>1400.297607</ele>
        <time>2011-09-03T13:25:08Z</time>
      </trkpt>
      <trkpt lat="45.274" lon="6.07498">
        <ele>1395.97168</ele>
        <time>2011-09-03T13:25:13Z</time>
      </trkpt>
      <trkpt lat="45.27398" lon="6.07518">
        <ele>1388.28125</ele>
        <time>2011-09-03T13:25:25Z</time>
      </trkpt>
      <trkpt lat="45.27402" lon="6.07514">
        <ele>1392.126465</ele>
        <time>2011-09-03T13:25:33Z</time>
      </trkpt>
      <trkpt lat="45.27425" lon="6.07508">
        <ele>1390.203857</ele>
        <time>2011-09-03T13:25:58Z</time>
      </trkpt>
      <trkpt lat="45.27462" lon="6.0754">
        <ele>1358.480225</ele>
        <time>2011-09-03T13:26:34Z</time>
      </trkpt>
      <trkpt lat="45.27462" lon="6.07551">
        <ele>1359.44165</ele>
        <time>2011-09-03T13:26:41Z</time>
      </trkpt>
      <trkpt lat="45.27469" lon="6.07555">
        <ele>1355.115479</ele>
        <time>2011-09-03T13:26:51Z</time>
      </trkpt>
      <trkpt lat="45.27491" lon="6.07542">
        <ele>1341.657227</ele>
        <time>2011-09-03T13:27:09Z</time>
      </trkpt>
      <trkpt lat="45.27495" lon="6.07551">
        <ele>1335.88916</ele>
        <time>2011-09-03T13:27:17Z</time>
      </trkpt>
      <trkpt lat="45.27515" lon="6.07562">
        <ele>1333.966553</ele>
        <time>2011-09-03T13:27:40Z</time>
      </trkpt>
      <trkpt lat="45.27518" lon="6.0757">
        <ele>1332.043945</ele>
        <time>2011-09-03T13:27:47Z</time>
      </trkpt>
      <trkpt lat="45.27524" lon="6.07571">
        <ele>1326.276123</ele>
        <time>2011-09-03T13:27:52Z</time>
      </trkpt>
      <trkpt lat="45.27524" lon="6.07576">
        <ele>1325.314697</ele>
        <time>2011-09-03T13:27:57Z</time>
      </trkpt>
      <trkpt lat="45.27533" lon="6.07577">
        <ele>1316.662842</ele>
        <time>2011-09-03T13:28:06Z</time>
      </trkpt>
      <trkpt lat="45.27522" lon="6.07586">
        <ele>1315.70166</ele>
        <time>2011-09-03T13:28:18Z</time>
      </trkpt>
      <trkpt lat="45.27505" lon="6.07626">
        <ele>1312.336914</ele>
        <time>2011-09-03T13:28:37Z</time>
      </trkpt>
      <trkpt lat="45.27485" lon="6.07633">
        <ele>1313.778809</ele>
        <time>2011-09-03T13:28:50Z</time>
      </trkpt>
      <trkpt lat="45.27483" lon="6.07642">
        <ele>1313.778809</ele>
        <time>2011-09-03T13:28:58Z</time>
      </trkpt>
      <trkpt lat="45.27485" lon="6.07639">
        <ele>1312.817627</ele>
        <time>2011-09-03T13:29:01Z</time>
      </trkpt>
      <trkpt lat="45.27501" lon="6.07643">
        <ele>1307.530273</ele>
        <time>2011-09-03T13:29:19Z</time>
      </trkpt>
      <trkpt lat="45.27531" lon="6.07634">
        <ele>1301.762451</ele>
        <time>2011-09-03T13:29:37Z</time>
      </trkpt>
      <trkpt lat="45.27539" lon="6.07646">
        <ele>1300.801025</ele>
        <time>2011-09-03T13:29:44Z</time>
      </trkpt>
      <trkpt lat="45.27631" lon="6.07611">
        <ele>1281.574707</ele>
        <time>2011-09-03T13:30:32Z</time>
      </trkpt>
      <trkpt lat="45.2765" lon="6.07571">
        <ele>1257.541748</ele>
        <time>2011-09-03T13:30:54Z</time>
      </trkpt>
      <trkpt lat="45.27662" lon="6.0756">
        <ele>1243.602539</ele>
        <time>2011-09-03T13:31:01Z</time>
      </trkpt>
      <trkpt lat="45.27668" lon="6.07574">
        <ele>1244.563965</ele>
        <time>2011-09-03T13:31:12Z</time>
      </trkpt>
      <trkpt lat="45.27668" lon="6.07587">
        <ele>1242.641357</ele>
        <time>2011-09-03T13:31:17Z</time>
      </trkpt>
      <trkpt lat="45.27673" lon="6.07587">
        <ele>1241.199219</ele>
        <time>2011-09-03T13:31:23Z</time>
      </trkpt>
      <trkpt lat="45.27678" lon="6.07562">
        <ele>1239.757324</ele>
        <time>2011-09-03T13:31:40Z</time>
      </trkpt>
      <trkpt lat="45.2768" lon="6.0753">
        <ele>1252.254395</ele>
        <time>2011-09-03T13:31:58Z</time>
      </trkpt>
      <trkpt lat="45.27684" lon="6.07516">
        <ele>1255.138428</ele>
        <time>2011-09-03T13:32:03Z</time>
      </trkpt>
      <trkpt lat="45.27706" lon="6.07479">
        <ele>1202.265869</ele>
        <time>2011-09-03T13:32:22Z</time>
      </trkpt>
      <trkpt lat="45.2771" lon="6.07461">
        <ele>1183.520264</ele>
        <time>2011-09-03T13:32:29Z</time>
      </trkpt>
      <trkpt lat="45.27717" lon="6.07457">
        <ele>1167.658447</ele>
        <time>2011-09-03T13:32:35Z</time>
      </trkpt>
      <trkpt lat="45.27719" lon="6.07448">
        <ele>1162.371094</ele>
        <time>2011-09-03T13:32:46Z</time>
      </trkpt>
      <trkpt lat="45.27711" lon="6.07437">
        <ele>1149.393555</ele>
        <time>2011-09-03T13:33:01Z</time>
      </trkpt>
      <trkpt lat="45.27712" lon="6.07416">
        <ele>1160.448486</ele>
        <time>2011-09-03T13:33:11Z</time>
      </trkpt>
      <trkpt lat="45.2773" lon="6.07392">
        <ele>1224.856934</ele>
        <time>2011-09-03T13:33:25Z</time>
      </trkpt>
      <trkpt lat="45.27742" lon="6.07385">
        <ele>1224.376221</ele>
        <time>2011-09-03T13:33:36Z</time>
      </trkpt>
      <trkpt lat="45.27746" lon="6.0737">
        <ele>1171.984375</ele>
        <time>2011-09-03T13:34:39Z</time>
      </trkpt>
      <trkpt lat="45.27744" lon="6.07335">
        <ele>1165.255371</ele>
        <time>2011-09-03T13:34:48Z</time>
      </trkpt>
      <trkpt lat="45.27753" lon="6.07313">
        <ele>1164.774658</ele>
        <time>2011-09-03T13:34:54Z</time>
      </trkpt>
      <trkpt lat="45.27765" lon="6.07257">
        <ele>1145.067383</ele>
        <time>2011-09-03T13:35:13Z</time>
      </trkpt>
      <trkpt lat="45.27763" lon="6.0722">
        <ele>1132.570557</ele>
        <time>2011-09-03T13:35:24Z</time>
      </trkpt>
      <trkpt lat="45.27767" lon="6.07181">
        <ele>1128.244385</ele>
        <time>2011-09-03T13:35:37Z</time>
      </trkpt>
      <trkpt lat="45.27759" lon="6.07166">
        <ele>1124.39917</ele>
        <time>2011-09-03T13:35:42Z</time>
      </trkpt>
      <trkpt lat="45.27758" lon="6.07149">
        <ele>1118.631348</ele>
        <time>2011-09-03T13:35:47Z</time>
      </trkpt>
      <trkpt lat="45.27751" lon="6.07137">
        <ele>1122.476562</ele>
        <time>2011-09-03T13:35:52Z</time>
      </trkpt>
      <trkpt lat="45.2775" lon="6.07113">
        <ele>1109.979248</ele>
        <time>2011-09-03T13:35:59Z</time>
      </trkpt>
      <trkpt lat="45.27744" lon="6.07073">
        <ele>1109.979248</ele>
        <time>2011-09-03T13:36:09Z</time>
      </trkpt>
      <trkpt lat="45.27738" lon="6.07056">
        <ele>1121.99585</ele>
        <time>2011-09-03T13:36:17Z</time>
      </trkpt>
      <trkpt lat="45.27725" lon="6.07038">
        <ele>1197.940186</ele>
        <time>2011-09-03T13:36:30Z</time>
      </trkpt>
      <trkpt lat="45.27715" lon="6.07054">
        <ele>1272.922852</ele>
        <time>2011-09-03T13:36:39Z</time>
      </trkpt>
      <trkpt lat="45.27714" lon="6.07068">
        <ele>1310.89502</ele>
        <time>2011-09-03T13:36:47Z</time>
      </trkpt>
      <trkpt lat="45.27736" lon="6.07079">
        <ele>1270.519531</ele>
        <time>2011-09-03T13:36:59Z</time>
      </trkpt>
      <trkpt lat="45.27766" lon="6.07118">
        <ele>1219.089111</ele>
        <time>2011-09-03T13:37:16Z</time>
      </trkpt>
      <trkpt lat="45.27818" lon="6.07141">
        <ele>1136.89624</ele>
        <time>2011-09-03T13:37:34Z</time>
      </trkpt>
      <trkpt lat="45.27845" lon="6.07159">
        <ele>1108.056885</ele>
        <time>2011-09-03T13:37:45Z</time>
      </trkpt>
      <trkpt lat="45.27862" lon="6.0718">
        <ele>1129.686279</ele>
        <time>2011-09-03T13:37:58Z</time>
      </trkpt>
      <trkpt lat="45.27905" lon="6.07198">
        <ele>1117.189453</ele>
        <time>2011-09-03T13:38:24Z</time>
      </trkpt>
      <trkpt lat="45.27919" lon="6.07196">
        <ele>1118.631348</ele>
        <time>2011-09-03T13:38:29Z</time>
      </trkpt>
      <trkpt lat="45.27975" lon="6.07219">
        <ele>1099.885498</ele>
        <time>2011-09-03T13:38:54Z</time>
      </trkpt>
      <trkpt lat="45.27985" lon="6.07229">
        <ele>1095.55957</ele>
        <time>2011-09-03T13:38:59Z</time>
      </trkpt>
      <trkpt lat="45.28007" lon="6.07297">
        <ele>1089.311035</ele>
        <time>2011-09-03T13:39:23Z</time>
      </trkpt>
      <trkpt lat="45.28015" lon="6.0731">
        <ele>1086.907715</ele>
        <time>2011-09-03T13:39:29Z</time>
      </trkpt>
      <trkpt lat="45.28017" lon="6.07323">
        <ele>1087.869141</ele>
        <time>2011-09-03T13:39:33Z</time>
      </trkpt>
      <trkpt lat="45.28005" lon="6.07357">
        <ele>1086.907715</ele>
        <time>2011-09-03T13:39:43Z</time>
      </trkpt>
      <trkpt lat="45.28" lon="6.07384">
        <ele>1084.023926</ele>
        <time>2011-09-03T13:39:52Z</time>
      </trkpt>
      <trkpt lat="45.28004" lon="6.07395">
        <ele>1077.775146</ele>
        <time>2011-09-03T13:39:57Z</time>
      </trkpt>
      <trkpt lat="45.28011" lon="6.07399">
        <ele>1075.371826</ele>
        <time>2011-09-03T13:40:00Z</time>
      </trkpt>
      <trkpt lat="45.28052" lon="6.07371">
        <ele>1102.769531</ele>
        <time>2011-09-03T13:40:18Z</time>
      </trkpt>
      <trkpt lat="45.28106" lon="6.07362">
        <ele>1096.520996</ele>
        <time>2011-09-03T13:40:39Z</time>
      </trkpt>
      <trkpt lat="45.28133" lon="6.07366">
        <ele>1110.940674</ele>
        <time>2011-09-03T13:40:50Z</time>
      </trkpt>
      <trkpt lat="45.28268" lon="6.07417">
        <ele>1067.681152</ele>
        <time>2011-09-03T13:41:43Z</time>
      </trkpt>
      <trkpt lat="45.28283" lon="6.07435">
        <ele>1076.333252</ele>
        <time>2011-09-03T13:41:55Z</time>
      </trkpt>
      <trkpt lat="45.28284" lon="6.07452">
        <ele>1064.797363</ele>
        <time>2011-09-03T13:42:13Z</time>
      </trkpt>
    </trkseg>
  </trk>
</gpx>